<?xml version="1.0" encoding="UTF-8" ?>
<gpx version="1.1" xmlns:xsi="http://www.w3.org/2001/XMLSchema-instance" 
    xmlns="http://www.topografix.com/GPX/1/1"
    xsi:schemaLocation="http://www.topografix.com/GPX/1/1 http://www.topografix.com/GPX/1/1/gpx.xsd" 
    creator="Openrunner - https://www.openrunner.com" >	<trk>
	                   <name>TDJ 26 / 34K-22766621</name>
						<trkseg>
					<trkpt lat="49.870480" lon="4.893270">
						<ele>177</ele>
						<time>2025-12-07T11:14:57Z</time>
					</trkpt>
					<trkpt lat="49.870450" lon="4.893220">
						<ele>177</ele>
						<time>2025-12-07T11:14:59Z</time>
					</trkpt>
					<trkpt lat="49.870240" lon="4.893170">
						<ele>178</ele>
						<time>2025-12-07T11:15:10Z</time>
					</trkpt>
					<trkpt lat="49.870160" lon="4.893160">
						<ele>177</ele>
						<time>2025-12-07T11:15:14Z</time>
					</trkpt>
					<trkpt lat="49.869930" lon="4.893140">
						<ele>177</ele>
						<time>2025-12-07T11:15:25Z</time>
					</trkpt>
					<trkpt lat="49.869690" lon="4.893130">
						<ele>177</ele>
						<time>2025-12-07T11:15:37Z</time>
					</trkpt>
					<trkpt lat="49.869410" lon="4.893130">
						<ele>177</ele>
						<time>2025-12-07T11:15:51Z</time>
					</trkpt>
					<trkpt lat="49.869260" lon="4.893120">
						<ele>177</ele>
						<time>2025-12-07T11:15:59Z</time>
					</trkpt>
					<trkpt lat="49.869150" lon="4.893110">
						<ele>177</ele>
						<time>2025-12-07T11:16:04Z</time>
					</trkpt>
					<trkpt lat="49.869180" lon="4.894400">
						<ele>175</ele>
						<time>2025-12-07T11:16:46Z</time>
					</trkpt>
					<trkpt lat="49.869170" lon="4.894580">
						<ele>175</ele>
						<time>2025-12-07T11:16:52Z</time>
					</trkpt>
					<trkpt lat="49.869140" lon="4.894790">
						<ele>176</ele>
						<time>2025-12-07T11:16:59Z</time>
					</trkpt>
					<trkpt lat="49.869120" lon="4.894410">
						<ele>175</ele>
						<time>2025-12-07T11:17:11Z</time>
					</trkpt>
					<trkpt lat="49.869120" lon="4.893240">
						<ele>176</ele>
						<time>2025-12-07T11:17:49Z</time>
					</trkpt>
					<trkpt lat="49.868980" lon="4.892130">
						<ele>198</ele>
						<time>2025-12-07T11:18:25Z</time>
					</trkpt>
					<trkpt lat="49.868950" lon="4.891870">
						<ele>208</ele>
						<time>2025-12-07T11:18:34Z</time>
					</trkpt>
					<trkpt lat="49.868560" lon="4.888810">
						<ele>195</ele>
						<time>2025-12-07T11:20:14Z</time>
					</trkpt>
					<trkpt lat="49.868300" lon="4.886650">
						<ele>171</ele>
						<time>2025-12-07T11:21:25Z</time>
					</trkpt>
					<trkpt lat="49.868290" lon="4.886520">
						<ele>171</ele>
						<time>2025-12-07T11:21:30Z</time>
					</trkpt>
					<trkpt lat="49.868250" lon="4.886460">
						<ele>171</ele>
						<time>2025-12-07T11:21:32Z</time>
					</trkpt>
					<trkpt lat="49.868190" lon="4.886400">
						<ele>171</ele>
						<time>2025-12-07T11:21:36Z</time>
					</trkpt>
					<trkpt lat="49.868170" lon="4.886340">
						<ele>170</ele>
						<time>2025-12-07T11:21:38Z</time>
					</trkpt>
					<trkpt lat="49.868150" lon="4.886250">
						<ele>170</ele>
						<time>2025-12-07T11:21:41Z</time>
					</trkpt>
					<trkpt lat="49.868120" lon="4.886260">
						<ele>170</ele>
						<time>2025-12-07T11:21:43Z</time>
					</trkpt>
					<trkpt lat="49.867850" lon="4.886320">
						<ele>170</ele>
						<time>2025-12-07T11:21:56Z</time>
					</trkpt>
					<trkpt lat="49.867310" lon="4.886410">
						<ele>170</ele>
						<time>2025-12-07T11:22:24Z</time>
					</trkpt>
					<trkpt lat="49.866740" lon="4.886530">
						<ele>170</ele>
						<time>2025-12-07T11:22:52Z</time>
					</trkpt>
					<trkpt lat="49.866310" lon="4.886550">
						<ele>170</ele>
						<time>2025-12-07T11:23:14Z</time>
					</trkpt>
					<trkpt lat="49.866020" lon="4.886480">
						<ele>169</ele>
						<time>2025-12-07T11:23:29Z</time>
					</trkpt>
					<trkpt lat="49.866020" lon="4.886530">
						<ele>169</ele>
						<time>2025-12-07T11:23:30Z</time>
					</trkpt>
					<trkpt lat="49.865920" lon="4.887490">
						<ele>171</ele>
						<time>2025-12-07T11:24:02Z</time>
					</trkpt>
					<trkpt lat="49.865890" lon="4.887760">
						<ele>173</ele>
						<time>2025-12-07T11:24:10Z</time>
					</trkpt>
					<trkpt lat="49.865880" lon="4.887810">
						<ele>173</ele>
						<time>2025-12-07T11:24:12Z</time>
					</trkpt>
					<trkpt lat="49.865840" lon="4.887840">
						<ele>173</ele>
						<time>2025-12-07T11:24:14Z</time>
					</trkpt>
					<trkpt lat="49.865810" lon="4.887850">
						<ele>174</ele>
						<time>2025-12-07T11:24:16Z</time>
					</trkpt>
					<trkpt lat="49.865350" lon="4.887820">
						<ele>176</ele>
						<time>2025-12-07T11:24:39Z</time>
					</trkpt>
					<trkpt lat="49.865310" lon="4.887870">
						<ele>177</ele>
						<time>2025-12-07T11:24:41Z</time>
					</trkpt>
					<trkpt lat="49.865100" lon="4.887740">
						<ele>176</ele>
						<time>2025-12-07T11:24:53Z</time>
					</trkpt>
					<trkpt lat="49.864770" lon="4.887600">
						<ele>178</ele>
						<time>2025-12-07T11:25:10Z</time>
					</trkpt>
					<trkpt lat="49.864820" lon="4.887720">
						<ele>180</ele>
						<time>2025-12-07T11:25:14Z</time>
					</trkpt>
					<trkpt lat="49.865290" lon="4.888400">
						<ele>186</ele>
						<time>2025-12-07T11:25:47Z</time>
					</trkpt>
					<trkpt lat="49.865400" lon="4.888550">
						<ele>189</ele>
						<time>2025-12-07T11:25:54Z</time>
					</trkpt>
					<trkpt lat="49.865480" lon="4.888850">
						<ele>197</ele>
						<time>2025-12-07T11:26:04Z</time>
					</trkpt>
					<trkpt lat="49.865760" lon="4.889280">
						<ele>205</ele>
						<time>2025-12-07T11:26:24Z</time>
					</trkpt>
					<trkpt lat="49.865830" lon="4.889420">
						<ele>209</ele>
						<time>2025-12-07T11:26:30Z</time>
					</trkpt>
					<trkpt lat="49.865970" lon="4.889760">
						<ele>219</ele>
						<time>2025-12-07T11:26:43Z</time>
					</trkpt>
					<trkpt lat="49.866060" lon="4.889920">
						<ele>223</ele>
						<time>2025-12-07T11:26:50Z</time>
					</trkpt>
					<trkpt lat="49.866090" lon="4.890050">
						<ele>226</ele>
						<time>2025-12-07T11:26:54Z</time>
					</trkpt>
					<trkpt lat="49.866130" lon="4.890200">
						<ele>229</ele>
						<time>2025-12-07T11:26:59Z</time>
					</trkpt>
					<trkpt lat="49.866200" lon="4.890410">
						<ele>233</ele>
						<time>2025-12-07T11:27:07Z</time>
					</trkpt>
					<trkpt lat="49.866190" lon="4.890650">
						<ele>238</ele>
						<time>2025-12-07T11:27:15Z</time>
					</trkpt>
					<trkpt lat="49.866330" lon="4.890930">
						<ele>242</ele>
						<time>2025-12-07T11:27:26Z</time>
					</trkpt>
					<trkpt lat="49.866370" lon="4.891080">
						<ele>243</ele>
						<time>2025-12-07T11:27:31Z</time>
					</trkpt>
					<trkpt lat="49.866360" lon="4.891190">
						<ele>244</ele>
						<time>2025-12-07T11:27:35Z</time>
					</trkpt>
					<trkpt lat="49.866370" lon="4.891360">
						<ele>246</ele>
						<time>2025-12-07T11:27:41Z</time>
					</trkpt>
					<trkpt lat="49.866350" lon="4.891480">
						<ele>247</ele>
						<time>2025-12-07T11:27:45Z</time>
					</trkpt>
					<trkpt lat="49.866320" lon="4.891540">
						<ele>249</ele>
						<time>2025-12-07T11:27:47Z</time>
					</trkpt>
					<trkpt lat="49.866200" lon="4.891610">
						<ele>251</ele>
						<time>2025-12-07T11:27:53Z</time>
					</trkpt>
					<trkpt lat="49.865970" lon="4.891700">
						<ele>255</ele>
						<time>2025-12-07T11:28:05Z</time>
					</trkpt>
					<trkpt lat="49.865780" lon="4.891820">
						<ele>257</ele>
						<time>2025-12-07T11:28:16Z</time>
					</trkpt>
					<trkpt lat="49.865490" lon="4.891950">
						<ele>264</ele>
						<time>2025-12-07T11:28:31Z</time>
					</trkpt>
					<trkpt lat="49.865380" lon="4.891970">
						<ele>267</ele>
						<time>2025-12-07T11:28:36Z</time>
					</trkpt>
					<trkpt lat="49.865160" lon="4.891990">
						<ele>273</ele>
						<time>2025-12-07T11:28:47Z</time>
					</trkpt>
					<trkpt lat="49.864960" lon="4.891980">
						<ele>279</ele>
						<time>2025-12-07T11:28:57Z</time>
					</trkpt>
					<trkpt lat="49.864830" lon="4.892020">
						<ele>284</ele>
						<time>2025-12-07T11:29:04Z</time>
					</trkpt>
					<trkpt lat="49.864710" lon="4.892100">
						<ele>289</ele>
						<time>2025-12-07T11:29:10Z</time>
					</trkpt>
					<trkpt lat="49.864590" lon="4.892110">
						<ele>294</ele>
						<time>2025-12-07T11:29:16Z</time>
					</trkpt>
					<trkpt lat="49.864130" lon="4.892220">
						<ele>313</ele>
						<time>2025-12-07T11:29:40Z</time>
					</trkpt>
					<trkpt lat="49.864040" lon="4.892290">
						<ele>316</ele>
						<time>2025-12-07T11:29:45Z</time>
					</trkpt>
					<trkpt lat="49.864010" lon="4.892320">
						<ele>318</ele>
						<time>2025-12-07T11:29:47Z</time>
					</trkpt>
					<trkpt lat="49.863920" lon="4.892340">
						<ele>321</ele>
						<time>2025-12-07T11:29:51Z</time>
					</trkpt>
					<trkpt lat="49.863760" lon="4.892320">
						<ele>326</ele>
						<time>2025-12-07T11:29:59Z</time>
					</trkpt>
					<trkpt lat="49.863640" lon="4.892360">
						<ele>330</ele>
						<time>2025-12-07T11:30:05Z</time>
					</trkpt>
					<trkpt lat="49.863570" lon="4.892420">
						<ele>333</ele>
						<time>2025-12-07T11:30:09Z</time>
					</trkpt>
					<trkpt lat="49.863520" lon="4.892420">
						<ele>334</ele>
						<time>2025-12-07T11:30:12Z</time>
					</trkpt>
					<trkpt lat="49.863470" lon="4.892400">
						<ele>336</ele>
						<time>2025-12-07T11:30:14Z</time>
					</trkpt>
					<trkpt lat="49.863420" lon="4.892360">
						<ele>337</ele>
						<time>2025-12-07T11:30:17Z</time>
					</trkpt>
					<trkpt lat="49.863360" lon="4.892340">
						<ele>339</ele>
						<time>2025-12-07T11:30:20Z</time>
					</trkpt>
					<trkpt lat="49.863130" lon="4.892490">
						<ele>344</ele>
						<time>2025-12-07T11:30:33Z</time>
					</trkpt>
					<trkpt lat="49.863160" lon="4.892580">
						<ele>344</ele>
						<time>2025-12-07T11:30:36Z</time>
					</trkpt>
					<trkpt lat="49.863150" lon="4.892730">
						<ele>344</ele>
						<time>2025-12-07T11:30:41Z</time>
					</trkpt>
					<trkpt lat="49.863090" lon="4.892910">
						<ele>345</ele>
						<time>2025-12-07T11:30:47Z</time>
					</trkpt>
					<trkpt lat="49.863050" lon="4.893000">
						<ele>346</ele>
						<time>2025-12-07T11:30:51Z</time>
					</trkpt>
					<trkpt lat="49.862990" lon="4.893020">
						<ele>347</ele>
						<time>2025-12-07T11:30:54Z</time>
					</trkpt>
					<trkpt lat="49.862910" lon="4.893060">
						<ele>348</ele>
						<time>2025-12-07T11:30:58Z</time>
					</trkpt>
					<trkpt lat="49.862840" lon="4.893040">
						<ele>350</ele>
						<time>2025-12-07T11:31:02Z</time>
					</trkpt>
					<trkpt lat="49.862840" lon="4.893580">
						<ele>348</ele>
						<time>2025-12-07T11:31:19Z</time>
					</trkpt>
					<trkpt lat="49.862830" lon="4.893770">
						<ele>347</ele>
						<time>2025-12-07T11:31:25Z</time>
					</trkpt>
					<trkpt lat="49.862810" lon="4.893810">
						<ele>347</ele>
						<time>2025-12-07T11:31:27Z</time>
					</trkpt>
					<trkpt lat="49.862770" lon="4.893890">
						<ele>347</ele>
						<time>2025-12-07T11:31:30Z</time>
					</trkpt>
					<trkpt lat="49.862720" lon="4.894100">
						<ele>347</ele>
						<time>2025-12-07T11:31:37Z</time>
					</trkpt>
					<trkpt lat="49.862690" lon="4.894500">
						<ele>342</ele>
						<time>2025-12-07T11:31:50Z</time>
					</trkpt>
					<trkpt lat="49.862700" lon="4.894640">
						<ele>340</ele>
						<time>2025-12-07T11:31:55Z</time>
					</trkpt>
					<trkpt lat="49.862770" lon="4.895090">
						<ele>333</ele>
						<time>2025-12-07T11:32:10Z</time>
					</trkpt>
					<trkpt lat="49.863010" lon="4.895830">
						<ele>316</ele>
						<time>2025-12-07T11:32:37Z</time>
					</trkpt>
					<trkpt lat="49.863020" lon="4.896050">
						<ele>312</ele>
						<time>2025-12-07T11:32:44Z</time>
					</trkpt>
					<trkpt lat="49.863060" lon="4.896270">
						<ele>307</ele>
						<time>2025-12-07T11:32:51Z</time>
					</trkpt>
					<trkpt lat="49.863120" lon="4.896450">
						<ele>302</ele>
						<time>2025-12-07T11:32:58Z</time>
					</trkpt>
					<trkpt lat="49.863200" lon="4.896770">
						<ele>293</ele>
						<time>2025-12-07T11:33:09Z</time>
					</trkpt>
					<trkpt lat="49.863280" lon="4.896890">
						<ele>288</ele>
						<time>2025-12-07T11:33:14Z</time>
					</trkpt>
					<trkpt lat="49.863290" lon="4.896970">
						<ele>286</ele>
						<time>2025-12-07T11:33:17Z</time>
					</trkpt>
					<trkpt lat="49.863330" lon="4.897090">
						<ele>282</ele>
						<time>2025-12-07T11:33:21Z</time>
					</trkpt>
					<trkpt lat="49.863310" lon="4.897290">
						<ele>278</ele>
						<time>2025-12-07T11:33:28Z</time>
					</trkpt>
					<trkpt lat="49.863310" lon="4.897410">
						<ele>276</ele>
						<time>2025-12-07T11:33:32Z</time>
					</trkpt>
					<trkpt lat="49.863330" lon="4.897480">
						<ele>274</ele>
						<time>2025-12-07T11:33:34Z</time>
					</trkpt>
					<trkpt lat="49.863430" lon="4.897740">
						<ele>261</ele>
						<time>2025-12-07T11:33:44Z</time>
					</trkpt>
					<trkpt lat="49.863440" lon="4.897830">
						<ele>258</ele>
						<time>2025-12-07T11:33:47Z</time>
					</trkpt>
					<trkpt lat="49.863440" lon="4.897890">
						<ele>257</ele>
						<time>2025-12-07T11:33:49Z</time>
					</trkpt>
					<trkpt lat="49.863470" lon="4.897990">
						<ele>252</ele>
						<time>2025-12-07T11:33:52Z</time>
					</trkpt>
					<trkpt lat="49.863460" lon="4.898070">
						<ele>251</ele>
						<time>2025-12-07T11:33:55Z</time>
					</trkpt>
					<trkpt lat="49.863440" lon="4.898100">
						<ele>252</ele>
						<time>2025-12-07T11:33:56Z</time>
					</trkpt>
					<trkpt lat="49.863400" lon="4.898090">
						<ele>254</ele>
						<time>2025-12-07T11:33:58Z</time>
					</trkpt>
					<trkpt lat="49.863360" lon="4.898110">
						<ele>256</ele>
						<time>2025-12-07T11:34:01Z</time>
					</trkpt>
					<trkpt lat="49.863360" lon="4.898160">
						<ele>255</ele>
						<time>2025-12-07T11:34:02Z</time>
					</trkpt>
					<trkpt lat="49.863370" lon="4.898230">
						<ele>252</ele>
						<time>2025-12-07T11:34:04Z</time>
					</trkpt>
					<trkpt lat="49.863430" lon="4.898320">
						<ele>247</ele>
						<time>2025-12-07T11:34:09Z</time>
					</trkpt>
					<trkpt lat="49.863530" lon="4.898400">
						<ele>239</ele>
						<time>2025-12-07T11:34:14Z</time>
					</trkpt>
					<trkpt lat="49.863540" lon="4.898430">
						<ele>238</ele>
						<time>2025-12-07T11:34:15Z</time>
					</trkpt>
					<trkpt lat="49.863520" lon="4.898490">
						<ele>238</ele>
						<time>2025-12-07T11:34:18Z</time>
					</trkpt>
					<trkpt lat="49.863560" lon="4.898610">
						<ele>233</ele>
						<time>2025-12-07T11:34:22Z</time>
					</trkpt>
					<trkpt lat="49.863570" lon="4.898700">
						<ele>231</ele>
						<time>2025-12-07T11:34:25Z</time>
					</trkpt>
					<trkpt lat="49.863640" lon="4.898910">
						<ele>223</ele>
						<time>2025-12-07T11:34:32Z</time>
					</trkpt>
					<trkpt lat="49.863690" lon="4.899160">
						<ele>216</ele>
						<time>2025-12-07T11:34:41Z</time>
					</trkpt>
					<trkpt lat="49.863670" lon="4.899250">
						<ele>215</ele>
						<time>2025-12-07T11:34:44Z</time>
					</trkpt>
					<trkpt lat="49.863670" lon="4.899330">
						<ele>213</ele>
						<time>2025-12-07T11:34:47Z</time>
					</trkpt>
					<trkpt lat="49.863670" lon="4.899380">
						<ele>212</ele>
						<time>2025-12-07T11:34:48Z</time>
					</trkpt>
					<trkpt lat="49.863640" lon="4.899400">
						<ele>213</ele>
						<time>2025-12-07T11:34:50Z</time>
					</trkpt>
					<trkpt lat="49.863610" lon="4.899400">
						<ele>214</ele>
						<time>2025-12-07T11:34:51Z</time>
					</trkpt>
					<trkpt lat="49.863560" lon="4.899360">
						<ele>216</ele>
						<time>2025-12-07T11:34:54Z</time>
					</trkpt>
					<trkpt lat="49.863500" lon="4.899300">
						<ele>220</ele>
						<time>2025-12-07T11:34:58Z</time>
					</trkpt>
					<trkpt lat="49.863450" lon="4.899300">
						<ele>222</ele>
						<time>2025-12-07T11:35:00Z</time>
					</trkpt>
					<trkpt lat="49.863370" lon="4.899290">
						<ele>225</ele>
						<time>2025-12-07T11:35:04Z</time>
					</trkpt>
					<trkpt lat="49.863280" lon="4.899380">
						<ele>225</ele>
						<time>2025-12-07T11:35:10Z</time>
					</trkpt>
					<trkpt lat="49.863210" lon="4.899490">
						<ele>223</ele>
						<time>2025-12-07T11:35:15Z</time>
					</trkpt>
					<trkpt lat="49.863110" lon="4.899610">
						<ele>222</ele>
						<time>2025-12-07T11:35:21Z</time>
					</trkpt>
					<trkpt lat="49.862970" lon="4.899690">
						<ele>223</ele>
						<time>2025-12-07T11:35:28Z</time>
					</trkpt>
					<trkpt lat="49.862770" lon="4.899780">
						<ele>225</ele>
						<time>2025-12-07T11:35:39Z</time>
					</trkpt>
					<trkpt lat="49.862570" lon="4.899900">
						<ele>226</ele>
						<time>2025-12-07T11:35:49Z</time>
					</trkpt>
					<trkpt lat="49.862240" lon="4.900060">
						<ele>227</ele>
						<time>2025-12-07T11:36:07Z</time>
					</trkpt>
					<trkpt lat="49.862050" lon="4.900230">
						<ele>224</ele>
						<time>2025-12-07T11:36:18Z</time>
					</trkpt>
					<trkpt lat="49.861970" lon="4.900270">
						<ele>224</ele>
						<time>2025-12-07T11:36:22Z</time>
					</trkpt>
					<trkpt lat="49.861680" lon="4.900400">
						<ele>224</ele>
						<time>2025-12-07T11:36:37Z</time>
					</trkpt>
					<trkpt lat="49.861500" lon="4.900510">
						<ele>225</ele>
						<time>2025-12-07T11:36:47Z</time>
					</trkpt>
					<trkpt lat="49.861390" lon="4.900640">
						<ele>224</ele>
						<time>2025-12-07T11:36:54Z</time>
					</trkpt>
					<trkpt lat="49.860960" lon="4.900620">
						<ele>235</ele>
						<time>2025-12-07T11:37:15Z</time>
					</trkpt>
					<trkpt lat="49.860450" lon="4.900810">
						<ele>239</ele>
						<time>2025-12-07T11:37:41Z</time>
					</trkpt>
					<trkpt lat="49.860090" lon="4.900910">
						<ele>243</ele>
						<time>2025-12-07T11:38:00Z</time>
					</trkpt>
					<trkpt lat="49.860040" lon="4.900950">
						<ele>244</ele>
						<time>2025-12-07T11:38:03Z</time>
					</trkpt>
					<trkpt lat="49.859830" lon="4.901020">
						<ele>246</ele>
						<time>2025-12-07T11:38:13Z</time>
					</trkpt>
					<trkpt lat="49.859550" lon="4.901160">
						<ele>247</ele>
						<time>2025-12-07T11:38:28Z</time>
					</trkpt>
					<trkpt lat="49.859360" lon="4.901230">
						<ele>247</ele>
						<time>2025-12-07T11:38:38Z</time>
					</trkpt>
					<trkpt lat="49.859180" lon="4.901200">
						<ele>250</ele>
						<time>2025-12-07T11:38:47Z</time>
					</trkpt>
					<trkpt lat="49.859000" lon="4.901150">
						<ele>254</ele>
						<time>2025-12-07T11:38:56Z</time>
					</trkpt>
					<trkpt lat="49.858790" lon="4.901040">
						<ele>260</ele>
						<time>2025-12-07T11:39:07Z</time>
					</trkpt>
					<trkpt lat="49.858670" lon="4.900890">
						<ele>264</ele>
						<time>2025-12-07T11:39:15Z</time>
					</trkpt>
					<trkpt lat="49.858610" lon="4.900750">
						<ele>268</ele>
						<time>2025-12-07T11:39:20Z</time>
					</trkpt>
					<trkpt lat="49.858530" lon="4.900610">
						<ele>271</ele>
						<time>2025-12-07T11:39:26Z</time>
					</trkpt>
					<trkpt lat="49.858420" lon="4.900480">
						<ele>274</ele>
						<time>2025-12-07T11:39:33Z</time>
					</trkpt>
					<trkpt lat="49.858190" lon="4.900270">
						<ele>282</ele>
						<time>2025-12-07T11:39:47Z</time>
					</trkpt>
					<trkpt lat="49.858070" lon="4.900240">
						<ele>286</ele>
						<time>2025-12-07T11:39:53Z</time>
					</trkpt>
					<trkpt lat="49.858000" lon="4.900200">
						<ele>288</ele>
						<time>2025-12-07T11:39:56Z</time>
					</trkpt>
					<trkpt lat="49.857930" lon="4.900140">
						<ele>291</ele>
						<time>2025-12-07T11:40:00Z</time>
					</trkpt>
					<trkpt lat="49.857560" lon="4.899780">
						<ele>305</ele>
						<time>2025-12-07T11:40:22Z</time>
					</trkpt>
					<trkpt lat="49.857530" lon="4.899640">
						<ele>308</ele>
						<time>2025-12-07T11:40:27Z</time>
					</trkpt>
					<trkpt lat="49.857520" lon="4.899610">
						<ele>308</ele>
						<time>2025-12-07T11:40:28Z</time>
					</trkpt>
					<trkpt lat="49.857390" lon="4.899540">
						<ele>312</ele>
						<time>2025-12-07T11:40:35Z</time>
					</trkpt>
					<trkpt lat="49.857450" lon="4.900040">
						<ele>304</ele>
						<time>2025-12-07T11:40:51Z</time>
					</trkpt>
					<trkpt lat="49.857540" lon="4.900330">
						<ele>298</ele>
						<time>2025-12-07T11:41:02Z</time>
					</trkpt>
					<trkpt lat="49.857580" lon="4.900500">
						<ele>295</ele>
						<time>2025-12-07T11:41:08Z</time>
					</trkpt>
					<trkpt lat="49.857630" lon="4.900600">
						<ele>292</ele>
						<time>2025-12-07T11:41:12Z</time>
					</trkpt>
					<trkpt lat="49.857720" lon="4.900860">
						<ele>286</ele>
						<time>2025-12-07T11:41:21Z</time>
					</trkpt>
					<trkpt lat="49.857750" lon="4.900970">
						<ele>284</ele>
						<time>2025-12-07T11:41:25Z</time>
					</trkpt>
					<trkpt lat="49.857740" lon="4.901020">
						<ele>283</ele>
						<time>2025-12-07T11:41:27Z</time>
					</trkpt>
					<trkpt lat="49.857730" lon="4.901090">
						<ele>282</ele>
						<time>2025-12-07T11:41:29Z</time>
					</trkpt>
					<trkpt lat="49.857690" lon="4.901160">
						<ele>282</ele>
						<time>2025-12-07T11:41:32Z</time>
					</trkpt>
					<trkpt lat="49.857650" lon="4.901190">
						<ele>283</ele>
						<time>2025-12-07T11:41:34Z</time>
					</trkpt>
					<trkpt lat="49.857390" lon="4.901270">
						<ele>287</ele>
						<time>2025-12-07T11:41:48Z</time>
					</trkpt>
					<trkpt lat="49.857130" lon="4.901260">
						<ele>291</ele>
						<time>2025-12-07T11:42:01Z</time>
					</trkpt>
					<trkpt lat="49.857070" lon="4.901300">
						<ele>291</ele>
						<time>2025-12-07T11:42:04Z</time>
					</trkpt>
					<trkpt lat="49.856940" lon="4.901430">
						<ele>291</ele>
						<time>2025-12-07T11:42:12Z</time>
					</trkpt>
					<trkpt lat="49.856800" lon="4.901530">
						<ele>290</ele>
						<time>2025-12-07T11:42:19Z</time>
					</trkpt>
					<trkpt lat="49.856660" lon="4.901720">
						<ele>289</ele>
						<time>2025-12-07T11:42:29Z</time>
					</trkpt>
					<trkpt lat="49.856640" lon="4.901870">
						<ele>289</ele>
						<time>2025-12-07T11:42:34Z</time>
					</trkpt>
					<trkpt lat="49.856660" lon="4.901970">
						<ele>289</ele>
						<time>2025-12-07T11:42:37Z</time>
					</trkpt>
					<trkpt lat="49.856760" lon="4.902250">
						<ele>286</ele>
						<time>2025-12-07T11:42:47Z</time>
					</trkpt>
					<trkpt lat="49.857130" lon="4.902570">
						<ele>274</ele>
						<time>2025-12-07T11:43:08Z</time>
					</trkpt>
					<trkpt lat="49.857250" lon="4.902680">
						<ele>271</ele>
						<time>2025-12-07T11:43:15Z</time>
					</trkpt>
					<trkpt lat="49.857440" lon="4.902700">
						<ele>265</ele>
						<time>2025-12-07T11:43:25Z</time>
					</trkpt>
					<trkpt lat="49.857680" lon="4.902790">
						<ele>260</ele>
						<time>2025-12-07T11:43:37Z</time>
					</trkpt>
					<trkpt lat="49.857850" lon="4.902890">
						<ele>257</ele>
						<time>2025-12-07T11:43:46Z</time>
					</trkpt>
					<trkpt lat="49.858140" lon="4.903060">
						<ele>251</ele>
						<time>2025-12-07T11:44:02Z</time>
					</trkpt>
					<trkpt lat="49.858370" lon="4.903080">
						<ele>247</ele>
						<time>2025-12-07T11:44:13Z</time>
					</trkpt>
					<trkpt lat="49.858450" lon="4.903020">
						<ele>245</ele>
						<time>2025-12-07T11:44:18Z</time>
					</trkpt>
					<trkpt lat="49.858620" lon="4.903000">
						<ele>242</ele>
						<time>2025-12-07T11:44:26Z</time>
					</trkpt>
					<trkpt lat="49.858830" lon="4.902880">
						<ele>237</ele>
						<time>2025-12-07T11:44:38Z</time>
					</trkpt>
					<trkpt lat="49.858890" lon="4.902920">
						<ele>236</ele>
						<time>2025-12-07T11:44:41Z</time>
					</trkpt>
					<trkpt lat="49.858660" lon="4.903180">
						<ele>241</ele>
						<time>2025-12-07T11:44:55Z</time>
					</trkpt>
					<trkpt lat="49.858460" lon="4.903270">
						<ele>245</ele>
						<time>2025-12-07T11:45:06Z</time>
					</trkpt>
					<trkpt lat="49.858230" lon="4.903410">
						<ele>249</ele>
						<time>2025-12-07T11:45:18Z</time>
					</trkpt>
					<trkpt lat="49.858110" lon="4.903400">
						<ele>252</ele>
						<time>2025-12-07T11:45:24Z</time>
					</trkpt>
					<trkpt lat="49.857740" lon="4.903210">
						<ele>258</ele>
						<time>2025-12-07T11:45:43Z</time>
					</trkpt>
					<trkpt lat="49.857490" lon="4.903230">
						<ele>263</ele>
						<time>2025-12-07T11:45:56Z</time>
					</trkpt>
					<trkpt lat="49.857350" lon="4.903410">
						<ele>269</ele>
						<time>2025-12-07T11:46:05Z</time>
					</trkpt>
					<trkpt lat="49.857350" lon="4.903690">
						<ele>271</ele>
						<time>2025-12-07T11:46:14Z</time>
					</trkpt>
					<trkpt lat="49.857350" lon="4.903900">
						<ele>273</ele>
						<time>2025-12-07T11:46:21Z</time>
					</trkpt>
					<trkpt lat="49.857350" lon="4.904050">
						<ele>274</ele>
						<time>2025-12-07T11:46:26Z</time>
					</trkpt>
					<trkpt lat="49.857290" lon="4.904240">
						<ele>275</ele>
						<time>2025-12-07T11:46:33Z</time>
					</trkpt>
					<trkpt lat="49.857180" lon="4.904360">
						<ele>277</ele>
						<time>2025-12-07T11:46:39Z</time>
					</trkpt>
					<trkpt lat="49.857100" lon="4.904370">
						<ele>278</ele>
						<time>2025-12-07T11:46:43Z</time>
					</trkpt>
					<trkpt lat="49.857000" lon="4.904310">
						<ele>282</ele>
						<time>2025-12-07T11:46:49Z</time>
					</trkpt>
					<trkpt lat="49.856850" lon="4.904030">
						<ele>287</ele>
						<time>2025-12-07T11:47:00Z</time>
					</trkpt>
					<trkpt lat="49.856490" lon="4.903410">
						<ele>300</ele>
						<time>2025-12-07T11:47:27Z</time>
					</trkpt>
					<trkpt lat="49.856360" lon="4.903350">
						<ele>304</ele>
						<time>2025-12-07T11:47:34Z</time>
					</trkpt>
					<trkpt lat="49.856220" lon="4.903390">
						<ele>308</ele>
						<time>2025-12-07T11:47:41Z</time>
					</trkpt>
					<trkpt lat="49.856060" lon="4.903470">
						<ele>312</ele>
						<time>2025-12-07T11:47:50Z</time>
					</trkpt>
					<trkpt lat="49.855880" lon="4.903620">
						<ele>316</ele>
						<time>2025-12-07T11:48:00Z</time>
					</trkpt>
					<trkpt lat="49.855740" lon="4.903800">
						<ele>318</ele>
						<time>2025-12-07T11:48:09Z</time>
					</trkpt>
					<trkpt lat="49.855660" lon="4.903850">
						<ele>320</ele>
						<time>2025-12-07T11:48:13Z</time>
					</trkpt>
					<trkpt lat="49.855560" lon="4.903840">
						<ele>323</ele>
						<time>2025-12-07T11:48:18Z</time>
					</trkpt>
					<trkpt lat="49.855490" lon="4.903800">
						<ele>326</ele>
						<time>2025-12-07T11:48:22Z</time>
					</trkpt>
					<trkpt lat="49.855390" lon="4.903710">
						<ele>329</ele>
						<time>2025-12-07T11:48:28Z</time>
					</trkpt>
					<trkpt lat="49.855140" lon="4.903590">
						<ele>338</ele>
						<time>2025-12-07T11:48:41Z</time>
					</trkpt>
					<trkpt lat="49.854890" lon="4.903440">
						<ele>346</ele>
						<time>2025-12-07T11:48:54Z</time>
					</trkpt>
					<trkpt lat="49.854780" lon="4.903430">
						<ele>349</ele>
						<time>2025-12-07T11:49:00Z</time>
					</trkpt>
					<trkpt lat="49.854690" lon="4.903450">
						<ele>351</ele>
						<time>2025-12-07T11:49:04Z</time>
					</trkpt>
					<trkpt lat="49.854510" lon="4.903590">
						<ele>355</ele>
						<time>2025-12-07T11:49:14Z</time>
					</trkpt>
					<trkpt lat="49.854150" lon="4.903980">
						<ele>364</ele>
						<time>2025-12-07T11:49:36Z</time>
					</trkpt>
					<trkpt lat="49.854070" lon="4.904110">
						<ele>365</ele>
						<time>2025-12-07T11:49:42Z</time>
					</trkpt>
					<trkpt lat="49.853870" lon="4.904420">
						<ele>366</ele>
						<time>2025-12-07T11:49:56Z</time>
					</trkpt>
					<trkpt lat="49.853660" lon="4.904800">
						<ele>367</ele>
						<time>2025-12-07T11:50:13Z</time>
					</trkpt>
					<trkpt lat="49.853550" lon="4.904970">
						<ele>368</ele>
						<time>2025-12-07T11:50:20Z</time>
					</trkpt>
					<trkpt lat="49.853390" lon="4.905130">
						<ele>370</ele>
						<time>2025-12-07T11:50:30Z</time>
					</trkpt>
					<trkpt lat="49.853400" lon="4.905360">
						<ele>368</ele>
						<time>2025-12-07T11:50:37Z</time>
					</trkpt>
					<trkpt lat="49.853600" lon="4.905880">
						<ele>356</ele>
						<time>2025-12-07T11:50:57Z</time>
					</trkpt>
					<trkpt lat="49.853850" lon="4.906280">
						<ele>347</ele>
						<time>2025-12-07T11:51:15Z</time>
					</trkpt>
					<trkpt lat="49.854120" lon="4.906590">
						<ele>339</ele>
						<time>2025-12-07T11:51:32Z</time>
					</trkpt>
					<trkpt lat="49.854500" lon="4.906950">
						<ele>335</ele>
						<time>2025-12-07T11:51:54Z</time>
					</trkpt>
					<trkpt lat="49.854850" lon="4.907450">
						<ele>335</ele>
						<time>2025-12-07T11:52:18Z</time>
					</trkpt>
					<trkpt lat="49.855070" lon="4.907360">
						<ele>328</ele>
						<time>2025-12-07T11:52:29Z</time>
					</trkpt>
					<trkpt lat="49.855560" lon="4.906920">
						<ele>304</ele>
						<time>2025-12-07T11:52:57Z</time>
					</trkpt>
					<trkpt lat="49.855590" lon="4.906910">
						<ele>303</ele>
						<time>2025-12-07T11:52:59Z</time>
					</trkpt>
					<trkpt lat="49.855810" lon="4.906870">
						<ele>295</ele>
						<time>2025-12-07T11:53:10Z</time>
					</trkpt>
					<trkpt lat="49.855960" lon="4.906890">
						<ele>290</ele>
						<time>2025-12-07T11:53:18Z</time>
					</trkpt>
					<trkpt lat="49.856070" lon="4.906760">
						<ele>285</ele>
						<time>2025-12-07T11:53:24Z</time>
					</trkpt>
					<trkpt lat="49.856260" lon="4.906500">
						<ele>278</ele>
						<time>2025-12-07T11:53:37Z</time>
					</trkpt>
					<trkpt lat="49.856350" lon="4.906270">
						<ele>274</ele>
						<time>2025-12-07T11:53:46Z</time>
					</trkpt>
					<trkpt lat="49.856670" lon="4.906350">
						<ele>266</ele>
						<time>2025-12-07T11:54:02Z</time>
					</trkpt>
					<trkpt lat="49.856980" lon="4.906440">
						<ele>255</ele>
						<time>2025-12-07T11:54:18Z</time>
					</trkpt>
					<trkpt lat="49.857230" lon="4.906640">
						<ele>244</ele>
						<time>2025-12-07T11:54:32Z</time>
					</trkpt>
					<trkpt lat="49.857500" lon="4.906830">
						<ele>234</ele>
						<time>2025-12-07T11:54:47Z</time>
					</trkpt>
					<trkpt lat="49.857520" lon="4.906870">
						<ele>233</ele>
						<time>2025-12-07T11:54:48Z</time>
					</trkpt>
					<trkpt lat="49.858160" lon="4.908070">
						<ele>219</ele>
						<time>2025-12-07T11:55:39Z</time>
					</trkpt>
					<trkpt lat="49.858510" lon="4.908230">
						<ele>215</ele>
						<time>2025-12-07T11:55:57Z</time>
					</trkpt>
					<trkpt lat="49.858570" lon="4.908310">
						<ele>215</ele>
						<time>2025-12-07T11:56:01Z</time>
					</trkpt>
					<trkpt lat="49.858600" lon="4.908340">
						<ele>215</ele>
						<time>2025-12-07T11:56:03Z</time>
					</trkpt>
					<trkpt lat="49.858600" lon="4.908340">
						<ele>215</ele>
						<time>2025-12-07T11:56:03Z</time>
					</trkpt>
					<trkpt lat="49.858620" lon="4.908370">
						<ele>215</ele>
						<time>2025-12-07T11:56:04Z</time>
					</trkpt>
					<trkpt lat="49.858760" lon="4.908550">
						<ele>217</ele>
						<time>2025-12-07T11:56:13Z</time>
					</trkpt>
					<trkpt lat="49.858990" lon="4.909010">
						<ele>226</ele>
						<time>2025-12-07T11:56:32Z</time>
					</trkpt>
					<trkpt lat="49.859190" lon="4.909500">
						<ele>240</ele>
						<time>2025-12-07T11:56:51Z</time>
					</trkpt>
					<trkpt lat="49.859450" lon="4.909950">
						<ele>259</ele>
						<time>2025-12-07T11:57:10Z</time>
					</trkpt>
					<trkpt lat="49.859560" lon="4.909960">
						<ele>263</ele>
						<time>2025-12-07T11:57:16Z</time>
					</trkpt>
					<trkpt lat="49.859600" lon="4.909780">
						<ele>261</ele>
						<time>2025-12-07T11:57:22Z</time>
					</trkpt>
					<trkpt lat="49.859660" lon="4.909600">
						<ele>259</ele>
						<time>2025-12-07T11:57:28Z</time>
					</trkpt>
					<trkpt lat="49.859790" lon="4.909350">
						<ele>258</ele>
						<time>2025-12-07T11:57:39Z</time>
					</trkpt>
					<trkpt lat="49.859890" lon="4.909110">
						<ele>257</ele>
						<time>2025-12-07T11:57:48Z</time>
					</trkpt>
					<trkpt lat="49.860070" lon="4.908410">
						<ele>251</ele>
						<time>2025-12-07T11:58:12Z</time>
					</trkpt>
					<trkpt lat="49.860370" lon="4.907520">
						<ele>246</ele>
						<time>2025-12-07T11:58:45Z</time>
					</trkpt>
					<trkpt lat="49.860410" lon="4.907390">
						<ele>245</ele>
						<time>2025-12-07T11:58:49Z</time>
					</trkpt>
					<trkpt lat="49.860430" lon="4.907180">
						<ele>243</ele>
						<time>2025-12-07T11:58:56Z</time>
					</trkpt>
					<trkpt lat="49.860490" lon="4.906760">
						<ele>238</ele>
						<time>2025-12-07T11:59:10Z</time>
					</trkpt>
					<trkpt lat="49.860510" lon="4.906260">
						<ele>231</ele>
						<time>2025-12-07T11:59:26Z</time>
					</trkpt>
					<trkpt lat="49.860550" lon="4.906220">
						<ele>232</ele>
						<time>2025-12-07T11:59:29Z</time>
					</trkpt>
					<trkpt lat="49.860590" lon="4.906140">
						<ele>232</ele>
						<time>2025-12-07T11:59:32Z</time>
					</trkpt>
					<trkpt lat="49.860620" lon="4.906030">
						<ele>231</ele>
						<time>2025-12-07T11:59:36Z</time>
					</trkpt>
					<trkpt lat="49.860680" lon="4.905910">
						<ele>231</ele>
						<time>2025-12-07T11:59:41Z</time>
					</trkpt>
					<trkpt lat="49.860850" lon="4.905650">
						<ele>232</ele>
						<time>2025-12-07T11:59:52Z</time>
					</trkpt>
					<trkpt lat="49.861300" lon="4.905110">
						<ele>239</ele>
						<time>2025-12-07T12:00:21Z</time>
					</trkpt>
					<trkpt lat="49.861500" lon="4.904930">
						<ele>242</ele>
						<time>2025-12-07T12:00:33Z</time>
					</trkpt>
					<trkpt lat="49.862170" lon="4.904030">
						<ele>238</ele>
						<time>2025-12-07T12:01:17Z</time>
					</trkpt>
					<trkpt lat="49.862240" lon="4.903850">
						<ele>235</ele>
						<time>2025-12-07T12:01:24Z</time>
					</trkpt>
					<trkpt lat="49.862270" lon="4.903680">
						<ele>230</ele>
						<time>2025-12-07T12:01:29Z</time>
					</trkpt>
					<trkpt lat="49.862410" lon="4.903530">
						<ele>230</ele>
						<time>2025-12-07T12:01:38Z</time>
					</trkpt>
					<trkpt lat="49.862460" lon="4.903480">
						<ele>230</ele>
						<time>2025-12-07T12:01:41Z</time>
					</trkpt>
					<trkpt lat="49.862510" lon="4.903460">
						<ele>231</ele>
						<time>2025-12-07T12:01:43Z</time>
					</trkpt>
					<trkpt lat="49.862810" lon="4.903530">
						<ele>230</ele>
						<time>2025-12-07T12:01:59Z</time>
					</trkpt>
					<trkpt lat="49.862750" lon="4.903580">
						<ele>232</ele>
						<time>2025-12-07T12:02:02Z</time>
					</trkpt>
					<trkpt lat="49.862730" lon="4.903620">
						<ele>234</ele>
						<time>2025-12-07T12:02:04Z</time>
					</trkpt>
					<trkpt lat="49.862620" lon="4.903710">
						<ele>237</ele>
						<time>2025-12-07T12:02:10Z</time>
					</trkpt>
					<trkpt lat="49.862520" lon="4.903840">
						<ele>243</ele>
						<time>2025-12-07T12:02:16Z</time>
					</trkpt>
					<trkpt lat="49.862460" lon="4.903960">
						<ele>245</ele>
						<time>2025-12-07T12:02:21Z</time>
					</trkpt>
					<trkpt lat="49.862440" lon="4.904020">
						<ele>246</ele>
						<time>2025-12-07T12:02:23Z</time>
					</trkpt>
					<trkpt lat="49.862440" lon="4.904080">
						<ele>248</ele>
						<time>2025-12-07T12:02:25Z</time>
					</trkpt>
					<trkpt lat="49.862450" lon="4.904150">
						<ele>251</ele>
						<time>2025-12-07T12:02:28Z</time>
					</trkpt>
					<trkpt lat="49.862460" lon="4.904170">
						<ele>252</ele>
						<time>2025-12-07T12:02:29Z</time>
					</trkpt>
					<trkpt lat="49.862490" lon="4.904150">
						<ele>252</ele>
						<time>2025-12-07T12:02:30Z</time>
					</trkpt>
					<trkpt lat="49.862540" lon="4.904080">
						<ele>250</ele>
						<time>2025-12-07T12:02:34Z</time>
					</trkpt>
					<trkpt lat="49.862590" lon="4.904060">
						<ele>248</ele>
						<time>2025-12-07T12:02:36Z</time>
					</trkpt>
					<trkpt lat="49.862600" lon="4.904070">
						<ele>248</ele>
						<time>2025-12-07T12:02:37Z</time>
					</trkpt>
					<trkpt lat="49.862610" lon="4.904110">
						<ele>249</ele>
						<time>2025-12-07T12:02:38Z</time>
					</trkpt>
					<trkpt lat="49.862590" lon="4.904220">
						<ele>253</ele>
						<time>2025-12-07T12:02:42Z</time>
					</trkpt>
					<trkpt lat="49.862590" lon="4.904310">
						<ele>255</ele>
						<time>2025-12-07T12:02:45Z</time>
					</trkpt>
					<trkpt lat="49.862590" lon="4.904410">
						<ele>258</ele>
						<time>2025-12-07T12:02:48Z</time>
					</trkpt>
					<trkpt lat="49.862600" lon="4.904430">
						<ele>258</ele>
						<time>2025-12-07T12:02:49Z</time>
					</trkpt>
					<trkpt lat="49.862680" lon="4.904360">
						<ele>255</ele>
						<time>2025-12-07T12:02:53Z</time>
					</trkpt>
					<trkpt lat="49.862740" lon="4.904340">
						<ele>253</ele>
						<time>2025-12-07T12:02:56Z</time>
					</trkpt>
					<trkpt lat="49.862760" lon="4.904360">
						<ele>253</ele>
						<time>2025-12-07T12:02:58Z</time>
					</trkpt>
					<trkpt lat="49.862790" lon="4.904370">
						<ele>253</ele>
						<time>2025-12-07T12:02:59Z</time>
					</trkpt>
					<trkpt lat="49.862870" lon="4.904490">
						<ele>254</ele>
						<time>2025-12-07T12:03:05Z</time>
					</trkpt>
					<trkpt lat="49.862900" lon="4.904560">
						<ele>256</ele>
						<time>2025-12-07T12:03:07Z</time>
					</trkpt>
					<trkpt lat="49.862910" lon="4.904590">
						<ele>256</ele>
						<time>2025-12-07T12:03:09Z</time>
					</trkpt>
					<trkpt lat="49.862950" lon="4.904640">
						<ele>256</ele>
						<time>2025-12-07T12:03:11Z</time>
					</trkpt>
					<trkpt lat="49.863020" lon="4.904630">
						<ele>255</ele>
						<time>2025-12-07T12:03:15Z</time>
					</trkpt>
					<trkpt lat="49.863040" lon="4.904600">
						<ele>254</ele>
						<time>2025-12-07T12:03:16Z</time>
					</trkpt>
					<trkpt lat="49.863090" lon="4.904650">
						<ele>254</ele>
						<time>2025-12-07T12:03:19Z</time>
					</trkpt>
					<trkpt lat="49.862990" lon="4.904780">
						<ele>259</ele>
						<time>2025-12-07T12:03:26Z</time>
					</trkpt>
					<trkpt lat="49.862860" lon="4.904940">
						<ele>266</ele>
						<time>2025-12-07T12:03:34Z</time>
					</trkpt>
					<trkpt lat="49.862790" lon="4.905030">
						<ele>270</ele>
						<time>2025-12-07T12:03:38Z</time>
					</trkpt>
					<trkpt lat="49.862700" lon="4.905230">
						<ele>276</ele>
						<time>2025-12-07T12:03:46Z</time>
					</trkpt>
					<trkpt lat="49.862640" lon="4.905400">
						<ele>282</ele>
						<time>2025-12-07T12:03:52Z</time>
					</trkpt>
					<trkpt lat="49.862570" lon="4.905530">
						<ele>287</ele>
						<time>2025-12-07T12:03:58Z</time>
					</trkpt>
					<trkpt lat="49.862550" lon="4.905610">
						<ele>289</ele>
						<time>2025-12-07T12:04:01Z</time>
					</trkpt>
					<trkpt lat="49.862550" lon="4.905630">
						<ele>290</ele>
						<time>2025-12-07T12:04:01Z</time>
					</trkpt>
					<trkpt lat="49.862570" lon="4.905630">
						<ele>289</ele>
						<time>2025-12-07T12:04:02Z</time>
					</trkpt>
					<trkpt lat="49.862660" lon="4.905590">
						<ele>285</ele>
						<time>2025-12-07T12:04:07Z</time>
					</trkpt>
					<trkpt lat="49.862690" lon="4.905650">
						<ele>286</ele>
						<time>2025-12-07T12:04:09Z</time>
					</trkpt>
					<trkpt lat="49.862710" lon="4.905760">
						<ele>288</ele>
						<time>2025-12-07T12:04:13Z</time>
					</trkpt>
					<trkpt lat="49.862700" lon="4.905850">
						<ele>290</ele>
						<time>2025-12-07T12:04:16Z</time>
					</trkpt>
					<trkpt lat="49.862690" lon="4.906060">
						<ele>294</ele>
						<time>2025-12-07T12:04:23Z</time>
					</trkpt>
					<trkpt lat="49.862700" lon="4.906230">
						<ele>297</ele>
						<time>2025-12-07T12:04:28Z</time>
					</trkpt>
					<trkpt lat="49.862770" lon="4.906430">
						<ele>298</ele>
						<time>2025-12-07T12:04:36Z</time>
					</trkpt>
					<trkpt lat="49.862760" lon="4.906530">
						<ele>301</ele>
						<time>2025-12-07T12:04:39Z</time>
					</trkpt>
					<trkpt lat="49.862730" lon="4.906640">
						<ele>304</ele>
						<time>2025-12-07T12:04:43Z</time>
					</trkpt>
					<trkpt lat="49.862660" lon="4.906740">
						<ele>308</ele>
						<time>2025-12-07T12:04:48Z</time>
					</trkpt>
					<trkpt lat="49.862600" lon="4.906900">
						<ele>312</ele>
						<time>2025-12-07T12:04:54Z</time>
					</trkpt>
					<trkpt lat="49.862580" lon="4.907030">
						<ele>315</ele>
						<time>2025-12-07T12:04:58Z</time>
					</trkpt>
					<trkpt lat="49.862590" lon="4.907190">
						<ele>317</ele>
						<time>2025-12-07T12:05:03Z</time>
					</trkpt>
					<trkpt lat="49.862590" lon="4.907240">
						<ele>317</ele>
						<time>2025-12-07T12:05:05Z</time>
					</trkpt>
					<trkpt lat="49.862630" lon="4.907400">
						<ele>318</ele>
						<time>2025-12-07T12:05:10Z</time>
					</trkpt>
					<trkpt lat="49.862700" lon="4.907490">
						<ele>317</ele>
						<time>2025-12-07T12:05:15Z</time>
					</trkpt>
					<trkpt lat="49.862850" lon="4.907600">
						<ele>313</ele>
						<time>2025-12-07T12:05:23Z</time>
					</trkpt>
					<trkpt lat="49.862960" lon="4.907740">
						<ele>311</ele>
						<time>2025-12-07T12:05:30Z</time>
					</trkpt>
					<trkpt lat="49.862800" lon="4.908270">
						<ele>320</ele>
						<time>2025-12-07T12:05:49Z</time>
					</trkpt>
					<trkpt lat="49.862670" lon="4.908510">
						<ele>324</ele>
						<time>2025-12-07T12:05:59Z</time>
					</trkpt>
					<trkpt lat="49.862650" lon="4.908560">
						<ele>325</ele>
						<time>2025-12-07T12:06:01Z</time>
					</trkpt>
					<trkpt lat="49.862630" lon="4.908900">
						<ele>327</ele>
						<time>2025-12-07T12:06:12Z</time>
					</trkpt>
					<trkpt lat="49.862630" lon="4.909210">
						<ele>328</ele>
						<time>2025-12-07T12:06:22Z</time>
					</trkpt>
					<trkpt lat="49.862560" lon="4.909350">
						<ele>331</ele>
						<time>2025-12-07T12:06:28Z</time>
					</trkpt>
					<trkpt lat="49.862470" lon="4.909460">
						<ele>332</ele>
						<time>2025-12-07T12:06:34Z</time>
					</trkpt>
					<trkpt lat="49.862240" lon="4.909710">
						<ele>332</ele>
						<time>2025-12-07T12:06:48Z</time>
					</trkpt>
					<trkpt lat="49.861470" lon="4.910410">
						<ele>328</ele>
						<time>2025-12-07T12:07:32Z</time>
					</trkpt>
					<trkpt lat="49.861140" lon="4.910750">
						<ele>326</ele>
						<time>2025-12-07T12:07:52Z</time>
					</trkpt>
					<trkpt lat="49.860860" lon="4.911010">
						<ele>325</ele>
						<time>2025-12-07T12:08:08Z</time>
					</trkpt>
					<trkpt lat="49.860700" lon="4.911170">
						<ele>323</ele>
						<time>2025-12-07T12:08:18Z</time>
					</trkpt>
					<trkpt lat="49.860310" lon="4.911830">
						<ele>321</ele>
						<time>2025-12-07T12:08:47Z</time>
					</trkpt>
					<trkpt lat="49.860110" lon="4.912390">
						<ele>319</ele>
						<time>2025-12-07T12:09:08Z</time>
					</trkpt>
					<trkpt lat="49.860020" lon="4.912630">
						<ele>318</ele>
						<time>2025-12-07T12:09:16Z</time>
					</trkpt>
					<trkpt lat="49.859980" lon="4.912760">
						<ele>318</ele>
						<time>2025-12-07T12:09:21Z</time>
					</trkpt>
					<trkpt lat="49.859960" lon="4.912910">
						<ele>317</ele>
						<time>2025-12-07T12:09:26Z</time>
					</trkpt>
					<trkpt lat="49.859910" lon="4.913630">
						<ele>317</ele>
						<time>2025-12-07T12:09:49Z</time>
					</trkpt>
					<trkpt lat="49.859880" lon="4.913910">
						<ele>317</ele>
						<time>2025-12-07T12:09:59Z</time>
					</trkpt>
					<trkpt lat="49.859560" lon="4.915460">
						<ele>310</ele>
						<time>2025-12-07T12:10:51Z</time>
					</trkpt>
					<trkpt lat="49.859480" lon="4.915930">
						<ele>307</ele>
						<time>2025-12-07T12:11:07Z</time>
					</trkpt>
					<trkpt lat="49.859420" lon="4.916410">
						<ele>306</ele>
						<time>2025-12-07T12:11:23Z</time>
					</trkpt>
					<trkpt lat="49.859340" lon="4.916870">
						<ele>305</ele>
						<time>2025-12-07T12:11:38Z</time>
					</trkpt>
					<trkpt lat="49.859240" lon="4.917290">
						<ele>303</ele>
						<time>2025-12-07T12:11:52Z</time>
					</trkpt>
					<trkpt lat="49.859230" lon="4.917470">
						<ele>304</ele>
						<time>2025-12-07T12:11:58Z</time>
					</trkpt>
					<trkpt lat="49.859190" lon="4.918220">
						<ele>303</ele>
						<time>2025-12-07T12:12:22Z</time>
					</trkpt>
					<trkpt lat="49.859100" lon="4.918170">
						<ele>302</ele>
						<time>2025-12-07T12:12:27Z</time>
					</trkpt>
					<trkpt lat="49.858970" lon="4.918250">
						<ele>299</ele>
						<time>2025-12-07T12:12:34Z</time>
					</trkpt>
					<trkpt lat="49.858740" lon="4.918340">
						<ele>295</ele>
						<time>2025-12-07T12:12:46Z</time>
					</trkpt>
					<trkpt lat="49.858490" lon="4.918540">
						<ele>293</ele>
						<time>2025-12-07T12:13:00Z</time>
					</trkpt>
					<trkpt lat="49.858270" lon="4.918640">
						<ele>291</ele>
						<time>2025-12-07T12:13:12Z</time>
					</trkpt>
					<trkpt lat="49.858020" lon="4.918810">
						<ele>289</ele>
						<time>2025-12-07T12:13:25Z</time>
					</trkpt>
					<trkpt lat="49.857700" lon="4.918990">
						<ele>287</ele>
						<time>2025-12-07T12:13:42Z</time>
					</trkpt>
					<trkpt lat="49.857290" lon="4.919110">
						<ele>283</ele>
						<time>2025-12-07T12:14:03Z</time>
					</trkpt>
					<trkpt lat="49.857150" lon="4.919140">
						<ele>282</ele>
						<time>2025-12-07T12:14:10Z</time>
					</trkpt>
					<trkpt lat="49.856400" lon="4.919140">
						<ele>274</ele>
						<time>2025-12-07T12:14:48Z</time>
					</trkpt>
					<trkpt lat="49.856140" lon="4.919150">
						<ele>273</ele>
						<time>2025-12-07T12:15:01Z</time>
					</trkpt>
					<trkpt lat="49.855910" lon="4.919190">
						<ele>273</ele>
						<time>2025-12-07T12:15:12Z</time>
					</trkpt>
					<trkpt lat="49.855660" lon="4.919170">
						<ele>271</ele>
						<time>2025-12-07T12:15:25Z</time>
					</trkpt>
					<trkpt lat="49.855280" lon="4.919170">
						<ele>270</ele>
						<time>2025-12-07T12:15:44Z</time>
					</trkpt>
					<trkpt lat="49.854760" lon="4.919190">
						<ele>268</ele>
						<time>2025-12-07T12:16:10Z</time>
					</trkpt>
					<trkpt lat="49.854420" lon="4.919230">
						<ele>266</ele>
						<time>2025-12-07T12:16:27Z</time>
					</trkpt>
					<trkpt lat="49.853980" lon="4.919240">
						<ele>262</ele>
						<time>2025-12-07T12:16:49Z</time>
					</trkpt>
					<trkpt lat="49.853660" lon="4.919240">
						<ele>259</ele>
						<time>2025-12-07T12:17:05Z</time>
					</trkpt>
					<trkpt lat="49.853400" lon="4.919200">
						<ele>255</ele>
						<time>2025-12-07T12:17:18Z</time>
					</trkpt>
					<trkpt lat="49.853260" lon="4.919230">
						<ele>254</ele>
						<time>2025-12-07T12:17:25Z</time>
					</trkpt>
					<trkpt lat="49.853160" lon="4.919290">
						<ele>254</ele>
						<time>2025-12-07T12:17:31Z</time>
					</trkpt>
					<trkpt lat="49.852820" lon="4.919630">
						<ele>254</ele>
						<time>2025-12-07T12:17:51Z</time>
					</trkpt>
					<trkpt lat="49.852710" lon="4.919770">
						<ele>254</ele>
						<time>2025-12-07T12:17:58Z</time>
					</trkpt>
					<trkpt lat="49.852390" lon="4.920320">
						<ele>255</ele>
						<time>2025-12-07T12:18:22Z</time>
					</trkpt>
					<trkpt lat="49.852340" lon="4.920440">
						<ele>256</ele>
						<time>2025-12-07T12:18:27Z</time>
					</trkpt>
					<trkpt lat="49.852300" lon="4.920570">
						<ele>257</ele>
						<time>2025-12-07T12:18:31Z</time>
					</trkpt>
					<trkpt lat="49.852090" lon="4.921160">
						<ele>259</ele>
						<time>2025-12-07T12:18:53Z</time>
					</trkpt>
					<trkpt lat="49.852040" lon="4.921420">
						<ele>259</ele>
						<time>2025-12-07T12:19:02Z</time>
					</trkpt>
					<trkpt lat="49.851990" lon="4.921920">
						<ele>264</ele>
						<time>2025-12-07T12:19:18Z</time>
					</trkpt>
					<trkpt lat="49.851890" lon="4.922200">
						<ele>265</ele>
						<time>2025-12-07T12:19:28Z</time>
					</trkpt>
					<trkpt lat="49.851850" lon="4.922310">
						<ele>265</ele>
						<time>2025-12-07T12:19:32Z</time>
					</trkpt>
					<trkpt lat="49.851760" lon="4.922520">
						<ele>266</ele>
						<time>2025-12-07T12:19:41Z</time>
					</trkpt>
					<trkpt lat="49.851580" lon="4.922650">
						<ele>266</ele>
						<time>2025-12-07T12:19:50Z</time>
					</trkpt>
					<trkpt lat="49.851320" lon="4.922690">
						<ele>267</ele>
						<time>2025-12-07T12:20:04Z</time>
					</trkpt>
					<trkpt lat="49.851140" lon="4.922610">
						<ele>265</ele>
						<time>2025-12-07T12:20:13Z</time>
					</trkpt>
					<trkpt lat="49.850900" lon="4.922430">
						<ele>260</ele>
						<time>2025-12-07T12:20:26Z</time>
					</trkpt>
					<trkpt lat="49.850690" lon="4.922260">
						<ele>260</ele>
						<time>2025-12-07T12:20:38Z</time>
					</trkpt>
					<trkpt lat="49.850200" lon="4.921680">
						<ele>256</ele>
						<time>2025-12-07T12:21:09Z</time>
					</trkpt>
					<trkpt lat="49.849930" lon="4.921450">
						<ele>258</ele>
						<time>2025-12-07T12:21:24Z</time>
					</trkpt>
					<trkpt lat="49.849810" lon="4.921180">
						<ele>257</ele>
						<time>2025-12-07T12:21:35Z</time>
					</trkpt>
					<trkpt lat="49.849790" lon="4.921080">
						<ele>256</ele>
						<time>2025-12-07T12:21:38Z</time>
					</trkpt>
					<trkpt lat="49.849760" lon="4.920960">
						<ele>255</ele>
						<time>2025-12-07T12:21:42Z</time>
					</trkpt>
					<trkpt lat="49.849790" lon="4.920790">
						<ele>254</ele>
						<time>2025-12-07T12:21:48Z</time>
					</trkpt>
					<trkpt lat="49.849790" lon="4.920790">
						<ele>254</ele>
						<time>2025-12-07T12:21:48Z</time>
					</trkpt>
					<trkpt lat="49.849800" lon="4.920740">
						<ele>255</ele>
						<time>2025-12-07T12:21:50Z</time>
					</trkpt>
					<trkpt lat="49.849780" lon="4.920660">
						<ele>257</ele>
						<time>2025-12-07T12:21:53Z</time>
					</trkpt>
					<trkpt lat="49.849730" lon="4.920580">
						<ele>258</ele>
						<time>2025-12-07T12:21:56Z</time>
					</trkpt>
					<trkpt lat="49.849600" lon="4.920280">
						<ele>261</ele>
						<time>2025-12-07T12:22:08Z</time>
					</trkpt>
					<trkpt lat="49.849430" lon="4.919980">
						<ele>262</ele>
						<time>2025-12-07T12:22:21Z</time>
					</trkpt>
					<trkpt lat="49.849290" lon="4.919810">
						<ele>264</ele>
						<time>2025-12-07T12:22:30Z</time>
					</trkpt>
					<trkpt lat="49.849100" lon="4.919660">
						<ele>266</ele>
						<time>2025-12-07T12:22:40Z</time>
					</trkpt>
					<trkpt lat="49.848930" lon="4.919620">
						<ele>268</ele>
						<time>2025-12-07T12:22:49Z</time>
					</trkpt>
					<trkpt lat="49.848660" lon="4.919650">
						<ele>269</ele>
						<time>2025-12-07T12:23:02Z</time>
					</trkpt>
					<trkpt lat="49.848390" lon="4.919770">
						<ele>269</ele>
						<time>2025-12-07T12:23:17Z</time>
					</trkpt>
					<trkpt lat="49.848290" lon="4.919880">
						<ele>268</ele>
						<time>2025-12-07T12:23:23Z</time>
					</trkpt>
					<trkpt lat="49.848180" lon="4.920140">
						<ele>266</ele>
						<time>2025-12-07T12:23:33Z</time>
					</trkpt>
					<trkpt lat="49.848110" lon="4.920290">
						<ele>265</ele>
						<time>2025-12-07T12:23:39Z</time>
					</trkpt>
					<trkpt lat="49.848010" lon="4.920380">
						<ele>265</ele>
						<time>2025-12-07T12:23:44Z</time>
					</trkpt>
					<trkpt lat="49.847970" lon="4.920510">
						<ele>263</ele>
						<time>2025-12-07T12:23:49Z</time>
					</trkpt>
					<trkpt lat="49.847930" lon="4.920550">
						<ele>263</ele>
						<time>2025-12-07T12:23:51Z</time>
					</trkpt>
					<trkpt lat="49.847900" lon="4.920550">
						<ele>264</ele>
						<time>2025-12-07T12:23:53Z</time>
					</trkpt>
					<trkpt lat="49.847820" lon="4.920500">
						<ele>266</ele>
						<time>2025-12-07T12:23:57Z</time>
					</trkpt>
					<trkpt lat="49.847610" lon="4.920310">
						<ele>272</ele>
						<time>2025-12-07T12:24:09Z</time>
					</trkpt>
					<trkpt lat="49.847790" lon="4.919910">
						<ele>277</ele>
						<time>2025-12-07T12:24:25Z</time>
					</trkpt>
					<trkpt lat="49.847820" lon="4.919730">
						<ele>279</ele>
						<time>2025-12-07T12:24:31Z</time>
					</trkpt>
					<trkpt lat="49.847820" lon="4.919600">
						<ele>281</ele>
						<time>2025-12-07T12:24:35Z</time>
					</trkpt>
					<trkpt lat="49.847810" lon="4.919550">
						<ele>282</ele>
						<time>2025-12-07T12:24:37Z</time>
					</trkpt>
					<trkpt lat="49.847780" lon="4.919370">
						<ele>285</ele>
						<time>2025-12-07T12:24:43Z</time>
					</trkpt>
					<trkpt lat="49.847880" lon="4.918960">
						<ele>290</ele>
						<time>2025-12-07T12:24:57Z</time>
					</trkpt>
					<trkpt lat="49.848200" lon="4.918050">
						<ele>298</ele>
						<time>2025-12-07T12:25:31Z</time>
					</trkpt>
					<trkpt lat="49.848300" lon="4.917640">
						<ele>302</ele>
						<time>2025-12-07T12:25:45Z</time>
					</trkpt>
					<trkpt lat="49.848850" lon="4.916520">
						<ele>323</ele>
						<time>2025-12-07T12:26:30Z</time>
					</trkpt>
					<trkpt lat="49.849050" lon="4.916240">
						<ele>326</ele>
						<time>2025-12-07T12:26:44Z</time>
					</trkpt>
					<trkpt lat="49.849140" lon="4.916130">
						<ele>327</ele>
						<time>2025-12-07T12:26:49Z</time>
					</trkpt>
					<trkpt lat="49.849300" lon="4.916020">
						<ele>330</ele>
						<time>2025-12-07T12:26:58Z</time>
					</trkpt>
					<trkpt lat="49.849430" lon="4.915990">
						<ele>331</ele>
						<time>2025-12-07T12:27:05Z</time>
					</trkpt>
					<trkpt lat="49.849550" lon="4.916070">
						<ele>332</ele>
						<time>2025-12-07T12:27:11Z</time>
					</trkpt>
					<trkpt lat="49.849810" lon="4.916380">
						<ele>335</ele>
						<time>2025-12-07T12:27:28Z</time>
					</trkpt>
					<trkpt lat="49.849910" lon="4.916460">
						<ele>337</ele>
						<time>2025-12-07T12:27:33Z</time>
					</trkpt>
					<trkpt lat="49.850060" lon="4.916540">
						<ele>339</ele>
						<time>2025-12-07T12:27:41Z</time>
					</trkpt>
					<trkpt lat="49.850180" lon="4.916490">
						<ele>338</ele>
						<time>2025-12-07T12:27:48Z</time>
					</trkpt>
					<trkpt lat="49.850280" lon="4.916330">
						<ele>338</ele>
						<time>2025-12-07T12:27:55Z</time>
					</trkpt>
					<trkpt lat="49.850360" lon="4.916040">
						<ele>338</ele>
						<time>2025-12-07T12:28:05Z</time>
					</trkpt>
					<trkpt lat="49.850380" lon="4.915790">
						<ele>338</ele>
						<time>2025-12-07T12:28:13Z</time>
					</trkpt>
					<trkpt lat="49.850370" lon="4.915540">
						<ele>340</ele>
						<time>2025-12-07T12:28:21Z</time>
					</trkpt>
					<trkpt lat="49.850410" lon="4.915310">
						<ele>342</ele>
						<time>2025-12-07T12:28:29Z</time>
					</trkpt>
					<trkpt lat="49.850410" lon="4.915060">
						<ele>344</ele>
						<time>2025-12-07T12:28:37Z</time>
					</trkpt>
					<trkpt lat="49.850340" lon="4.914470">
						<ele>350</ele>
						<time>2025-12-07T12:28:56Z</time>
					</trkpt>
					<trkpt lat="49.850260" lon="4.913910">
						<ele>356</ele>
						<time>2025-12-07T12:29:15Z</time>
					</trkpt>
					<trkpt lat="49.850110" lon="4.913240">
						<ele>364</ele>
						<time>2025-12-07T12:29:38Z</time>
					</trkpt>
					<trkpt lat="49.850060" lon="4.913110">
						<ele>365</ele>
						<time>2025-12-07T12:29:43Z</time>
					</trkpt>
					<trkpt lat="49.849950" lon="4.912620">
						<ele>369</ele>
						<time>2025-12-07T12:29:59Z</time>
					</trkpt>
					<trkpt lat="49.849830" lon="4.912080">
						<ele>372</ele>
						<time>2025-12-07T12:30:18Z</time>
					</trkpt>
					<trkpt lat="49.849850" lon="4.911990">
						<ele>373</ele>
						<time>2025-12-07T12:30:21Z</time>
					</trkpt>
					<trkpt lat="49.849940" lon="4.911660">
						<ele>376</ele>
						<time>2025-12-07T12:30:32Z</time>
					</trkpt>
					<trkpt lat="49.849890" lon="4.911290">
						<ele>378</ele>
						<time>2025-12-07T12:30:45Z</time>
					</trkpt>
					<trkpt lat="49.849780" lon="4.910890">
						<ele>379</ele>
						<time>2025-12-07T12:30:59Z</time>
					</trkpt>
					<trkpt lat="49.849510" lon="4.910290">
						<ele>379</ele>
						<time>2025-12-07T12:31:22Z</time>
					</trkpt>
					<trkpt lat="49.848930" lon="4.909260">
						<ele>375</ele>
						<time>2025-12-07T12:32:06Z</time>
					</trkpt>
					<trkpt lat="49.848850" lon="4.908980">
						<ele>375</ele>
						<time>2025-12-07T12:32:16Z</time>
					</trkpt>
					<trkpt lat="49.848730" lon="4.908340">
						<ele>377</ele>
						<time>2025-12-07T12:32:38Z</time>
					</trkpt>
					<trkpt lat="49.848500" lon="4.907690">
						<ele>374</ele>
						<time>2025-12-07T12:33:02Z</time>
					</trkpt>
					<trkpt lat="49.848310" lon="4.907180">
						<ele>373</ele>
						<time>2025-12-07T12:33:21Z</time>
					</trkpt>
					<trkpt lat="49.848070" lon="4.906650">
						<ele>376</ele>
						<time>2025-12-07T12:33:41Z</time>
					</trkpt>
					<trkpt lat="49.848010" lon="4.906500">
						<ele>376</ele>
						<time>2025-12-07T12:33:47Z</time>
					</trkpt>
					<trkpt lat="49.847720" lon="4.905920">
						<ele>377</ele>
						<time>2025-12-07T12:34:11Z</time>
					</trkpt>
					<trkpt lat="49.847640" lon="4.905770">
						<ele>377</ele>
						<time>2025-12-07T12:34:17Z</time>
					</trkpt>
					<trkpt lat="49.847570" lon="4.905600">
						<ele>376</ele>
						<time>2025-12-07T12:34:24Z</time>
					</trkpt>
					<trkpt lat="49.847410" lon="4.904400">
						<ele>371</ele>
						<time>2025-12-07T12:35:03Z</time>
					</trkpt>
					<trkpt lat="49.847370" lon="4.903630">
						<ele>369</ele>
						<time>2025-12-07T12:35:28Z</time>
					</trkpt>
					<trkpt lat="49.847290" lon="4.902770">
						<ele>366</ele>
						<time>2025-12-07T12:35:56Z</time>
					</trkpt>
					<trkpt lat="49.847280" lon="4.902640">
						<ele>366</ele>
						<time>2025-12-07T12:36:00Z</time>
					</trkpt>
					<trkpt lat="49.847480" lon="4.902210">
						<ele>368</ele>
						<time>2025-12-07T12:36:18Z</time>
					</trkpt>
					<trkpt lat="49.848740" lon="4.900490">
						<ele>396</ele>
						<time>2025-12-07T12:37:42Z</time>
					</trkpt>
					<trkpt lat="49.849130" lon="4.899730">
						<ele>401</ele>
						<time>2025-12-07T12:38:13Z</time>
					</trkpt>
					<trkpt lat="49.848980" lon="4.899630">
						<ele>400</ele>
						<time>2025-12-07T12:38:21Z</time>
					</trkpt>
					<trkpt lat="49.849040" lon="4.899490">
						<ele>400</ele>
						<time>2025-12-07T12:38:26Z</time>
					</trkpt>
					<trkpt lat="49.849240" lon="4.899350">
						<ele>400</ele>
						<time>2025-12-07T12:38:37Z</time>
					</trkpt>
					<trkpt lat="49.849620" lon="4.898320">
						<ele>395</ele>
						<time>2025-12-07T12:39:16Z</time>
					</trkpt>
					<trkpt lat="49.849660" lon="4.897820">
						<ele>392</ele>
						<time>2025-12-07T12:39:32Z</time>
					</trkpt>
					<trkpt lat="49.849600" lon="4.897160">
						<ele>387</ele>
						<time>2025-12-07T12:39:53Z</time>
					</trkpt>
					<trkpt lat="49.849670" lon="4.896950">
						<ele>385</ele>
						<time>2025-12-07T12:40:01Z</time>
					</trkpt>
					<trkpt lat="49.849700" lon="4.896530">
						<ele>382</ele>
						<time>2025-12-07T12:40:15Z</time>
					</trkpt>
					<trkpt lat="49.849890" lon="4.896040">
						<ele>378</ele>
						<time>2025-12-07T12:40:33Z</time>
					</trkpt>
					<trkpt lat="49.850160" lon="4.895260">
						<ele>373</ele>
						<time>2025-12-07T12:41:02Z</time>
					</trkpt>
					<trkpt lat="49.850610" lon="4.894200">
						<ele>367</ele>
						<time>2025-12-07T12:41:43Z</time>
					</trkpt>
					<trkpt lat="49.850710" lon="4.894000">
						<ele>365</ele>
						<time>2025-12-07T12:41:51Z</time>
					</trkpt>
					<trkpt lat="49.850770" lon="4.893930">
						<ele>364</ele>
						<time>2025-12-07T12:41:55Z</time>
					</trkpt>
					<trkpt lat="49.850880" lon="4.893840">
						<ele>362</ele>
						<time>2025-12-07T12:42:01Z</time>
					</trkpt>
					<trkpt lat="49.851180" lon="4.893530">
						<ele>357</ele>
						<time>2025-12-07T12:42:19Z</time>
					</trkpt>
					<trkpt lat="49.851290" lon="4.893410">
						<ele>355</ele>
						<time>2025-12-07T12:42:26Z</time>
					</trkpt>
					<trkpt lat="49.851400" lon="4.893250">
						<ele>351</ele>
						<time>2025-12-07T12:42:33Z</time>
					</trkpt>
					<trkpt lat="49.851480" lon="4.893060">
						<ele>348</ele>
						<time>2025-12-07T12:42:40Z</time>
					</trkpt>
					<trkpt lat="49.851580" lon="4.892950">
						<ele>344</ele>
						<time>2025-12-07T12:42:47Z</time>
					</trkpt>
					<trkpt lat="49.851810" lon="4.892740">
						<ele>339</ele>
						<time>2025-12-07T12:43:00Z</time>
					</trkpt>
					<trkpt lat="49.852220" lon="4.892310">
						<ele>329</ele>
						<time>2025-12-07T12:43:25Z</time>
					</trkpt>
					<trkpt lat="49.852630" lon="4.891960">
						<ele>317</ele>
						<time>2025-12-07T12:43:48Z</time>
					</trkpt>
					<trkpt lat="49.852970" lon="4.891500">
						<ele>306</ele>
						<time>2025-12-07T12:44:11Z</time>
					</trkpt>
					<trkpt lat="49.853140" lon="4.891290">
						<ele>300</ele>
						<time>2025-12-07T12:44:22Z</time>
					</trkpt>
					<trkpt lat="49.853480" lon="4.890790">
						<ele>286</ele>
						<time>2025-12-07T12:44:45Z</time>
					</trkpt>
					<trkpt lat="49.853610" lon="4.890510">
						<ele>284</ele>
						<time>2025-12-07T12:44:56Z</time>
					</trkpt>
					<trkpt lat="49.854040" lon="4.889760">
						<ele>277</ele>
						<time>2025-12-07T12:45:29Z</time>
					</trkpt>
					<trkpt lat="49.854340" lon="4.889080">
						<ele>268</ele>
						<time>2025-12-07T12:45:55Z</time>
					</trkpt>
					<trkpt lat="49.854430" lon="4.888930">
						<ele>267</ele>
						<time>2025-12-07T12:46:02Z</time>
					</trkpt>
					<trkpt lat="49.854630" lon="4.888660">
						<ele>263</ele>
						<time>2025-12-07T12:46:15Z</time>
					</trkpt>
					<trkpt lat="49.855010" lon="4.888550">
						<ele>263</ele>
						<time>2025-12-07T12:46:34Z</time>
					</trkpt>
					<trkpt lat="49.855340" lon="4.888380">
						<ele>267</ele>
						<time>2025-12-07T12:46:52Z</time>
					</trkpt>
					<trkpt lat="49.855490" lon="4.888200">
						<ele>267</ele>
						<time>2025-12-07T12:47:01Z</time>
					</trkpt>
					<trkpt lat="49.855720" lon="4.887980">
						<ele>266</ele>
						<time>2025-12-07T12:47:15Z</time>
					</trkpt>
					<trkpt lat="49.856030" lon="4.887810">
						<ele>266</ele>
						<time>2025-12-07T12:47:31Z</time>
					</trkpt>
					<trkpt lat="49.856200" lon="4.887810">
						<ele>269</ele>
						<time>2025-12-07T12:47:40Z</time>
					</trkpt>
					<trkpt lat="49.856410" lon="4.887840">
						<ele>273</ele>
						<time>2025-12-07T12:47:50Z</time>
					</trkpt>
					<trkpt lat="49.856650" lon="4.887970">
						<ele>280</ele>
						<time>2025-12-07T12:48:03Z</time>
					</trkpt>
					<trkpt lat="49.856740" lon="4.888030">
						<ele>282</ele>
						<time>2025-12-07T12:48:08Z</time>
					</trkpt>
					<trkpt lat="49.856980" lon="4.888220">
						<ele>286</ele>
						<time>2025-12-07T12:48:21Z</time>
					</trkpt>
					<trkpt lat="49.857710" lon="4.888730">
						<ele>296</ele>
						<time>2025-12-07T12:49:01Z</time>
					</trkpt>
					<trkpt lat="49.858160" lon="4.888880">
						<ele>297</ele>
						<time>2025-12-07T12:49:25Z</time>
					</trkpt>
					<trkpt lat="49.858630" lon="4.889140">
						<ele>297</ele>
						<time>2025-12-07T12:49:50Z</time>
					</trkpt>
					<trkpt lat="49.859230" lon="4.889850">
						<ele>308</ele>
						<time>2025-12-07T12:50:27Z</time>
					</trkpt>
					<trkpt lat="49.859340" lon="4.889960">
						<ele>310</ele>
						<time>2025-12-07T12:50:34Z</time>
					</trkpt>
					<trkpt lat="49.859930" lon="4.890480">
						<ele>319</ele>
						<time>2025-12-07T12:51:08Z</time>
					</trkpt>
					<trkpt lat="49.860060" lon="4.890600">
						<ele>322</ele>
						<time>2025-12-07T12:51:15Z</time>
					</trkpt>
					<trkpt lat="49.860390" lon="4.890870">
						<ele>328</ele>
						<time>2025-12-07T12:51:34Z</time>
					</trkpt>
					<trkpt lat="49.860520" lon="4.890950">
						<ele>328</ele>
						<time>2025-12-07T12:51:41Z</time>
					</trkpt>
					<trkpt lat="49.860770" lon="4.891050">
						<ele>328</ele>
						<time>2025-12-07T12:51:54Z</time>
					</trkpt>
					<trkpt lat="49.860910" lon="4.891100">
						<ele>330</ele>
						<time>2025-12-07T12:52:01Z</time>
					</trkpt>
					<trkpt lat="49.861220" lon="4.891150">
						<ele>333</ele>
						<time>2025-12-07T12:52:17Z</time>
					</trkpt>
					<trkpt lat="49.861340" lon="4.891140">
						<ele>333</ele>
						<time>2025-12-07T12:52:23Z</time>
					</trkpt>
					<trkpt lat="49.861510" lon="4.891070">
						<ele>333</ele>
						<time>2025-12-07T12:52:32Z</time>
					</trkpt>
					<trkpt lat="49.861730" lon="4.890900">
						<ele>333</ele>
						<time>2025-12-07T12:52:44Z</time>
					</trkpt>
					<trkpt lat="49.862020" lon="4.890710">
						<ele>332</ele>
						<time>2025-12-07T12:53:00Z</time>
					</trkpt>
					<trkpt lat="49.862330" lon="4.890490">
						<ele>331</ele>
						<time>2025-12-07T12:53:17Z</time>
					</trkpt>
					<trkpt lat="49.862380" lon="4.890480">
						<ele>331</ele>
						<time>2025-12-07T12:53:19Z</time>
					</trkpt>
					<trkpt lat="49.862490" lon="4.890500">
						<ele>333</ele>
						<time>2025-12-07T12:53:25Z</time>
					</trkpt>
					<trkpt lat="49.862530" lon="4.890130">
						<ele>325</ele>
						<time>2025-12-07T12:53:37Z</time>
					</trkpt>
					<trkpt lat="49.862520" lon="4.889960">
						<ele>323</ele>
						<time>2025-12-07T12:53:42Z</time>
					</trkpt>
					<trkpt lat="49.862530" lon="4.889810">
						<ele>319</ele>
						<time>2025-12-07T12:53:47Z</time>
					</trkpt>
					<trkpt lat="49.862560" lon="4.889760">
						<ele>317</ele>
						<time>2025-12-07T12:53:49Z</time>
					</trkpt>
					<trkpt lat="49.862590" lon="4.889650">
						<ele>314</ele>
						<time>2025-12-07T12:53:53Z</time>
					</trkpt>
					<trkpt lat="49.862570" lon="4.889390">
						<ele>310</ele>
						<time>2025-12-07T12:54:02Z</time>
					</trkpt>
					<trkpt lat="49.862530" lon="4.889260">
						<ele>309</ele>
						<time>2025-12-07T12:54:06Z</time>
					</trkpt>
					<trkpt lat="49.862560" lon="4.889170">
						<ele>306</ele>
						<time>2025-12-07T12:54:10Z</time>
					</trkpt>
					<trkpt lat="49.862640" lon="4.889120">
						<ele>301</ele>
						<time>2025-12-07T12:54:14Z</time>
					</trkpt>
					<trkpt lat="49.862710" lon="4.888910">
						<ele>292</ele>
						<time>2025-12-07T12:54:22Z</time>
					</trkpt>
					<trkpt lat="49.862720" lon="4.888650">
						<ele>284</ele>
						<time>2025-12-07T12:54:30Z</time>
					</trkpt>
					<trkpt lat="49.862690" lon="4.888590">
						<ele>283</ele>
						<time>2025-12-07T12:54:32Z</time>
					</trkpt>
					<trkpt lat="49.862730" lon="4.888480">
						<ele>279</ele>
						<time>2025-12-07T12:54:36Z</time>
					</trkpt>
					<trkpt lat="49.862700" lon="4.888340">
						<ele>276</ele>
						<time>2025-12-07T12:54:41Z</time>
					</trkpt>
					<trkpt lat="49.862780" lon="4.888260">
						<ele>270</ele>
						<time>2025-12-07T12:54:46Z</time>
					</trkpt>
					<trkpt lat="49.862780" lon="4.888210">
						<ele>269</ele>
						<time>2025-12-07T12:54:48Z</time>
					</trkpt>
					<trkpt lat="49.862730" lon="4.888140">
						<ele>268</ele>
						<time>2025-12-07T12:54:51Z</time>
					</trkpt>
					<trkpt lat="49.862770" lon="4.888110">
						<ele>266</ele>
						<time>2025-12-07T12:54:53Z</time>
					</trkpt>
					<trkpt lat="49.862770" lon="4.888030">
						<ele>263</ele>
						<time>2025-12-07T12:54:56Z</time>
					</trkpt>
					<trkpt lat="49.862680" lon="4.887840">
						<ele>260</ele>
						<time>2025-12-07T12:55:03Z</time>
					</trkpt>
					<trkpt lat="49.862670" lon="4.887770">
						<ele>258</ele>
						<time>2025-12-07T12:55:06Z</time>
					</trkpt>
					<trkpt lat="49.862710" lon="4.887710">
						<ele>255</ele>
						<time>2025-12-07T12:55:08Z</time>
					</trkpt>
					<trkpt lat="49.862760" lon="4.887710">
						<ele>253</ele>
						<time>2025-12-07T12:55:11Z</time>
					</trkpt>
					<trkpt lat="49.862790" lon="4.887740">
						<ele>253</ele>
						<time>2025-12-07T12:55:13Z</time>
					</trkpt>
					<trkpt lat="49.862830" lon="4.887720">
						<ele>252</ele>
						<time>2025-12-07T12:55:15Z</time>
					</trkpt>
					<trkpt lat="49.862880" lon="4.887550">
						<ele>245</ele>
						<time>2025-12-07T12:55:21Z</time>
					</trkpt>
					<trkpt lat="49.862950" lon="4.887550">
						<ele>243</ele>
						<time>2025-12-07T12:55:24Z</time>
					</trkpt>
					<trkpt lat="49.862960" lon="4.887480">
						<ele>241</ele>
						<time>2025-12-07T12:55:27Z</time>
					</trkpt>
					<trkpt lat="49.862920" lon="4.887400">
						<ele>239</ele>
						<time>2025-12-07T12:55:30Z</time>
					</trkpt>
					<trkpt lat="49.862910" lon="4.887350">
						<ele>238</ele>
						<time>2025-12-07T12:55:32Z</time>
					</trkpt>
					<trkpt lat="49.862850" lon="4.887320">
						<ele>238</ele>
						<time>2025-12-07T12:55:35Z</time>
					</trkpt>
					<trkpt lat="49.862790" lon="4.887200">
						<ele>235</ele>
						<time>2025-12-07T12:55:40Z</time>
					</trkpt>
					<trkpt lat="49.862800" lon="4.887110">
						<ele>232</ele>
						<time>2025-12-07T12:55:43Z</time>
					</trkpt>
					<trkpt lat="49.862870" lon="4.887040">
						<ele>228</ele>
						<time>2025-12-07T12:55:47Z</time>
					</trkpt>
					<trkpt lat="49.862900" lon="4.886860">
						<ele>221</ele>
						<time>2025-12-07T12:55:53Z</time>
					</trkpt>
					<trkpt lat="49.862550" lon="4.886670">
						<ele>221</ele>
						<time>2025-12-07T12:56:11Z</time>
					</trkpt>
					<trkpt lat="49.862420" lon="4.886640">
						<ele>220</ele>
						<time>2025-12-07T12:56:18Z</time>
					</trkpt>
					<trkpt lat="49.862090" lon="4.886620">
						<ele>216</ele>
						<time>2025-12-07T12:56:35Z</time>
					</trkpt>
					<trkpt lat="49.861800" lon="4.886560">
						<ele>211</ele>
						<time>2025-12-07T12:56:49Z</time>
					</trkpt>
					<trkpt lat="49.861710" lon="4.886560">
						<ele>210</ele>
						<time>2025-12-07T12:56:54Z</time>
					</trkpt>
					<trkpt lat="49.861540" lon="4.886600">
						<ele>209</ele>
						<time>2025-12-07T12:57:02Z</time>
					</trkpt>
					<trkpt lat="49.861290" lon="4.886710">
						<ele>210</ele>
						<time>2025-12-07T12:57:15Z</time>
					</trkpt>
					<trkpt lat="49.861040" lon="4.886750">
						<ele>208</ele>
						<time>2025-12-07T12:57:28Z</time>
					</trkpt>
					<trkpt lat="49.860970" lon="4.886740">
						<ele>207</ele>
						<time>2025-12-07T12:57:31Z</time>
					</trkpt>
					<trkpt lat="49.860800" lon="4.886790">
						<ele>207</ele>
						<time>2025-12-07T12:57:40Z</time>
					</trkpt>
					<trkpt lat="49.860680" lon="4.886790">
						<ele>208</ele>
						<time>2025-12-07T12:57:46Z</time>
					</trkpt>
					<trkpt lat="49.860850" lon="4.886640">
						<ele>204</ele>
						<time>2025-12-07T12:57:56Z</time>
					</trkpt>
					<trkpt lat="49.861240" lon="4.886240">
						<ele>204</ele>
						<time>2025-12-07T12:58:19Z</time>
					</trkpt>
					<trkpt lat="49.861500" lon="4.886030">
						<ele>198</ele>
						<time>2025-12-07T12:58:34Z</time>
					</trkpt>
					<trkpt lat="49.861180" lon="4.885400">
						<ele>207</ele>
						<time>2025-12-07T12:59:00Z</time>
					</trkpt>
					<trkpt lat="49.861230" lon="4.885310">
						<ele>206</ele>
						<time>2025-12-07T12:59:04Z</time>
					</trkpt>
					<trkpt lat="49.861310" lon="4.885140">
						<ele>205</ele>
						<time>2025-12-07T12:59:10Z</time>
					</trkpt>
					<trkpt lat="49.861370" lon="4.885060">
						<ele>203</ele>
						<time>2025-12-07T12:59:14Z</time>
					</trkpt>
					<trkpt lat="49.861450" lon="4.884920">
						<ele>201</ele>
						<time>2025-12-07T12:59:20Z</time>
					</trkpt>
					<trkpt lat="49.861490" lon="4.884800">
						<ele>200</ele>
						<time>2025-12-07T12:59:25Z</time>
					</trkpt>
					<trkpt lat="49.861500" lon="4.884660">
						<ele>202</ele>
						<time>2025-12-07T12:59:29Z</time>
					</trkpt>
					<trkpt lat="49.861510" lon="4.884000">
						<ele>209</ele>
						<time>2025-12-07T12:59:51Z</time>
					</trkpt>
					<trkpt lat="49.861480" lon="4.883730">
						<ele>212</ele>
						<time>2025-12-07T12:59:59Z</time>
					</trkpt>
					<trkpt lat="49.861370" lon="4.883190">
						<ele>219</ele>
						<time>2025-12-07T13:00:18Z</time>
					</trkpt>
					<trkpt lat="49.861250" lon="4.882710">
						<ele>226</ele>
						<time>2025-12-07T13:00:34Z</time>
					</trkpt>
					<trkpt lat="49.861200" lon="4.882400">
						<ele>230</ele>
						<time>2025-12-07T13:00:45Z</time>
					</trkpt>
					<trkpt lat="49.861070" lon="4.881960">
						<ele>235</ele>
						<time>2025-12-07T13:01:00Z</time>
					</trkpt>
					<trkpt lat="49.860960" lon="4.881660">
						<ele>237</ele>
						<time>2025-12-07T13:01:11Z</time>
					</trkpt>
					<trkpt lat="49.860910" lon="4.881440">
						<ele>238</ele>
						<time>2025-12-07T13:01:19Z</time>
					</trkpt>
					<trkpt lat="49.860910" lon="4.881150">
						<ele>240</ele>
						<time>2025-12-07T13:01:28Z</time>
					</trkpt>
					<trkpt lat="49.860860" lon="4.880680">
						<ele>243</ele>
						<time>2025-12-07T13:01:44Z</time>
					</trkpt>
					<trkpt lat="49.860790" lon="4.880440">
						<ele>248</ele>
						<time>2025-12-07T13:01:52Z</time>
					</trkpt>
					<trkpt lat="49.860760" lon="4.880260">
						<ele>251</ele>
						<time>2025-12-07T13:01:58Z</time>
					</trkpt>
					<trkpt lat="49.860760" lon="4.880080">
						<ele>254</ele>
						<time>2025-12-07T13:02:04Z</time>
					</trkpt>
					<trkpt lat="49.860830" lon="4.879900">
						<ele>254</ele>
						<time>2025-12-07T13:02:11Z</time>
					</trkpt>
					<trkpt lat="49.860830" lon="4.879810">
						<ele>256</ele>
						<time>2025-12-07T13:02:14Z</time>
					</trkpt>
					<trkpt lat="49.860770" lon="4.879520">
						<ele>265</ele>
						<time>2025-12-07T13:02:23Z</time>
					</trkpt>
					<trkpt lat="49.860660" lon="4.879300">
						<ele>272</ele>
						<time>2025-12-07T13:02:32Z</time>
					</trkpt>
					<trkpt lat="49.860580" lon="4.879050">
						<ele>278</ele>
						<time>2025-12-07T13:02:41Z</time>
					</trkpt>
					<trkpt lat="49.860480" lon="4.878680">
						<ele>286</ele>
						<time>2025-12-07T13:02:54Z</time>
					</trkpt>
					<trkpt lat="49.860460" lon="4.878380">
						<ele>291</ele>
						<time>2025-12-07T13:03:04Z</time>
					</trkpt>
					<trkpt lat="49.860450" lon="4.877330">
						<ele>304</ele>
						<time>2025-12-07T13:03:38Z</time>
					</trkpt>
					<trkpt lat="49.860370" lon="4.876860">
						<ele>307</ele>
						<time>2025-12-07T13:03:54Z</time>
					</trkpt>
					<trkpt lat="49.860330" lon="4.876700">
						<ele>307</ele>
						<time>2025-12-07T13:03:59Z</time>
					</trkpt>
					<trkpt lat="49.860240" lon="4.876190">
						<ele>312</ele>
						<time>2025-12-07T13:04:16Z</time>
					</trkpt>
					<trkpt lat="49.860170" lon="4.875760">
						<ele>316</ele>
						<time>2025-12-07T13:04:31Z</time>
					</trkpt>
					<trkpt lat="49.860130" lon="4.875460">
						<ele>322</ele>
						<time>2025-12-07T13:04:40Z</time>
					</trkpt>
					<trkpt lat="49.860120" lon="4.875210">
						<ele>326</ele>
						<time>2025-12-07T13:04:48Z</time>
					</trkpt>
					<trkpt lat="49.860040" lon="4.875150">
						<ele>326</ele>
						<time>2025-12-07T13:04:53Z</time>
					</trkpt>
					<trkpt lat="49.859930" lon="4.874890">
						<ele>330</ele>
						<time>2025-12-07T13:05:03Z</time>
					</trkpt>
					<trkpt lat="49.859820" lon="4.874780">
						<ele>331</ele>
						<time>2025-12-07T13:05:09Z</time>
					</trkpt>
					<trkpt lat="49.859620" lon="4.874710">
						<ele>333</ele>
						<time>2025-12-07T13:05:20Z</time>
					</trkpt>
					<trkpt lat="49.859420" lon="4.874720">
						<ele>333</ele>
						<time>2025-12-07T13:05:30Z</time>
					</trkpt>
					<trkpt lat="49.859230" lon="4.874720">
						<ele>333</ele>
						<time>2025-12-07T13:05:39Z</time>
					</trkpt>
					<trkpt lat="49.858890" lon="4.874790">
						<ele>337</ele>
						<time>2025-12-07T13:05:56Z</time>
					</trkpt>
					<trkpt lat="49.858750" lon="4.874960">
						<ele>337</ele>
						<time>2025-12-07T13:06:05Z</time>
					</trkpt>
					<trkpt lat="49.858610" lon="4.875180">
						<ele>339</ele>
						<time>2025-12-07T13:06:15Z</time>
					</trkpt>
					<trkpt lat="49.858620" lon="4.875360">
						<ele>338</ele>
						<time>2025-12-07T13:06:21Z</time>
					</trkpt>
					<trkpt lat="49.859270" lon="4.876390">
						<ele>324</ele>
						<time>2025-12-07T13:07:08Z</time>
					</trkpt>
					<trkpt lat="49.859510" lon="4.877410">
						<ele>316</ele>
						<time>2025-12-07T13:07:43Z</time>
					</trkpt>
					<trkpt lat="49.859430" lon="4.878550">
						<ele>316</ele>
						<time>2025-12-07T13:08:20Z</time>
					</trkpt>
					<trkpt lat="49.859460" lon="4.879410">
						<ele>312</ele>
						<time>2025-12-07T13:08:47Z</time>
					</trkpt>
					<trkpt lat="49.859550" lon="4.880200">
						<ele>304</ele>
						<time>2025-12-07T13:09:13Z</time>
					</trkpt>
					<trkpt lat="49.859550" lon="4.881090">
						<ele>299</ele>
						<time>2025-12-07T13:09:42Z</time>
					</trkpt>
					<trkpt lat="49.859490" lon="4.881500">
						<ele>297</ele>
						<time>2025-12-07T13:09:56Z</time>
					</trkpt>
					<trkpt lat="49.859280" lon="4.882450">
						<ele>292</ele>
						<time>2025-12-07T13:10:28Z</time>
					</trkpt>
					<trkpt lat="49.859240" lon="4.882650">
						<ele>290</ele>
						<time>2025-12-07T13:10:35Z</time>
					</trkpt>
					<trkpt lat="49.858860" lon="4.883260">
						<ele>285</ele>
						<time>2025-12-07T13:11:02Z</time>
					</trkpt>
					<trkpt lat="49.858650" lon="4.883440">
						<ele>282</ele>
						<time>2025-12-07T13:11:14Z</time>
					</trkpt>
					<trkpt lat="49.858250" lon="4.883480">
						<ele>283</ele>
						<time>2025-12-07T13:11:34Z</time>
					</trkpt>
					<trkpt lat="49.858070" lon="4.883560">
						<ele>279</ele>
						<time>2025-12-07T13:11:44Z</time>
					</trkpt>
					<trkpt lat="49.858080" lon="4.883700">
						<ele>274</ele>
						<time>2025-12-07T13:11:48Z</time>
					</trkpt>
					<trkpt lat="49.857980" lon="4.883540">
						<ele>279</ele>
						<time>2025-12-07T13:11:55Z</time>
					</trkpt>
					<trkpt lat="49.857880" lon="4.883460">
						<ele>280</ele>
						<time>2025-12-07T13:12:01Z</time>
					</trkpt>
					<trkpt lat="49.857720" lon="4.883390">
						<ele>281</ele>
						<time>2025-12-07T13:12:09Z</time>
					</trkpt>
					<trkpt lat="49.857430" lon="4.883040">
						<ele>289</ele>
						<time>2025-12-07T13:12:28Z</time>
					</trkpt>
					<trkpt lat="49.857190" lon="4.882480">
						<ele>299</ele>
						<time>2025-12-07T13:12:49Z</time>
					</trkpt>
					<trkpt lat="49.857070" lon="4.882290">
						<ele>301</ele>
						<time>2025-12-07T13:12:58Z</time>
					</trkpt>
					<trkpt lat="49.856820" lon="4.882040">
						<ele>301</ele>
						<time>2025-12-07T13:13:13Z</time>
					</trkpt>
					<trkpt lat="49.856640" lon="4.881810">
						<ele>302</ele>
						<time>2025-12-07T13:13:24Z</time>
					</trkpt>
					<trkpt lat="49.856510" lon="4.881540">
						<ele>307</ele>
						<time>2025-12-07T13:13:35Z</time>
					</trkpt>
					<trkpt lat="49.856420" lon="4.881330">
						<ele>310</ele>
						<time>2025-12-07T13:13:43Z</time>
					</trkpt>
					<trkpt lat="49.856330" lon="4.881140">
						<ele>313</ele>
						<time>2025-12-07T13:13:51Z</time>
					</trkpt>
					<trkpt lat="49.856230" lon="4.880940">
						<ele>315</ele>
						<time>2025-12-07T13:13:59Z</time>
					</trkpt>
					<trkpt lat="49.856090" lon="4.880700">
						<ele>318</ele>
						<time>2025-12-07T13:14:10Z</time>
					</trkpt>
					<trkpt lat="49.855960" lon="4.880640">
						<ele>318</ele>
						<time>2025-12-07T13:14:16Z</time>
					</trkpt>
					<trkpt lat="49.855690" lon="4.880630">
						<ele>318</ele>
						<time>2025-12-07T13:14:30Z</time>
					</trkpt>
					<trkpt lat="49.855450" lon="4.880530">
						<ele>322</ele>
						<time>2025-12-07T13:14:42Z</time>
					</trkpt>
					<trkpt lat="49.855280" lon="4.880440">
						<ele>325</ele>
						<time>2025-12-07T13:14:51Z</time>
					</trkpt>
					<trkpt lat="49.854850" lon="4.880120">
						<ele>335</ele>
						<time>2025-12-07T13:15:15Z</time>
					</trkpt>
					<trkpt lat="49.854680" lon="4.879980">
						<ele>339</ele>
						<time>2025-12-07T13:15:25Z</time>
					</trkpt>
					<trkpt lat="49.854480" lon="4.879850">
						<ele>344</ele>
						<time>2025-12-07T13:15:36Z</time>
					</trkpt>
					<trkpt lat="49.854220" lon="4.879740">
						<ele>347</ele>
						<time>2025-12-07T13:15:49Z</time>
					</trkpt>
					<trkpt lat="49.853940" lon="4.879680">
						<ele>350</ele>
						<time>2025-12-07T13:16:03Z</time>
					</trkpt>
					<trkpt lat="49.853550" lon="4.879630">
						<ele>354</ele>
						<time>2025-12-07T13:16:23Z</time>
					</trkpt>
					<trkpt lat="49.853390" lon="4.879650">
						<ele>355</ele>
						<time>2025-12-07T13:16:31Z</time>
					</trkpt>
					<trkpt lat="49.853320" lon="4.879590">
						<ele>357</ele>
						<time>2025-12-07T13:16:35Z</time>
					</trkpt>
					<trkpt lat="49.853380" lon="4.879850">
						<ele>354</ele>
						<time>2025-12-07T13:16:44Z</time>
					</trkpt>
					<trkpt lat="49.853610" lon="4.880300">
						<ele>351</ele>
						<time>2025-12-07T13:17:02Z</time>
					</trkpt>
					<trkpt lat="49.853800" lon="4.880600">
						<ele>348</ele>
						<time>2025-12-07T13:17:16Z</time>
					</trkpt>
					<trkpt lat="49.854000" lon="4.880980">
						<ele>344</ele>
						<time>2025-12-07T13:17:32Z</time>
					</trkpt>
					<trkpt lat="49.854220" lon="4.881430">
						<ele>341</ele>
						<time>2025-12-07T13:17:50Z</time>
					</trkpt>
					<trkpt lat="49.854290" lon="4.881590">
						<ele>339</ele>
						<time>2025-12-07T13:17:56Z</time>
					</trkpt>
					<trkpt lat="49.854520" lon="4.882170">
						<ele>335</ele>
						<time>2025-12-07T13:18:18Z</time>
					</trkpt>
					<trkpt lat="49.854910" lon="4.882950">
						<ele>323</ele>
						<time>2025-12-07T13:18:50Z</time>
					</trkpt>
					<trkpt lat="49.854990" lon="4.883130">
						<ele>321</ele>
						<time>2025-12-07T13:18:57Z</time>
					</trkpt>
					<trkpt lat="49.855040" lon="4.883450">
						<ele>318</ele>
						<time>2025-12-07T13:19:08Z</time>
					</trkpt>
					<trkpt lat="49.855040" lon="4.883610">
						<ele>316</ele>
						<time>2025-12-07T13:19:13Z</time>
					</trkpt>
					<trkpt lat="49.854970" lon="4.884000">
						<ele>314</ele>
						<time>2025-12-07T13:19:26Z</time>
					</trkpt>
					<trkpt lat="49.854830" lon="4.884260">
						<ele>315</ele>
						<time>2025-12-07T13:19:37Z</time>
					</trkpt>
					<trkpt lat="49.854600" lon="4.884570">
						<ele>315</ele>
						<time>2025-12-07T13:19:52Z</time>
					</trkpt>
					<trkpt lat="49.854190" lon="4.885020">
						<ele>318</ele>
						<time>2025-12-07T13:20:17Z</time>
					</trkpt>
					<trkpt lat="49.853980" lon="4.885400">
						<ele>314</ele>
						<time>2025-12-07T13:20:33Z</time>
					</trkpt>
					<trkpt lat="49.853860" lon="4.885810">
						<ele>306</ele>
						<time>2025-12-07T13:20:48Z</time>
					</trkpt>
					<trkpt lat="49.853590" lon="4.886550">
						<ele>300</ele>
						<time>2025-12-07T13:21:15Z</time>
					</trkpt>
					<trkpt lat="49.853450" lon="4.886780">
						<ele>298</ele>
						<time>2025-12-07T13:21:26Z</time>
					</trkpt>
					<trkpt lat="49.853300" lon="4.886860">
						<ele>298</ele>
						<time>2025-12-07T13:21:34Z</time>
					</trkpt>
					<trkpt lat="49.853080" lon="4.886860">
						<ele>297</ele>
						<time>2025-12-07T13:21:45Z</time>
					</trkpt>
					<trkpt lat="49.852830" lon="4.886880">
						<ele>296</ele>
						<time>2025-12-07T13:21:57Z</time>
					</trkpt>
					<trkpt lat="49.852630" lon="4.886910">
						<ele>294</ele>
						<time>2025-12-07T13:22:07Z</time>
					</trkpt>
					<trkpt lat="49.852420" lon="4.886920">
						<ele>292</ele>
						<time>2025-12-07T13:22:18Z</time>
					</trkpt>
					<trkpt lat="49.852190" lon="4.886900">
						<ele>291</ele>
						<time>2025-12-07T13:22:29Z</time>
					</trkpt>
					<trkpt lat="49.851990" lon="4.886920">
						<ele>288</ele>
						<time>2025-12-07T13:22:39Z</time>
					</trkpt>
					<trkpt lat="49.851790" lon="4.886920">
						<ele>286</ele>
						<time>2025-12-07T13:22:49Z</time>
					</trkpt>
					<trkpt lat="49.851590" lon="4.886900">
						<ele>285</ele>
						<time>2025-12-07T13:22:59Z</time>
					</trkpt>
					<trkpt lat="49.851410" lon="4.886850">
						<ele>286</ele>
						<time>2025-12-07T13:23:08Z</time>
					</trkpt>
					<trkpt lat="49.851330" lon="4.886920">
						<ele>285</ele>
						<time>2025-12-07T13:23:13Z</time>
					</trkpt>
					<trkpt lat="49.851040" lon="4.886450">
						<ele>291</ele>
						<time>2025-12-07T13:23:34Z</time>
					</trkpt>
					<trkpt lat="49.850950" lon="4.886270">
						<ele>294</ele>
						<time>2025-12-07T13:23:41Z</time>
					</trkpt>
					<trkpt lat="49.850540" lon="4.885510">
						<ele>310</ele>
						<time>2025-12-07T13:24:13Z</time>
					</trkpt>
					<trkpt lat="49.850360" lon="4.885300">
						<ele>315</ele>
						<time>2025-12-07T13:24:25Z</time>
					</trkpt>
					<trkpt lat="49.849960" lon="4.884500">
						<ele>328</ele>
						<time>2025-12-07T13:24:57Z</time>
					</trkpt>
					<trkpt lat="49.849740" lon="4.884040">
						<ele>337</ele>
						<time>2025-12-07T13:25:16Z</time>
					</trkpt>
					<trkpt lat="49.849580" lon="4.883610">
						<ele>346</ele>
						<time>2025-12-07T13:25:32Z</time>
					</trkpt>
					<trkpt lat="49.849320" lon="4.883600">
						<ele>349</ele>
						<time>2025-12-07T13:25:45Z</time>
					</trkpt>
					<trkpt lat="49.848930" lon="4.883770">
						<ele>351</ele>
						<time>2025-12-07T13:26:05Z</time>
					</trkpt>
					<trkpt lat="49.848540" lon="4.883910">
						<ele>356</ele>
						<time>2025-12-07T13:26:25Z</time>
					</trkpt>
					<trkpt lat="49.847530" lon="4.883800">
						<ele>370</ele>
						<time>2025-12-07T13:27:16Z</time>
					</trkpt>
					<trkpt lat="49.847320" lon="4.883440">
						<ele>373</ele>
						<time>2025-12-07T13:27:31Z</time>
					</trkpt>
					<trkpt lat="49.847330" lon="4.883030">
						<ele>376</ele>
						<time>2025-12-07T13:27:45Z</time>
					</trkpt>
					<trkpt lat="49.847380" lon="4.882700">
						<ele>377</ele>
						<time>2025-12-07T13:27:56Z</time>
					</trkpt>
					<trkpt lat="49.847490" lon="4.882150">
						<ele>383</ele>
						<time>2025-12-07T13:28:14Z</time>
					</trkpt>
					<trkpt lat="49.847760" lon="4.881550">
						<ele>389</ele>
						<time>2025-12-07T13:28:38Z</time>
					</trkpt>
					<trkpt lat="49.848030" lon="4.881060">
						<ele>392</ele>
						<time>2025-12-07T13:28:59Z</time>
					</trkpt>
					<trkpt lat="49.848080" lon="4.880910">
						<ele>393</ele>
						<time>2025-12-07T13:29:04Z</time>
					</trkpt>
					<trkpt lat="49.848150" lon="4.880740">
						<ele>394</ele>
						<time>2025-12-07T13:29:11Z</time>
					</trkpt>
					<trkpt lat="49.848200" lon="4.880590">
						<ele>395</ele>
						<time>2025-12-07T13:29:16Z</time>
					</trkpt>
					<trkpt lat="49.848280" lon="4.880310">
						<ele>396</ele>
						<time>2025-12-07T13:29:26Z</time>
					</trkpt>
					<trkpt lat="49.848250" lon="4.880110">
						<ele>397</ele>
						<time>2025-12-07T13:29:33Z</time>
					</trkpt>
					<trkpt lat="49.848120" lon="4.879920">
						<ele>397</ele>
						<time>2025-12-07T13:29:41Z</time>
					</trkpt>
					<trkpt lat="49.847800" lon="4.879760">
						<ele>395</ele>
						<time>2025-12-07T13:29:58Z</time>
					</trkpt>
					<trkpt lat="49.847420" lon="4.879490">
						<ele>393</ele>
						<time>2025-12-07T13:30:19Z</time>
					</trkpt>
					<trkpt lat="49.846920" lon="4.879010">
						<ele>389</ele>
						<time>2025-12-07T13:30:49Z</time>
					</trkpt>
					<trkpt lat="49.846650" lon="4.878900">
						<ele>388</ele>
						<time>2025-12-07T13:31:03Z</time>
					</trkpt>
					<trkpt lat="49.846320" lon="4.878490">
						<ele>385</ele>
						<time>2025-12-07T13:31:24Z</time>
					</trkpt>
					<trkpt lat="49.846090" lon="4.878110">
						<ele>383</ele>
						<time>2025-12-07T13:31:41Z</time>
					</trkpt>
					<trkpt lat="49.846020" lon="4.878010">
						<ele>382</ele>
						<time>2025-12-07T13:31:45Z</time>
					</trkpt>
					<trkpt lat="49.846080" lon="4.877830">
						<ele>382</ele>
						<time>2025-12-07T13:31:52Z</time>
					</trkpt>
					<trkpt lat="49.846260" lon="4.877690">
						<ele>382</ele>
						<time>2025-12-07T13:32:02Z</time>
					</trkpt>
					<trkpt lat="49.846470" lon="4.877510">
						<ele>382</ele>
						<time>2025-12-07T13:32:14Z</time>
					</trkpt>
					<trkpt lat="49.846550" lon="4.877490">
						<ele>382</ele>
						<time>2025-12-07T13:32:18Z</time>
					</trkpt>
					<trkpt lat="49.846640" lon="4.877370">
						<ele>381</ele>
						<time>2025-12-07T13:32:24Z</time>
					</trkpt>
					<trkpt lat="49.846710" lon="4.877360">
						<ele>381</ele>
						<time>2025-12-07T13:32:27Z</time>
					</trkpt>
					<trkpt lat="49.846220" lon="4.877100">
						<ele>380</ele>
						<time>2025-12-07T13:32:53Z</time>
					</trkpt>
					<trkpt lat="49.845870" lon="4.876960">
						<ele>379</ele>
						<time>2025-12-07T13:33:11Z</time>
					</trkpt>
					<trkpt lat="49.846040" lon="4.876800">
						<ele>379</ele>
						<time>2025-12-07T13:33:21Z</time>
					</trkpt>
					<trkpt lat="49.846560" lon="4.876100">
						<ele>377</ele>
						<time>2025-12-07T13:33:56Z</time>
					</trkpt>
					<trkpt lat="49.846870" lon="4.875530">
						<ele>373</ele>
						<time>2025-12-07T13:34:20Z</time>
					</trkpt>
					<trkpt lat="49.847010" lon="4.875000">
						<ele>368</ele>
						<time>2025-12-07T13:34:38Z</time>
					</trkpt>
					<trkpt lat="49.847030" lon="4.874010">
						<ele>361</ele>
						<time>2025-12-07T13:35:10Z</time>
					</trkpt>
					<trkpt lat="49.847180" lon="4.873200">
						<ele>355</ele>
						<time>2025-12-07T13:35:38Z</time>
					</trkpt>
					<trkpt lat="49.847380" lon="4.872470">
						<ele>348</ele>
						<time>2025-12-07T13:36:03Z</time>
					</trkpt>
					<trkpt lat="49.847420" lon="4.871800">
						<ele>343</ele>
						<time>2025-12-07T13:36:25Z</time>
					</trkpt>
					<trkpt lat="49.847500" lon="4.870730">
						<ele>333</ele>
						<time>2025-12-07T13:37:00Z</time>
					</trkpt>
					<trkpt lat="49.847490" lon="4.869720">
						<ele>327</ele>
						<time>2025-12-07T13:37:32Z</time>
					</trkpt>
					<trkpt lat="49.847610" lon="4.868710">
						<ele>319</ele>
						<time>2025-12-07T13:38:05Z</time>
					</trkpt>
					<trkpt lat="49.847520" lon="4.868180">
						<ele>314</ele>
						<time>2025-12-07T13:38:23Z</time>
					</trkpt>
					<trkpt lat="49.847420" lon="4.867870">
						<ele>311</ele>
						<time>2025-12-07T13:38:34Z</time>
					</trkpt>
					<trkpt lat="49.847040" lon="4.867050">
						<ele>302</ele>
						<time>2025-12-07T13:39:07Z</time>
					</trkpt>
					<trkpt lat="49.846480" lon="4.866080">
						<ele>291</ele>
						<time>2025-12-07T13:39:49Z</time>
					</trkpt>
					<trkpt lat="49.846270" lon="4.865540">
						<ele>289</ele>
						<time>2025-12-07T13:40:09Z</time>
					</trkpt>
					<trkpt lat="49.846230" lon="4.864990">
						<ele>286</ele>
						<time>2025-12-07T13:40:27Z</time>
					</trkpt>
					<trkpt lat="49.846300" lon="4.864610">
						<ele>285</ele>
						<time>2025-12-07T13:40:40Z</time>
					</trkpt>
					<trkpt lat="49.846540" lon="4.864080">
						<ele>279</ele>
						<time>2025-12-07T13:41:01Z</time>
					</trkpt>
					<trkpt lat="49.846860" lon="4.862860">
						<ele>279</ele>
						<time>2025-12-07T13:41:43Z</time>
					</trkpt>
					<trkpt lat="49.846910" lon="4.862510">
						<ele>279</ele>
						<time>2025-12-07T13:41:55Z</time>
					</trkpt>
					<trkpt lat="49.846930" lon="4.862200">
						<ele>277</ele>
						<time>2025-12-07T13:42:05Z</time>
					</trkpt>
					<trkpt lat="49.847030" lon="4.861390">
						<ele>271</ele>
						<time>2025-12-07T13:42:31Z</time>
					</trkpt>
					<trkpt lat="49.847060" lon="4.860490">
						<ele>265</ele>
						<time>2025-12-07T13:43:01Z</time>
					</trkpt>
					<trkpt lat="49.847030" lon="4.859250">
						<ele>255</ele>
						<time>2025-12-07T13:43:41Z</time>
					</trkpt>
					<trkpt lat="49.847130" lon="4.858490">
						<ele>244</ele>
						<time>2025-12-07T13:44:06Z</time>
					</trkpt>
					<trkpt lat="49.847170" lon="4.858100">
						<ele>240</ele>
						<time>2025-12-07T13:44:18Z</time>
					</trkpt>
					<trkpt lat="49.847240" lon="4.857890">
						<ele>238</ele>
						<time>2025-12-07T13:44:26Z</time>
					</trkpt>
					<trkpt lat="49.847240" lon="4.857890">
						<ele>238</ele>
						<time>2025-12-07T13:44:26Z</time>
					</trkpt>
					<trkpt lat="49.847270" lon="4.857850">
						<ele>237</ele>
						<time>2025-12-07T13:44:28Z</time>
					</trkpt>
					<trkpt lat="49.847300" lon="4.857830">
						<ele>237</ele>
						<time>2025-12-07T13:44:30Z</time>
					</trkpt>
					<trkpt lat="49.847540" lon="4.857700">
						<ele>236</ele>
						<time>2025-12-07T13:44:42Z</time>
					</trkpt>
					<trkpt lat="49.847800" lon="4.857500">
						<ele>238</ele>
						<time>2025-12-07T13:44:57Z</time>
					</trkpt>
					<trkpt lat="49.848160" lon="4.857230">
						<ele>239</ele>
						<time>2025-12-07T13:45:17Z</time>
					</trkpt>
					<trkpt lat="49.848350" lon="4.856890">
						<ele>236</ele>
						<time>2025-12-07T13:45:31Z</time>
					</trkpt>
					<trkpt lat="49.848420" lon="4.856690">
						<ele>234</ele>
						<time>2025-12-07T13:45:39Z</time>
					</trkpt>
					<trkpt lat="49.848450" lon="4.856600">
						<ele>233</ele>
						<time>2025-12-07T13:45:42Z</time>
					</trkpt>
					<trkpt lat="49.848510" lon="4.856580">
						<ele>233</ele>
						<time>2025-12-07T13:45:45Z</time>
					</trkpt>
					<trkpt lat="49.848730" lon="4.856620">
						<ele>235</ele>
						<time>2025-12-07T13:45:56Z</time>
					</trkpt>
					<trkpt lat="49.848880" lon="4.856690">
						<ele>236</ele>
						<time>2025-12-07T13:46:04Z</time>
					</trkpt>
					<trkpt lat="49.848860" lon="4.856880">
						<ele>239</ele>
						<time>2025-12-07T13:46:10Z</time>
					</trkpt>
					<trkpt lat="49.848850" lon="4.857230">
						<ele>246</ele>
						<time>2025-12-07T13:46:21Z</time>
					</trkpt>
					<trkpt lat="49.848820" lon="4.857370">
						<ele>248</ele>
						<time>2025-12-07T13:46:26Z</time>
					</trkpt>
					<trkpt lat="49.848880" lon="4.857370">
						<ele>249</ele>
						<time>2025-12-07T13:46:29Z</time>
					</trkpt>
					<trkpt lat="49.848880" lon="4.857460">
						<ele>250</ele>
						<time>2025-12-07T13:46:32Z</time>
					</trkpt>
					<trkpt lat="49.848820" lon="4.857750">
						<ele>255</ele>
						<time>2025-12-07T13:46:42Z</time>
					</trkpt>
					<trkpt lat="49.848800" lon="4.857950">
						<ele>258</ele>
						<time>2025-12-07T13:46:49Z</time>
					</trkpt>
					<trkpt lat="49.848810" lon="4.858170">
						<ele>262</ele>
						<time>2025-12-07T13:46:56Z</time>
					</trkpt>
					<trkpt lat="49.848830" lon="4.858300">
						<ele>265</ele>
						<time>2025-12-07T13:47:00Z</time>
					</trkpt>
					<trkpt lat="49.848880" lon="4.858450">
						<ele>267</ele>
						<time>2025-12-07T13:47:05Z</time>
					</trkpt>
					<trkpt lat="49.848900" lon="4.858570">
						<ele>269</ele>
						<time>2025-12-07T13:47:09Z</time>
					</trkpt>
					<trkpt lat="49.848930" lon="4.858700">
						<ele>271</ele>
						<time>2025-12-07T13:47:14Z</time>
					</trkpt>
					<trkpt lat="49.848960" lon="4.858840">
						<ele>273</ele>
						<time>2025-12-07T13:47:19Z</time>
					</trkpt>
					<trkpt lat="49.849060" lon="4.858880">
						<ele>275</ele>
						<time>2025-12-07T13:47:24Z</time>
					</trkpt>
					<trkpt lat="49.849150" lon="4.859120">
						<ele>279</ele>
						<time>2025-12-07T13:47:33Z</time>
					</trkpt>
					<trkpt lat="49.849190" lon="4.859330">
						<ele>283</ele>
						<time>2025-12-07T13:47:40Z</time>
					</trkpt>
					<trkpt lat="49.849150" lon="4.859440">
						<ele>283</ele>
						<time>2025-12-07T13:47:44Z</time>
					</trkpt>
					<trkpt lat="49.849250" lon="4.859660">
						<ele>288</ele>
						<time>2025-12-07T13:47:53Z</time>
					</trkpt>
					<trkpt lat="49.849310" lon="4.859780">
						<ele>290</ele>
						<time>2025-12-07T13:47:57Z</time>
					</trkpt>
					<trkpt lat="49.849400" lon="4.859880">
						<ele>293</ele>
						<time>2025-12-07T13:48:03Z</time>
					</trkpt>
					<trkpt lat="49.849450" lon="4.860010">
						<ele>295</ele>
						<time>2025-12-07T13:48:08Z</time>
					</trkpt>
					<trkpt lat="49.849530" lon="4.860120">
						<ele>298</ele>
						<time>2025-12-07T13:48:13Z</time>
					</trkpt>
					<trkpt lat="49.849640" lon="4.860200">
						<ele>300</ele>
						<time>2025-12-07T13:48:19Z</time>
					</trkpt>
					<trkpt lat="49.849740" lon="4.860350">
						<ele>303</ele>
						<time>2025-12-07T13:48:26Z</time>
					</trkpt>
					<trkpt lat="49.849890" lon="4.860470">
						<ele>306</ele>
						<time>2025-12-07T13:48:35Z</time>
					</trkpt>
					<trkpt lat="49.850230" lon="4.860870">
						<ele>314</ele>
						<time>2025-12-07T13:48:56Z</time>
					</trkpt>
					<trkpt lat="49.850340" lon="4.860910">
						<ele>315</ele>
						<time>2025-12-07T13:49:02Z</time>
					</trkpt>
					<trkpt lat="49.850390" lon="4.860960">
						<ele>317</ele>
						<time>2025-12-07T13:49:05Z</time>
					</trkpt>
					<trkpt lat="49.850440" lon="4.860990">
						<ele>317</ele>
						<time>2025-12-07T13:49:07Z</time>
					</trkpt>
					<trkpt lat="49.850550" lon="4.861020">
						<ele>319</ele>
						<time>2025-12-07T13:49:13Z</time>
					</trkpt>
					<trkpt lat="49.850670" lon="4.861060">
						<ele>321</ele>
						<time>2025-12-07T13:49:19Z</time>
					</trkpt>
					<trkpt lat="49.850760" lon="4.861130">
						<ele>322</ele>
						<time>2025-12-07T13:49:24Z</time>
					</trkpt>
					<trkpt lat="49.850830" lon="4.861280">
						<ele>324</ele>
						<time>2025-12-07T13:49:30Z</time>
					</trkpt>
					<trkpt lat="49.850910" lon="4.861380">
						<ele>326</ele>
						<time>2025-12-07T13:49:35Z</time>
					</trkpt>
					<trkpt lat="49.850960" lon="4.861510">
						<ele>327</ele>
						<time>2025-12-07T13:49:40Z</time>
					</trkpt>
					<trkpt lat="49.851010" lon="4.861650">
						<ele>328</ele>
						<time>2025-12-07T13:49:45Z</time>
					</trkpt>
					<trkpt lat="49.851040" lon="4.861790">
						<ele>329</ele>
						<time>2025-12-07T13:49:50Z</time>
					</trkpt>
					<trkpt lat="49.851130" lon="4.862120">
						<ele>332</ele>
						<time>2025-12-07T13:50:02Z</time>
					</trkpt>
					<trkpt lat="49.851270" lon="4.862390">
						<ele>336</ele>
						<time>2025-12-07T13:50:13Z</time>
					</trkpt>
					<trkpt lat="49.851380" lon="4.862420">
						<ele>337</ele>
						<time>2025-12-07T13:50:18Z</time>
					</trkpt>
					<trkpt lat="49.851440" lon="4.862550">
						<ele>338</ele>
						<time>2025-12-07T13:50:24Z</time>
					</trkpt>
					<trkpt lat="49.851470" lon="4.862530">
						<ele>338</ele>
						<time>2025-12-07T13:50:25Z</time>
					</trkpt>
					<trkpt lat="49.851580" lon="4.862450">
						<ele>339</ele>
						<time>2025-12-07T13:50:31Z</time>
					</trkpt>
					<trkpt lat="49.851680" lon="4.862370">
						<ele>340</ele>
						<time>2025-12-07T13:50:37Z</time>
					</trkpt>
					<trkpt lat="49.851790" lon="4.862260">
						<ele>341</ele>
						<time>2025-12-07T13:50:43Z</time>
					</trkpt>
					<trkpt lat="49.851870" lon="4.862120">
						<ele>342</ele>
						<time>2025-12-07T13:50:50Z</time>
					</trkpt>
					<trkpt lat="49.851920" lon="4.862000">
						<ele>342</ele>
						<time>2025-12-07T13:50:54Z</time>
					</trkpt>
					<trkpt lat="49.851930" lon="4.861870">
						<ele>342</ele>
						<time>2025-12-07T13:50:58Z</time>
					</trkpt>
					<trkpt lat="49.852010" lon="4.861360">
						<ele>342</ele>
						<time>2025-12-07T13:51:15Z</time>
					</trkpt>
					<trkpt lat="49.852280" lon="4.860150">
						<ele>345</ele>
						<time>2025-12-07T13:51:57Z</time>
					</trkpt>
					<trkpt lat="49.852460" lon="4.859590">
						<ele>348</ele>
						<time>2025-12-07T13:52:17Z</time>
					</trkpt>
					<trkpt lat="49.852570" lon="4.859520">
						<ele>349</ele>
						<time>2025-12-07T13:52:23Z</time>
					</trkpt>
					<trkpt lat="49.852720" lon="4.859670">
						<ele>348</ele>
						<time>2025-12-07T13:52:32Z</time>
					</trkpt>
					<trkpt lat="49.852760" lon="4.859960">
						<ele>348</ele>
						<time>2025-12-07T13:52:41Z</time>
					</trkpt>
					<trkpt lat="49.852880" lon="4.859560">
						<ele>348</ele>
						<time>2025-12-07T13:52:55Z</time>
					</trkpt>
					<trkpt lat="49.853090" lon="4.859140">
						<ele>347</ele>
						<time>2025-12-07T13:53:13Z</time>
					</trkpt>
					<trkpt lat="49.853480" lon="4.858820">
						<ele>340</ele>
						<time>2025-12-07T13:53:35Z</time>
					</trkpt>
					<trkpt lat="49.853790" lon="4.858920">
						<ele>335</ele>
						<time>2025-12-07T13:53:51Z</time>
					</trkpt>
					<trkpt lat="49.854020" lon="4.859410">
						<ele>331</ele>
						<time>2025-12-07T13:54:10Z</time>
					</trkpt>
					<trkpt lat="49.854370" lon="4.860890">
						<ele>312</ele>
						<time>2025-12-07T13:55:01Z</time>
					</trkpt>
					<trkpt lat="49.854420" lon="4.861330">
						<ele>313</ele>
						<time>2025-12-07T13:55:15Z</time>
					</trkpt>
					<trkpt lat="49.854440" lon="4.861740">
						<ele>315</ele>
						<time>2025-12-07T13:55:29Z</time>
					</trkpt>
					<trkpt lat="49.854900" lon="4.862940">
						<ele>318</ele>
						<time>2025-12-07T13:56:14Z</time>
					</trkpt>
					<trkpt lat="49.855130" lon="4.863180">
						<ele>318</ele>
						<time>2025-12-07T13:56:28Z</time>
					</trkpt>
					<trkpt lat="49.855370" lon="4.863400">
						<ele>319</ele>
						<time>2025-12-07T13:56:41Z</time>
					</trkpt>
					<trkpt lat="49.856050" lon="4.864010">
						<ele>326</ele>
						<time>2025-12-07T13:57:21Z</time>
					</trkpt>
					<trkpt lat="49.856330" lon="4.864470">
						<ele>332</ele>
						<time>2025-12-07T13:57:41Z</time>
					</trkpt>
					<trkpt lat="49.857550" lon="4.865570">
						<ele>343</ele>
						<time>2025-12-07T13:58:52Z</time>
					</trkpt>
					<trkpt lat="49.857600" lon="4.865580">
						<ele>343</ele>
						<time>2025-12-07T13:58:54Z</time>
					</trkpt>
					<trkpt lat="49.857730" lon="4.865610">
						<ele>344</ele>
						<time>2025-12-07T13:59:01Z</time>
					</trkpt>
					<trkpt lat="49.857770" lon="4.865590">
						<ele>344</ele>
						<time>2025-12-07T13:59:03Z</time>
					</trkpt>
					<trkpt lat="49.857940" lon="4.865480">
						<ele>344</ele>
						<time>2025-12-07T13:59:12Z</time>
					</trkpt>
					<trkpt lat="49.858080" lon="4.865180">
						<ele>343</ele>
						<time>2025-12-07T13:59:24Z</time>
					</trkpt>
					<trkpt lat="49.858190" lon="4.864830">
						<ele>343</ele>
						<time>2025-12-07T13:59:37Z</time>
					</trkpt>
					<trkpt lat="49.858270" lon="4.864580">
						<ele>343</ele>
						<time>2025-12-07T13:59:46Z</time>
					</trkpt>
					<trkpt lat="49.858860" lon="4.862760">
						<ele>346</ele>
						<time>2025-12-07T14:00:51Z</time>
					</trkpt>
					<trkpt lat="49.859000" lon="4.862400">
						<ele>348</ele>
						<time>2025-12-07T14:01:05Z</time>
					</trkpt>
					<trkpt lat="49.859050" lon="4.862270">
						<ele>349</ele>
						<time>2025-12-07T14:01:10Z</time>
					</trkpt>
					<trkpt lat="49.859230" lon="4.861900">
						<ele>352</ele>
						<time>2025-12-07T14:01:25Z</time>
					</trkpt>
					<trkpt lat="49.859380" lon="4.861740">
						<ele>352</ele>
						<time>2025-12-07T14:01:34Z</time>
					</trkpt>
					<trkpt lat="49.859480" lon="4.861720">
						<ele>353</ele>
						<time>2025-12-07T14:01:39Z</time>
					</trkpt>
					<trkpt lat="49.859510" lon="4.861750">
						<ele>353</ele>
						<time>2025-12-07T14:01:41Z</time>
					</trkpt>
					<trkpt lat="49.859510" lon="4.861070">
						<ele>351</ele>
						<time>2025-12-07T14:02:03Z</time>
					</trkpt>
					<trkpt lat="49.859500" lon="4.860760">
						<ele>350</ele>
						<time>2025-12-07T14:02:13Z</time>
					</trkpt>
					<trkpt lat="49.859510" lon="4.860660">
						<ele>350</ele>
						<time>2025-12-07T14:02:16Z</time>
					</trkpt>
					<trkpt lat="49.859530" lon="4.860360">
						<ele>348</ele>
						<time>2025-12-07T14:02:26Z</time>
					</trkpt>
					<trkpt lat="49.859650" lon="4.859880">
						<ele>345</ele>
						<time>2025-12-07T14:02:42Z</time>
					</trkpt>
					<trkpt lat="49.859680" lon="4.859770">
						<ele>344</ele>
						<time>2025-12-07T14:02:46Z</time>
					</trkpt>
					<trkpt lat="49.859900" lon="4.859050">
						<ele>339</ele>
						<time>2025-12-07T14:03:12Z</time>
					</trkpt>
					<trkpt lat="49.860050" lon="4.858600">
						<ele>335</ele>
						<time>2025-12-07T14:03:28Z</time>
					</trkpt>
					<trkpt lat="49.860290" lon="4.858190">
						<ele>329</ele>
						<time>2025-12-07T14:03:46Z</time>
					</trkpt>
					<trkpt lat="49.860390" lon="4.858040">
						<ele>327</ele>
						<time>2025-12-07T14:03:53Z</time>
					</trkpt>
					<trkpt lat="49.860450" lon="4.857830">
						<ele>324</ele>
						<time>2025-12-07T14:04:01Z</time>
					</trkpt>
					<trkpt lat="49.860540" lon="4.857620">
						<ele>321</ele>
						<time>2025-12-07T14:04:09Z</time>
					</trkpt>
					<trkpt lat="49.860560" lon="4.857600">
						<ele>321</ele>
						<time>2025-12-07T14:04:10Z</time>
					</trkpt>
					<trkpt lat="49.860950" lon="4.857170">
						<ele>311</ele>
						<time>2025-12-07T14:04:34Z</time>
					</trkpt>
					<trkpt lat="49.861280" lon="4.856700">
						<ele>299</ele>
						<time>2025-12-07T14:04:56Z</time>
					</trkpt>
					<trkpt lat="49.861460" lon="4.856210">
						<ele>291</ele>
						<time>2025-12-07T14:05:14Z</time>
					</trkpt>
					<trkpt lat="49.861510" lon="4.855650">
						<ele>282</ele>
						<time>2025-12-07T14:05:33Z</time>
					</trkpt>
					<trkpt lat="49.861470" lon="4.854970">
						<ele>269</ele>
						<time>2025-12-07T14:05:55Z</time>
					</trkpt>
					<trkpt lat="49.861480" lon="4.854610">
						<ele>261</ele>
						<time>2025-12-07T14:06:06Z</time>
					</trkpt>
					<trkpt lat="49.861520" lon="4.854290">
						<ele>254</ele>
						<time>2025-12-07T14:06:17Z</time>
					</trkpt>
					<trkpt lat="49.861670" lon="4.854020">
						<ele>247</ele>
						<time>2025-12-07T14:06:28Z</time>
					</trkpt>
					<trkpt lat="49.861870" lon="4.853830">
						<ele>242</ele>
						<time>2025-12-07T14:06:40Z</time>
					</trkpt>
					<trkpt lat="49.862380" lon="4.853470">
						<ele>233</ele>
						<time>2025-12-07T14:07:08Z</time>
					</trkpt>
					<trkpt lat="49.863700" lon="4.852050">
						<ele>193</ele>
						<time>2025-12-07T14:08:28Z</time>
					</trkpt>
					<trkpt lat="49.863920" lon="4.852040">
						<ele>193</ele>
						<time>2025-12-07T14:08:39Z</time>
					</trkpt>
					<trkpt lat="49.864090" lon="4.852080">
						<ele>195</ele>
						<time>2025-12-07T14:08:48Z</time>
					</trkpt>
					<trkpt lat="49.864290" lon="4.852010">
						<ele>191</ele>
						<time>2025-12-07T14:08:58Z</time>
					</trkpt>
					<trkpt lat="49.864480" lon="4.852040">
						<ele>188</ele>
						<time>2025-12-07T14:09:08Z</time>
					</trkpt>
					<trkpt lat="49.864660" lon="4.852030">
						<ele>185</ele>
						<time>2025-12-07T14:09:17Z</time>
					</trkpt>
					<trkpt lat="49.864890" lon="4.852040">
						<ele>181</ele>
						<time>2025-12-07T14:09:28Z</time>
					</trkpt>
					<trkpt lat="49.864920" lon="4.852110">
						<ele>182</ele>
						<time>2025-12-07T14:09:31Z</time>
					</trkpt>
					<trkpt lat="49.864920" lon="4.852230">
						<ele>183</ele>
						<time>2025-12-07T14:09:35Z</time>
					</trkpt>
					<trkpt lat="49.864770" lon="4.852530">
						<ele>190</ele>
						<time>2025-12-07T14:09:47Z</time>
					</trkpt>
					<trkpt lat="49.864750" lon="4.852930">
						<ele>191</ele>
						<time>2025-12-07T14:10:00Z</time>
					</trkpt>
					<trkpt lat="49.864340" lon="4.854150">
						<ele>210</ele>
						<time>2025-12-07T14:10:45Z</time>
					</trkpt>
					<trkpt lat="49.864300" lon="4.854260">
						<ele>211</ele>
						<time>2025-12-07T14:10:49Z</time>
					</trkpt>
					<trkpt lat="49.864210" lon="4.854590">
						<ele>212</ele>
						<time>2025-12-07T14:11:00Z</time>
					</trkpt>
					<trkpt lat="49.864170" lon="4.854950">
						<ele>209</ele>
						<time>2025-12-07T14:11:12Z</time>
					</trkpt>
					<trkpt lat="49.864090" lon="4.855140">
						<ele>212</ele>
						<time>2025-12-07T14:11:19Z</time>
					</trkpt>
					<trkpt lat="49.863920" lon="4.855620">
						<ele>217</ele>
						<time>2025-12-07T14:11:37Z</time>
					</trkpt>
					<trkpt lat="49.863810" lon="4.855780">
						<ele>219</ele>
						<time>2025-12-07T14:11:45Z</time>
					</trkpt>
					<trkpt lat="49.863630" lon="4.855960">
						<ele>226</ele>
						<time>2025-12-07T14:11:55Z</time>
					</trkpt>
					<trkpt lat="49.863400" lon="4.856030">
						<ele>234</ele>
						<time>2025-12-07T14:12:07Z</time>
					</trkpt>
					<trkpt lat="49.863350" lon="4.856110">
						<ele>237</ele>
						<time>2025-12-07T14:12:11Z</time>
					</trkpt>
					<trkpt lat="49.863320" lon="4.856290">
						<ele>239</ele>
						<time>2025-12-07T14:12:17Z</time>
					</trkpt>
					<trkpt lat="49.863280" lon="4.856450">
						<ele>242</ele>
						<time>2025-12-07T14:12:22Z</time>
					</trkpt>
					<trkpt lat="49.863270" lon="4.856590">
						<ele>243</ele>
						<time>2025-12-07T14:12:27Z</time>
					</trkpt>
					<trkpt lat="49.863090" lon="4.856760">
						<ele>250</ele>
						<time>2025-12-07T14:12:37Z</time>
					</trkpt>
					<trkpt lat="49.863190" lon="4.856970">
						<ele>251</ele>
						<time>2025-12-07T14:12:46Z</time>
					</trkpt>
					<trkpt lat="49.863430" lon="4.857130">
						<ele>248</ele>
						<time>2025-12-07T14:12:59Z</time>
					</trkpt>
					<trkpt lat="49.863700" lon="4.857390">
						<ele>244</ele>
						<time>2025-12-07T14:13:15Z</time>
					</trkpt>
					<trkpt lat="49.863740" lon="4.857500">
						<ele>245</ele>
						<time>2025-12-07T14:13:19Z</time>
					</trkpt>
					<trkpt lat="49.863680" lon="4.857570">
						<ele>248</ele>
						<time>2025-12-07T14:13:22Z</time>
					</trkpt>
					<trkpt lat="49.863550" lon="4.857610">
						<ele>253</ele>
						<time>2025-12-07T14:13:29Z</time>
					</trkpt>
					<trkpt lat="49.863330" lon="4.857560">
						<ele>260</ele>
						<time>2025-12-07T14:13:40Z</time>
					</trkpt>
					<trkpt lat="49.863180" lon="4.857560">
						<ele>263</ele>
						<time>2025-12-07T14:13:48Z</time>
					</trkpt>
					<trkpt lat="49.863040" lon="4.857700">
						<ele>268</ele>
						<time>2025-12-07T14:13:56Z</time>
					</trkpt>
					<trkpt lat="49.863010" lon="4.857770">
						<ele>270</ele>
						<time>2025-12-07T14:13:59Z</time>
					</trkpt>
					<trkpt lat="49.863030" lon="4.857880">
						<ele>271</ele>
						<time>2025-12-07T14:14:02Z</time>
					</trkpt>
					<trkpt lat="49.863250" lon="4.858060">
						<ele>271</ele>
						<time>2025-12-07T14:14:15Z</time>
					</trkpt>
					<trkpt lat="49.863280" lon="4.858270">
						<ele>274</ele>
						<time>2025-12-07T14:14:22Z</time>
					</trkpt>
					<trkpt lat="49.863260" lon="4.858440">
						<ele>277</ele>
						<time>2025-12-07T14:14:27Z</time>
					</trkpt>
					<trkpt lat="49.863160" lon="4.858580">
						<ele>281</ele>
						<time>2025-12-07T14:14:34Z</time>
					</trkpt>
					<trkpt lat="49.863060" lon="4.858580">
						<ele>283</ele>
						<time>2025-12-07T14:14:39Z</time>
					</trkpt>
					<trkpt lat="49.863030" lon="4.858640">
						<ele>284</ele>
						<time>2025-12-07T14:14:42Z</time>
					</trkpt>
					<trkpt lat="49.863050" lon="4.858790">
						<ele>286</ele>
						<time>2025-12-07T14:14:47Z</time>
					</trkpt>
					<trkpt lat="49.863090" lon="4.858930">
						<ele>288</ele>
						<time>2025-12-07T14:14:51Z</time>
					</trkpt>
					<trkpt lat="49.863110" lon="4.859040">
						<ele>289</ele>
						<time>2025-12-07T14:14:55Z</time>
					</trkpt>
					<trkpt lat="49.863070" lon="4.859190">
						<ele>292</ele>
						<time>2025-12-07T14:15:00Z</time>
					</trkpt>
					<trkpt lat="49.863010" lon="4.859250">
						<ele>294</ele>
						<time>2025-12-07T14:15:04Z</time>
					</trkpt>
					<trkpt lat="49.862800" lon="4.859310">
						<ele>299</ele>
						<time>2025-12-07T14:15:15Z</time>
					</trkpt>
					<trkpt lat="49.862630" lon="4.859430">
						<ele>304</ele>
						<time>2025-12-07T14:15:24Z</time>
					</trkpt>
					<trkpt lat="49.862600" lon="4.859540">
						<ele>306</ele>
						<time>2025-12-07T14:15:28Z</time>
					</trkpt>
					<trkpt lat="49.862550" lon="4.859620">
						<ele>309</ele>
						<time>2025-12-07T14:15:31Z</time>
					</trkpt>
					<trkpt lat="49.862340" lon="4.859730">
						<ele>313</ele>
						<time>2025-12-07T14:15:43Z</time>
					</trkpt>
					<trkpt lat="49.862120" lon="4.859880">
						<ele>316</ele>
						<time>2025-12-07T14:15:55Z</time>
					</trkpt>
					<trkpt lat="49.862060" lon="4.859920">
						<ele>318</ele>
						<time>2025-12-07T14:15:58Z</time>
					</trkpt>
					<trkpt lat="49.861890" lon="4.859970">
						<ele>320</ele>
						<time>2025-12-07T14:16:06Z</time>
					</trkpt>
					<trkpt lat="49.861760" lon="4.860200">
						<ele>323</ele>
						<time>2025-12-07T14:16:16Z</time>
					</trkpt>
					<trkpt lat="49.861660" lon="4.860740">
						<ele>329</ele>
						<time>2025-12-07T14:16:34Z</time>
					</trkpt>
					<trkpt lat="49.861660" lon="4.860930">
						<ele>330</ele>
						<time>2025-12-07T14:16:41Z</time>
					</trkpt>
					<trkpt lat="49.861700" lon="4.861230">
						<ele>329</ele>
						<time>2025-12-07T14:16:50Z</time>
					</trkpt>
					<trkpt lat="49.861690" lon="4.861450">
						<ele>329</ele>
						<time>2025-12-07T14:16:58Z</time>
					</trkpt>
					<trkpt lat="49.861700" lon="4.861680">
						<ele>329</ele>
						<time>2025-12-07T14:17:05Z</time>
					</trkpt>
					<trkpt lat="49.861750" lon="4.862010">
						<ele>329</ele>
						<time>2025-12-07T14:17:16Z</time>
					</trkpt>
					<trkpt lat="49.861940" lon="4.862810">
						<ele>323</ele>
						<time>2025-12-07T14:17:43Z</time>
					</trkpt>
					<trkpt lat="49.861990" lon="4.863250">
						<ele>321</ele>
						<time>2025-12-07T14:17:58Z</time>
					</trkpt>
					<trkpt lat="49.862050" lon="4.863980">
						<ele>326</ele>
						<time>2025-12-07T14:18:22Z</time>
					</trkpt>
					<trkpt lat="49.862180" lon="4.864240">
						<ele>326</ele>
						<time>2025-12-07T14:18:32Z</time>
					</trkpt>
					<trkpt lat="49.862440" lon="4.864380">
						<ele>320</ele>
						<time>2025-12-07T14:18:46Z</time>
					</trkpt>
					<trkpt lat="49.863870" lon="4.864580">
						<ele>308</ele>
						<time>2025-12-07T14:19:58Z</time>
					</trkpt>
					<trkpt lat="49.863990" lon="4.864620">
						<ele>308</ele>
						<time>2025-12-07T14:20:04Z</time>
					</trkpt>
					<trkpt lat="49.864010" lon="4.864630">
						<ele>308</ele>
						<time>2025-12-07T14:20:05Z</time>
					</trkpt>
					<trkpt lat="49.864130" lon="4.864730">
						<ele>309</ele>
						<time>2025-12-07T14:20:12Z</time>
					</trkpt>
					<trkpt lat="49.864340" lon="4.865040">
						<ele>310</ele>
						<time>2025-12-07T14:20:26Z</time>
					</trkpt>
					<trkpt lat="49.864560" lon="4.865500">
						<ele>309</ele>
						<time>2025-12-07T14:20:45Z</time>
					</trkpt>
					<trkpt lat="49.864670" lon="4.865960">
						<ele>311</ele>
						<time>2025-12-07T14:21:01Z</time>
					</trkpt>
					<trkpt lat="49.864770" lon="4.866760">
						<ele>315</ele>
						<time>2025-12-07T14:21:27Z</time>
					</trkpt>
					<trkpt lat="49.864930" lon="4.867340">
						<ele>317</ele>
						<time>2025-12-07T14:21:47Z</time>
					</trkpt>
					<trkpt lat="49.865160" lon="4.867690">
						<ele>316</ele>
						<time>2025-12-07T14:22:03Z</time>
					</trkpt>
					<trkpt lat="49.865450" lon="4.868090">
						<ele>316</ele>
						<time>2025-12-07T14:22:23Z</time>
					</trkpt>
					<trkpt lat="49.865680" lon="4.868350">
						<ele>316</ele>
						<time>2025-12-07T14:22:37Z</time>
					</trkpt>
					<trkpt lat="49.865880" lon="4.868540">
						<ele>315</ele>
						<time>2025-12-07T14:22:49Z</time>
					</trkpt>
					<trkpt lat="49.866130" lon="4.868860">
						<ele>316</ele>
						<time>2025-12-07T14:23:05Z</time>
					</trkpt>
					<trkpt lat="49.866340" lon="4.869010">
						<ele>315</ele>
						<time>2025-12-07T14:23:17Z</time>
					</trkpt>
					<trkpt lat="49.866500" lon="4.869260">
						<ele>316</ele>
						<time>2025-12-07T14:23:28Z</time>
					</trkpt>
					<trkpt lat="49.866640" lon="4.869560">
						<ele>313</ele>
						<time>2025-12-07T14:23:40Z</time>
					</trkpt>
					<trkpt lat="49.866690" lon="4.869820">
						<ele>313</ele>
						<time>2025-12-07T14:23:49Z</time>
					</trkpt>
					<trkpt lat="49.866370" lon="4.869900">
						<ele>319</ele>
						<time>2025-12-07T14:24:05Z</time>
					</trkpt>
					<trkpt lat="49.866180" lon="4.869970">
						<ele>323</ele>
						<time>2025-12-07T14:24:15Z</time>
					</trkpt>
					<trkpt lat="49.865980" lon="4.870070">
						<ele>327</ele>
						<time>2025-12-07T14:24:25Z</time>
					</trkpt>
					<trkpt lat="49.865840" lon="4.870150">
						<ele>329</ele>
						<time>2025-12-07T14:24:33Z</time>
					</trkpt>
					<trkpt lat="49.865480" lon="4.870250">
						<ele>336</ele>
						<time>2025-12-07T14:24:51Z</time>
					</trkpt>
					<trkpt lat="49.865280" lon="4.870220">
						<ele>340</ele>
						<time>2025-12-07T14:25:01Z</time>
					</trkpt>
					<trkpt lat="49.865110" lon="4.870310">
						<ele>343</ele>
						<time>2025-12-07T14:25:10Z</time>
					</trkpt>
					<trkpt lat="49.865050" lon="4.870360">
						<ele>344</ele>
						<time>2025-12-07T14:25:13Z</time>
					</trkpt>
					<trkpt lat="49.864870" lon="4.870440">
						<ele>348</ele>
						<time>2025-12-07T14:25:23Z</time>
					</trkpt>
					<trkpt lat="49.864810" lon="4.870430">
						<ele>349</ele>
						<time>2025-12-07T14:25:26Z</time>
					</trkpt>
					<trkpt lat="49.864730" lon="4.870470">
						<ele>350</ele>
						<time>2025-12-07T14:25:30Z</time>
					</trkpt>
					<trkpt lat="49.864580" lon="4.870480">
						<ele>353</ele>
						<time>2025-12-07T14:25:38Z</time>
					</trkpt>
					<trkpt lat="49.864460" lon="4.870450">
						<ele>355</ele>
						<time>2025-12-07T14:25:44Z</time>
					</trkpt>
					<trkpt lat="49.864320" lon="4.870400">
						<ele>358</ele>
						<time>2025-12-07T14:25:51Z</time>
					</trkpt>
					<trkpt lat="49.864100" lon="4.870170">
						<ele>362</ele>
						<time>2025-12-07T14:26:04Z</time>
					</trkpt>
					<trkpt lat="49.863870" lon="4.869880">
						<ele>363</ele>
						<time>2025-12-07T14:26:19Z</time>
					</trkpt>
					<trkpt lat="49.863410" lon="4.868940">
						<ele>367</ele>
						<time>2025-12-07T14:26:57Z</time>
					</trkpt>
					<trkpt lat="49.863230" lon="4.868720">
						<ele>368</ele>
						<time>2025-12-07T14:27:08Z</time>
					</trkpt>
					<trkpt lat="49.863010" lon="4.868490">
						<ele>368</ele>
						<time>2025-12-07T14:27:22Z</time>
					</trkpt>
					<trkpt lat="49.862590" lon="4.868240">
						<ele>369</ele>
						<time>2025-12-07T14:27:44Z</time>
					</trkpt>
					<trkpt lat="49.862240" lon="4.868070">
						<ele>370</ele>
						<time>2025-12-07T14:28:03Z</time>
					</trkpt>
					<trkpt lat="49.862130" lon="4.868010">
						<ele>370</ele>
						<time>2025-12-07T14:28:08Z</time>
					</trkpt>
					<trkpt lat="49.861820" lon="4.867890">
						<ele>371</ele>
						<time>2025-12-07T14:28:24Z</time>
					</trkpt>
					<trkpt lat="49.861560" lon="4.867890">
						<ele>373</ele>
						<time>2025-12-07T14:28:37Z</time>
					</trkpt>
					<trkpt lat="49.860860" lon="4.868310">
						<ele>379</ele>
						<time>2025-12-07T14:29:15Z</time>
					</trkpt>
					<trkpt lat="49.860910" lon="4.868690">
						<ele>377</ele>
						<time>2025-12-07T14:29:27Z</time>
					</trkpt>
					<trkpt lat="49.861460" lon="4.871230">
						<ele>370</ele>
						<time>2025-12-07T14:30:54Z</time>
					</trkpt>
					<trkpt lat="49.861480" lon="4.871400">
						<ele>370</ele>
						<time>2025-12-07T14:31:00Z</time>
					</trkpt>
					<trkpt lat="49.861420" lon="4.871630">
						<ele>371</ele>
						<time>2025-12-07T14:31:08Z</time>
					</trkpt>
					<trkpt lat="49.861380" lon="4.871940">
						<ele>370</ele>
						<time>2025-12-07T14:31:18Z</time>
					</trkpt>
					<trkpt lat="49.861520" lon="4.872910">
						<ele>366</ele>
						<time>2025-12-07T14:31:50Z</time>
					</trkpt>
					<trkpt lat="49.861540" lon="4.873100">
						<ele>365</ele>
						<time>2025-12-07T14:31:56Z</time>
					</trkpt>
					<trkpt lat="49.861650" lon="4.873660">
						<ele>360</ele>
						<time>2025-12-07T14:32:15Z</time>
					</trkpt>
					<trkpt lat="49.861660" lon="4.873980">
						<ele>358</ele>
						<time>2025-12-07T14:32:25Z</time>
					</trkpt>
					<trkpt lat="49.861630" lon="4.874210">
						<ele>355</ele>
						<time>2025-12-07T14:32:33Z</time>
					</trkpt>
					<trkpt lat="49.861560" lon="4.874480">
						<ele>352</ele>
						<time>2025-12-07T14:32:42Z</time>
					</trkpt>
					<trkpt lat="49.861410" lon="4.874820">
						<ele>348</ele>
						<time>2025-12-07T14:32:55Z</time>
					</trkpt>
					<trkpt lat="49.861380" lon="4.874940">
						<ele>346</ele>
						<time>2025-12-07T14:33:00Z</time>
					</trkpt>
					<trkpt lat="49.861340" lon="4.875490">
						<ele>338</ele>
						<time>2025-12-07T14:33:17Z</time>
					</trkpt>
					<trkpt lat="49.861380" lon="4.876060">
						<ele>330</ele>
						<time>2025-12-07T14:33:36Z</time>
					</trkpt>
					<trkpt lat="49.861430" lon="4.876290">
						<ele>328</ele>
						<time>2025-12-07T14:33:44Z</time>
					</trkpt>
					<trkpt lat="49.861700" lon="4.877710">
						<ele>319</ele>
						<time>2025-12-07T14:34:32Z</time>
					</trkpt>
					<trkpt lat="49.861800" lon="4.877810">
						<ele>316</ele>
						<time>2025-12-07T14:34:37Z</time>
					</trkpt>
					<trkpt lat="49.861910" lon="4.877870">
						<ele>313</ele>
						<time>2025-12-07T14:34:43Z</time>
					</trkpt>
					<trkpt lat="49.861980" lon="4.877880">
						<ele>312</ele>
						<time>2025-12-07T14:34:47Z</time>
					</trkpt>
					<trkpt lat="49.862000" lon="4.877940">
						<ele>312</ele>
						<time>2025-12-07T14:34:49Z</time>
					</trkpt>
					<trkpt lat="49.862000" lon="4.877950">
						<ele>311</ele>
						<time>2025-12-07T14:34:49Z</time>
					</trkpt>
					<trkpt lat="49.862170" lon="4.878390">
						<ele>307</ele>
						<time>2025-12-07T14:35:06Z</time>
					</trkpt>
					<trkpt lat="49.862260" lon="4.878550">
						<ele>306</ele>
						<time>2025-12-07T14:35:13Z</time>
					</trkpt>
					<trkpt lat="49.862380" lon="4.878870">
						<ele>304</ele>
						<time>2025-12-07T14:35:25Z</time>
					</trkpt>
					<trkpt lat="49.862500" lon="4.879190">
						<ele>304</ele>
						<time>2025-12-07T14:35:37Z</time>
					</trkpt>
					<trkpt lat="49.862580" lon="4.879300">
						<ele>297</ele>
						<time>2025-12-07T14:35:42Z</time>
					</trkpt>
					<trkpt lat="49.862620" lon="4.879410">
						<ele>293</ele>
						<time>2025-12-07T14:35:46Z</time>
					</trkpt>
					<trkpt lat="49.862670" lon="4.879480">
						<ele>289</ele>
						<time>2025-12-07T14:35:49Z</time>
					</trkpt>
					<trkpt lat="49.862720" lon="4.879530">
						<ele>286</ele>
						<time>2025-12-07T14:35:52Z</time>
					</trkpt>
					<trkpt lat="49.862730" lon="4.879560">
						<ele>284</ele>
						<time>2025-12-07T14:35:53Z</time>
					</trkpt>
					<trkpt lat="49.862740" lon="4.879600">
						<ele>283</ele>
						<time>2025-12-07T14:35:55Z</time>
					</trkpt>
					<trkpt lat="49.862690" lon="4.879620">
						<ele>286</ele>
						<time>2025-12-07T14:35:57Z</time>
					</trkpt>
					<trkpt lat="49.862660" lon="4.879650">
						<ele>287</ele>
						<time>2025-12-07T14:35:59Z</time>
					</trkpt>
					<trkpt lat="49.862570" lon="4.879660">
						<ele>292</ele>
						<time>2025-12-07T14:36:04Z</time>
					</trkpt>
					<trkpt lat="49.862490" lon="4.879610">
						<ele>297</ele>
						<time>2025-12-07T14:36:08Z</time>
					</trkpt>
					<trkpt lat="49.862400" lon="4.879520">
						<ele>297</ele>
						<time>2025-12-07T14:36:13Z</time>
					</trkpt>
					<trkpt lat="49.862350" lon="4.879430">
						<ele>297</ele>
						<time>2025-12-07T14:36:17Z</time>
					</trkpt>
					<trkpt lat="49.862280" lon="4.879420">
						<ele>296</ele>
						<time>2025-12-07T14:36:21Z</time>
					</trkpt>
					<trkpt lat="49.862280" lon="4.879530">
						<ele>294</ele>
						<time>2025-12-07T14:36:24Z</time>
					</trkpt>
					<trkpt lat="49.862320" lon="4.879750">
						<ele>291</ele>
						<time>2025-12-07T14:36:32Z</time>
					</trkpt>
					<trkpt lat="49.862370" lon="4.879890">
						<ele>290</ele>
						<time>2025-12-07T14:36:37Z</time>
					</trkpt>
					<trkpt lat="49.862380" lon="4.880050">
						<ele>287</ele>
						<time>2025-12-07T14:36:42Z</time>
					</trkpt>
					<trkpt lat="49.862480" lon="4.880490">
						<ele>281</ele>
						<time>2025-12-07T14:36:57Z</time>
					</trkpt>
					<trkpt lat="49.862480" lon="4.880610">
						<ele>279</ele>
						<time>2025-12-07T14:37:01Z</time>
					</trkpt>
					<trkpt lat="49.862490" lon="4.880670">
						<ele>278</ele>
						<time>2025-12-07T14:37:03Z</time>
					</trkpt>
					<trkpt lat="49.862460" lon="4.880700">
						<ele>277</ele>
						<time>2025-12-07T14:37:05Z</time>
					</trkpt>
					<trkpt lat="49.862430" lon="4.880670">
						<ele>276</ele>
						<time>2025-12-07T14:37:07Z</time>
					</trkpt>
					<trkpt lat="49.862400" lon="4.880670">
						<ele>276</ele>
						<time>2025-12-07T14:37:08Z</time>
					</trkpt>
					<trkpt lat="49.862300" lon="4.880610">
						<ele>274</ele>
						<time>2025-12-07T14:37:13Z</time>
					</trkpt>
					<trkpt lat="49.862200" lon="4.880590">
						<ele>272</ele>
						<time>2025-12-07T14:37:18Z</time>
					</trkpt>
					<trkpt lat="49.862140" lon="4.880660">
						<ele>269</ele>
						<time>2025-12-07T14:37:22Z</time>
					</trkpt>
					<trkpt lat="49.862140" lon="4.880840">
						<ele>266</ele>
						<time>2025-12-07T14:37:28Z</time>
					</trkpt>
					<trkpt lat="49.862180" lon="4.881000">
						<ele>264</ele>
						<time>2025-12-07T14:37:34Z</time>
					</trkpt>
					<trkpt lat="49.862180" lon="4.881210">
						<ele>260</ele>
						<time>2025-12-07T14:37:40Z</time>
					</trkpt>
					<trkpt lat="49.862240" lon="4.881590">
						<ele>253</ele>
						<time>2025-12-07T14:37:53Z</time>
					</trkpt>
					<trkpt lat="49.862330" lon="4.881870">
						<ele>248</ele>
						<time>2025-12-07T14:38:03Z</time>
					</trkpt>
					<trkpt lat="49.862510" lon="4.882480">
						<ele>236</ele>
						<time>2025-12-07T14:38:25Z</time>
					</trkpt>
					<trkpt lat="49.862510" lon="4.882590">
						<ele>234</ele>
						<time>2025-12-07T14:38:28Z</time>
					</trkpt>
					<trkpt lat="49.862550" lon="4.882880">
						<ele>228</ele>
						<time>2025-12-07T14:38:38Z</time>
					</trkpt>
					<trkpt lat="49.862560" lon="4.883010">
						<ele>226</ele>
						<time>2025-12-07T14:38:42Z</time>
					</trkpt>
					<trkpt lat="49.862550" lon="4.883330">
						<ele>221</ele>
						<time>2025-12-07T14:38:52Z</time>
					</trkpt>
					<trkpt lat="49.862510" lon="4.883480">
						<ele>218</ele>
						<time>2025-12-07T14:38:58Z</time>
					</trkpt>
					<trkpt lat="49.862460" lon="4.883590">
						<ele>214</ele>
						<time>2025-12-07T14:39:02Z</time>
					</trkpt>
					<trkpt lat="49.862440" lon="4.883810">
						<ele>208</ele>
						<time>2025-12-07T14:39:09Z</time>
					</trkpt>
					<trkpt lat="49.862610" lon="4.884110">
						<ele>198</ele>
						<time>2025-12-07T14:39:22Z</time>
					</trkpt>
					<trkpt lat="49.862730" lon="4.884170">
						<ele>195</ele>
						<time>2025-12-07T14:39:28Z</time>
					</trkpt>
					<trkpt lat="49.863100" lon="4.884350">
						<ele>188</ele>
						<time>2025-12-07T14:39:48Z</time>
					</trkpt>
					<trkpt lat="49.863320" lon="4.884410">
						<ele>185</ele>
						<time>2025-12-07T14:39:59Z</time>
					</trkpt>
					<trkpt lat="49.863400" lon="4.884410">
						<ele>183</ele>
						<time>2025-12-07T14:40:03Z</time>
					</trkpt>
					<trkpt lat="49.863430" lon="4.884440">
						<ele>182</ele>
						<time>2025-12-07T14:40:05Z</time>
					</trkpt>
					<trkpt lat="49.863570" lon="4.884800">
						<ele>176</ele>
						<time>2025-12-07T14:40:18Z</time>
					</trkpt>
					<trkpt lat="49.863700" lon="4.884730">
						<ele>175</ele>
						<time>2025-12-07T14:40:25Z</time>
					</trkpt>
					<trkpt lat="49.863720" lon="4.884620">
						<ele>176</ele>
						<time>2025-12-07T14:40:29Z</time>
					</trkpt>
					<trkpt lat="49.863820" lon="4.884460">
						<ele>176</ele>
						<time>2025-12-07T14:40:36Z</time>
					</trkpt>
					<trkpt lat="49.863950" lon="4.884270">
						<ele>175</ele>
						<time>2025-12-07T14:40:45Z</time>
					</trkpt>
					<trkpt lat="49.863980" lon="4.884270">
						<ele>174</ele>
						<time>2025-12-07T14:40:46Z</time>
					</trkpt>
					<trkpt lat="49.864060" lon="4.884230">
						<ele>173</ele>
						<time>2025-12-07T14:40:51Z</time>
					</trkpt>
					<trkpt lat="49.864090" lon="4.884310">
						<ele>172</ele>
						<time>2025-12-07T14:40:54Z</time>
					</trkpt>
					<trkpt lat="49.864100" lon="4.884290">
						<ele>172</ele>
						<time>2025-12-07T14:40:54Z</time>
					</trkpt>
					<trkpt lat="49.864720" lon="4.883640">
						<ele>174</ele>
						<time>2025-12-07T14:41:32Z</time>
					</trkpt>
					<trkpt lat="49.864760" lon="4.883590">
						<ele>174</ele>
						<time>2025-12-07T14:41:34Z</time>
					</trkpt>
					<trkpt lat="49.864850" lon="4.883480">
						<ele>174</ele>
						<time>2025-12-07T14:41:40Z</time>
					</trkpt>
					<trkpt lat="49.864920" lon="4.883380">
						<ele>175</ele>
						<time>2025-12-07T14:41:45Z</time>
					</trkpt>
					<trkpt lat="49.864920" lon="4.883510">
						<ele>175</ele>
						<time>2025-12-07T14:41:49Z</time>
					</trkpt>
					<trkpt lat="49.864760" lon="4.883770">
						<ele>174</ele>
						<time>2025-12-07T14:42:01Z</time>
					</trkpt>
					<trkpt lat="49.864730" lon="4.883870">
						<ele>173</ele>
						<time>2025-12-07T14:42:04Z</time>
					</trkpt>
					<trkpt lat="49.864750" lon="4.883980">
						<ele>173</ele>
						<time>2025-12-07T14:42:08Z</time>
					</trkpt>
					<trkpt lat="49.864800" lon="4.884120">
						<ele>173</ele>
						<time>2025-12-07T14:42:13Z</time>
					</trkpt>
					<trkpt lat="49.864840" lon="4.884190">
						<ele>173</ele>
						<time>2025-12-07T14:42:16Z</time>
					</trkpt>
					<trkpt lat="49.864910" lon="4.884300">
						<ele>173</ele>
						<time>2025-12-07T14:42:21Z</time>
					</trkpt>
					<trkpt lat="49.864990" lon="4.884390">
						<ele>173</ele>
						<time>2025-12-07T14:42:26Z</time>
					</trkpt>
					<trkpt lat="49.865020" lon="4.884400">
						<ele>173</ele>
						<time>2025-12-07T14:42:28Z</time>
					</trkpt>
					<trkpt lat="49.865140" lon="4.884340">
						<ele>175</ele>
						<time>2025-12-07T14:42:34Z</time>
					</trkpt>
					<trkpt lat="49.865280" lon="4.884300">
						<ele>177</ele>
						<time>2025-12-07T14:42:41Z</time>
					</trkpt>
					<trkpt lat="49.865370" lon="4.884300">
						<ele>178</ele>
						<time>2025-12-07T14:42:46Z</time>
					</trkpt>
					<trkpt lat="49.865490" lon="4.884320">
						<ele>179</ele>
						<time>2025-12-07T14:42:52Z</time>
					</trkpt>
					<trkpt lat="49.865570" lon="4.884280">
						<ele>180</ele>
						<time>2025-12-07T14:42:56Z</time>
					</trkpt>
					<trkpt lat="49.865630" lon="4.884280">
						<ele>181</ele>
						<time>2025-12-07T14:42:59Z</time>
					</trkpt>
					<trkpt lat="49.865730" lon="4.884350">
						<ele>182</ele>
						<time>2025-12-07T14:43:04Z</time>
					</trkpt>
					<trkpt lat="49.865920" lon="4.884520">
						<ele>182</ele>
						<time>2025-12-07T14:43:15Z</time>
					</trkpt>
					<trkpt lat="49.865960" lon="4.884530">
						<ele>183</ele>
						<time>2025-12-07T14:43:17Z</time>
					</trkpt>
					<trkpt lat="49.865990" lon="4.884520">
						<ele>184</ele>
						<time>2025-12-07T14:43:19Z</time>
					</trkpt>
					<trkpt lat="49.866030" lon="4.884470">
						<ele>185</ele>
						<time>2025-12-07T14:43:21Z</time>
					</trkpt>
					<trkpt lat="49.866040" lon="4.884410">
						<ele>186</ele>
						<time>2025-12-07T14:43:23Z</time>
					</trkpt>
					<trkpt lat="49.866080" lon="4.884320">
						<ele>188</ele>
						<time>2025-12-07T14:43:27Z</time>
					</trkpt>
					<trkpt lat="49.866110" lon="4.884320">
						<ele>189</ele>
						<time>2025-12-07T14:43:28Z</time>
					</trkpt>
					<trkpt lat="49.866180" lon="4.884360">
						<ele>189</ele>
						<time>2025-12-07T14:43:32Z</time>
					</trkpt>
					<trkpt lat="49.866300" lon="4.884410">
						<ele>191</ele>
						<time>2025-12-07T14:43:38Z</time>
					</trkpt>
					<trkpt lat="49.866400" lon="4.884420">
						<ele>193</ele>
						<time>2025-12-07T14:43:43Z</time>
					</trkpt>
					<trkpt lat="49.866560" lon="4.884410">
						<ele>196</ele>
						<time>2025-12-07T14:43:51Z</time>
					</trkpt>
					<trkpt lat="49.866970" lon="4.884200">
						<ele>204</ele>
						<time>2025-12-07T14:44:13Z</time>
					</trkpt>
					<trkpt lat="49.867030" lon="4.884160">
						<ele>205</ele>
						<time>2025-12-07T14:44:16Z</time>
					</trkpt>
					<trkpt lat="49.867440" lon="4.883410">
						<ele>222</ele>
						<time>2025-12-07T14:44:48Z</time>
					</trkpt>
					<trkpt lat="49.868090" lon="4.882840">
						<ele>232</ele>
						<time>2025-12-07T14:45:25Z</time>
					</trkpt>
					<trkpt lat="49.868540" lon="4.882360">
						<ele>238</ele>
						<time>2025-12-07T14:45:53Z</time>
					</trkpt>
					<trkpt lat="49.868660" lon="4.882290">
						<ele>239</ele>
						<time>2025-12-07T14:45:59Z</time>
					</trkpt>
					<trkpt lat="49.869080" lon="4.881880">
						<ele>241</ele>
						<time>2025-12-07T14:46:24Z</time>
					</trkpt>
					<trkpt lat="49.869710" lon="4.881040">
						<ele>236</ele>
						<time>2025-12-07T14:47:06Z</time>
					</trkpt>
					<trkpt lat="49.869880" lon="4.880820">
						<ele>236</ele>
						<time>2025-12-07T14:47:17Z</time>
					</trkpt>
					<trkpt lat="49.870070" lon="4.880650">
						<ele>234</ele>
						<time>2025-12-07T14:47:28Z</time>
					</trkpt>
					<trkpt lat="49.870110" lon="4.880630">
						<ele>233</ele>
						<time>2025-12-07T14:47:30Z</time>
					</trkpt>
					<trkpt lat="49.870300" lon="4.880570">
						<ele>232</ele>
						<time>2025-12-07T14:47:39Z</time>
					</trkpt>
					<trkpt lat="49.870500" lon="4.880570">
						<ele>231</ele>
						<time>2025-12-07T14:47:49Z</time>
					</trkpt>
					<trkpt lat="49.870650" lon="4.880550">
						<ele>231</ele>
						<time>2025-12-07T14:47:57Z</time>
					</trkpt>
					<trkpt lat="49.870910" lon="4.880550">
						<ele>230</ele>
						<time>2025-12-07T14:48:10Z</time>
					</trkpt>
					<trkpt lat="49.871100" lon="4.880470">
						<ele>228</ele>
						<time>2025-12-07T14:48:20Z</time>
					</trkpt>
					<trkpt lat="49.871240" lon="4.880380">
						<ele>226</ele>
						<time>2025-12-07T14:48:27Z</time>
					</trkpt>
					<trkpt lat="49.871400" lon="4.880300">
						<ele>224</ele>
						<time>2025-12-07T14:48:36Z</time>
					</trkpt>
					<trkpt lat="49.871580" lon="4.880240">
						<ele>223</ele>
						<time>2025-12-07T14:48:45Z</time>
					</trkpt>
					<trkpt lat="49.872370" lon="4.880100">
						<ele>222</ele>
						<time>2025-12-07T14:49:25Z</time>
					</trkpt>
					<trkpt lat="49.872690" lon="4.880020">
						<ele>223</ele>
						<time>2025-12-07T14:49:41Z</time>
					</trkpt>
					<trkpt lat="49.872750" lon="4.879960">
						<ele>223</ele>
						<time>2025-12-07T14:49:45Z</time>
					</trkpt>
					<trkpt lat="49.872910" lon="4.879940">
						<ele>224</ele>
						<time>2025-12-07T14:49:53Z</time>
					</trkpt>
					<trkpt lat="49.873030" lon="4.879910">
						<ele>225</ele>
						<time>2025-12-07T14:49:59Z</time>
					</trkpt>
					<trkpt lat="49.873400" lon="4.879710">
						<ele>225</ele>
						<time>2025-12-07T14:50:18Z</time>
					</trkpt>
					<trkpt lat="49.873510" lon="4.879670">
						<ele>227</ele>
						<time>2025-12-07T14:50:24Z</time>
					</trkpt>
					<trkpt lat="49.873760" lon="4.879610">
						<ele>230</ele>
						<time>2025-12-07T14:50:37Z</time>
					</trkpt>
					<trkpt lat="49.873940" lon="4.879620">
						<ele>234</ele>
						<time>2025-12-07T14:50:46Z</time>
					</trkpt>
					<trkpt lat="49.874110" lon="4.879590">
						<ele>237</ele>
						<time>2025-12-07T14:50:54Z</time>
					</trkpt>
					<trkpt lat="49.874200" lon="4.879560">
						<ele>238</ele>
						<time>2025-12-07T14:50:59Z</time>
					</trkpt>
					<trkpt lat="49.874280" lon="4.879680">
						<ele>240</ele>
						<time>2025-12-07T14:51:04Z</time>
					</trkpt>
					<trkpt lat="49.874400" lon="4.879750">
						<ele>242</ele>
						<time>2025-12-07T14:51:11Z</time>
					</trkpt>
					<trkpt lat="49.874500" lon="4.879770">
						<ele>244</ele>
						<time>2025-12-07T14:51:16Z</time>
					</trkpt>
					<trkpt lat="49.874550" lon="4.879770">
						<ele>245</ele>
						<time>2025-12-07T14:51:18Z</time>
					</trkpt>
					<trkpt lat="49.874770" lon="4.879670">
						<ele>247</ele>
						<time>2025-12-07T14:51:30Z</time>
					</trkpt>
					<trkpt lat="49.874850" lon="4.879620">
						<ele>248</ele>
						<time>2025-12-07T14:51:34Z</time>
					</trkpt>
					<trkpt lat="49.875040" lon="4.879620">
						<ele>251</ele>
						<time>2025-12-07T14:51:44Z</time>
					</trkpt>
					<trkpt lat="49.875150" lon="4.879650">
						<ele>253</ele>
						<time>2025-12-07T14:51:49Z</time>
					</trkpt>
					<trkpt lat="49.875200" lon="4.879630">
						<ele>254</ele>
						<time>2025-12-07T14:51:52Z</time>
					</trkpt>
					<trkpt lat="49.875330" lon="4.879620">
						<ele>257</ele>
						<time>2025-12-07T14:51:58Z</time>
					</trkpt>
					<trkpt lat="49.875390" lon="4.879660">
						<ele>258</ele>
						<time>2025-12-07T14:52:02Z</time>
					</trkpt>
					<trkpt lat="49.875430" lon="4.879640">
						<ele>259</ele>
						<time>2025-12-07T14:52:04Z</time>
					</trkpt>
					<trkpt lat="49.875490" lon="4.879630">
						<ele>260</ele>
						<time>2025-12-07T14:52:07Z</time>
					</trkpt>
					<trkpt lat="49.875530" lon="4.879630">
						<ele>261</ele>
						<time>2025-12-07T14:52:09Z</time>
					</trkpt>
					<trkpt lat="49.875560" lon="4.879650">
						<ele>261</ele>
						<time>2025-12-07T14:52:10Z</time>
					</trkpt>
					<trkpt lat="49.875690" lon="4.879660">
						<ele>264</ele>
						<time>2025-12-07T14:52:17Z</time>
					</trkpt>
					<trkpt lat="49.875850" lon="4.879680">
						<ele>267</ele>
						<time>2025-12-07T14:52:25Z</time>
					</trkpt>
					<trkpt lat="49.875980" lon="4.879620">
						<ele>269</ele>
						<time>2025-12-07T14:52:32Z</time>
					</trkpt>
					<trkpt lat="49.876190" lon="4.879600">
						<ele>271</ele>
						<time>2025-12-07T14:52:42Z</time>
					</trkpt>
					<trkpt lat="49.876300" lon="4.879490">
						<ele>272</ele>
						<time>2025-12-07T14:52:49Z</time>
					</trkpt>
					<trkpt lat="49.876370" lon="4.879450">
						<ele>273</ele>
						<time>2025-12-07T14:52:52Z</time>
					</trkpt>
					<trkpt lat="49.876500" lon="4.879470">
						<ele>274</ele>
						<time>2025-12-07T14:52:59Z</time>
					</trkpt>
					<trkpt lat="49.876590" lon="4.879550">
						<ele>276</ele>
						<time>2025-12-07T14:53:04Z</time>
					</trkpt>
					<trkpt lat="49.876640" lon="4.879570">
						<ele>277</ele>
						<time>2025-12-07T14:53:07Z</time>
					</trkpt>
					<trkpt lat="49.876760" lon="4.879650">
						<ele>278</ele>
						<time>2025-12-07T14:53:13Z</time>
					</trkpt>
					<trkpt lat="49.876830" lon="4.879680">
						<ele>279</ele>
						<time>2025-12-07T14:53:17Z</time>
					</trkpt>
					<trkpt lat="49.877100" lon="4.879710">
						<ele>279</ele>
						<time>2025-12-07T14:53:31Z</time>
					</trkpt>
					<trkpt lat="49.877220" lon="4.879740">
						<ele>280</ele>
						<time>2025-12-07T14:53:37Z</time>
					</trkpt>
					<trkpt lat="49.877350" lon="4.879670">
						<ele>280</ele>
						<time>2025-12-07T14:53:43Z</time>
					</trkpt>
					<trkpt lat="49.877420" lon="4.879620">
						<ele>279</ele>
						<time>2025-12-07T14:53:47Z</time>
					</trkpt>
					<trkpt lat="49.877630" lon="4.879560">
						<ele>280</ele>
						<time>2025-12-07T14:53:58Z</time>
					</trkpt>
					<trkpt lat="49.877710" lon="4.879580">
						<ele>280</ele>
						<time>2025-12-07T14:54:02Z</time>
					</trkpt>
					<trkpt lat="49.878060" lon="4.879560">
						<ele>282</ele>
						<time>2025-12-07T14:54:20Z</time>
					</trkpt>
					<trkpt lat="49.878160" lon="4.879530">
						<ele>283</ele>
						<time>2025-12-07T14:54:25Z</time>
					</trkpt>
					<trkpt lat="49.878310" lon="4.879470">
						<ele>283</ele>
						<time>2025-12-07T14:54:32Z</time>
					</trkpt>
					<trkpt lat="49.878350" lon="4.879470">
						<ele>284</ele>
						<time>2025-12-07T14:54:34Z</time>
					</trkpt>
					<trkpt lat="49.878410" lon="4.879410">
						<ele>285</ele>
						<time>2025-12-07T14:54:38Z</time>
					</trkpt>
					<trkpt lat="49.878440" lon="4.879360">
						<ele>286</ele>
						<time>2025-12-07T14:54:40Z</time>
					</trkpt>
					<trkpt lat="49.878480" lon="4.879220">
						<ele>287</ele>
						<time>2025-12-07T14:54:45Z</time>
					</trkpt>
					<trkpt lat="49.878530" lon="4.879150">
						<ele>288</ele>
						<time>2025-12-07T14:54:49Z</time>
					</trkpt>
					<trkpt lat="49.878910" lon="4.878830">
						<ele>292</ele>
						<time>2025-12-07T14:55:10Z</time>
					</trkpt>
					<trkpt lat="49.878930" lon="4.878790">
						<ele>292</ele>
						<time>2025-12-07T14:55:12Z</time>
					</trkpt>
					<trkpt lat="49.879000" lon="4.878720">
						<ele>293</ele>
						<time>2025-12-07T14:55:16Z</time>
					</trkpt>
					<trkpt lat="49.879260" lon="4.878560">
						<ele>296</ele>
						<time>2025-12-07T14:55:30Z</time>
					</trkpt>
					<trkpt lat="49.879320" lon="4.878530">
						<ele>296</ele>
						<time>2025-12-07T14:55:33Z</time>
					</trkpt>
					<trkpt lat="49.879450" lon="4.878520">
						<ele>297</ele>
						<time>2025-12-07T14:55:40Z</time>
					</trkpt>
					<trkpt lat="49.879650" lon="4.878450">
						<ele>298</ele>
						<time>2025-12-07T14:55:50Z</time>
					</trkpt>
					<trkpt lat="49.879800" lon="4.878470">
						<ele>300</ele>
						<time>2025-12-07T14:55:57Z</time>
					</trkpt>
					<trkpt lat="49.879980" lon="4.878570">
						<ele>302</ele>
						<time>2025-12-07T14:56:07Z</time>
					</trkpt>
					<trkpt lat="49.880080" lon="4.878650">
						<ele>302</ele>
						<time>2025-12-07T14:56:13Z</time>
					</trkpt>
					<trkpt lat="49.880250" lon="4.878740">
						<ele>302</ele>
						<time>2025-12-07T14:56:22Z</time>
					</trkpt>
					<trkpt lat="49.880470" lon="4.878950">
						<ele>303</ele>
						<time>2025-12-07T14:56:35Z</time>
					</trkpt>
					<trkpt lat="49.880840" lon="4.879390">
						<ele>307</ele>
						<time>2025-12-07T14:56:58Z</time>
					</trkpt>
					<trkpt lat="49.881020" lon="4.879520">
						<ele>310</ele>
						<time>2025-12-07T14:57:08Z</time>
					</trkpt>
					<trkpt lat="49.881330" lon="4.879740">
						<ele>315</ele>
						<time>2025-12-07T14:57:25Z</time>
					</trkpt>
					<trkpt lat="49.881400" lon="4.879830">
						<ele>317</ele>
						<time>2025-12-07T14:57:29Z</time>
					</trkpt>
					<trkpt lat="49.881520" lon="4.880210">
						<ele>317</ele>
						<time>2025-12-07T14:57:43Z</time>
					</trkpt>
					<trkpt lat="49.881580" lon="4.880420">
						<ele>316</ele>
						<time>2025-12-07T14:57:50Z</time>
					</trkpt>
					<trkpt lat="49.881690" lon="4.880580">
						<ele>316</ele>
						<time>2025-12-07T14:57:58Z</time>
					</trkpt>
					<trkpt lat="49.881780" lon="4.880790">
						<ele>316</ele>
						<time>2025-12-07T14:58:06Z</time>
					</trkpt>
					<trkpt lat="49.881930" lon="4.881160">
						<ele>315</ele>
						<time>2025-12-07T14:58:20Z</time>
					</trkpt>
					<trkpt lat="49.882220" lon="4.881640">
						<ele>317</ele>
						<time>2025-12-07T14:58:41Z</time>
					</trkpt>
					<trkpt lat="49.882370" lon="4.881980">
						<ele>316</ele>
						<time>2025-12-07T14:58:55Z</time>
					</trkpt>
					<trkpt lat="49.882570" lon="4.882410">
						<ele>316</ele>
						<time>2025-12-07T14:59:12Z</time>
					</trkpt>
					<trkpt lat="49.882670" lon="4.882650">
						<ele>317</ele>
						<time>2025-12-07T14:59:21Z</time>
					</trkpt>
					<trkpt lat="49.882770" lon="4.882970">
						<ele>317</ele>
						<time>2025-12-07T14:59:33Z</time>
					</trkpt>
					<trkpt lat="49.882890" lon="4.883180">
						<ele>319</ele>
						<time>2025-12-07T14:59:42Z</time>
					</trkpt>
					<trkpt lat="49.882950" lon="4.883320">
						<ele>319</ele>
						<time>2025-12-07T14:59:47Z</time>
					</trkpt>
					<trkpt lat="49.882990" lon="4.883400">
						<ele>320</ele>
						<time>2025-12-07T14:59:50Z</time>
					</trkpt>
					<trkpt lat="49.883170" lon="4.883780">
						<ele>321</ele>
						<time>2025-12-07T15:00:05Z</time>
					</trkpt>
					<trkpt lat="49.883240" lon="4.883950">
						<ele>321</ele>
						<time>2025-12-07T15:00:12Z</time>
					</trkpt>
					<trkpt lat="49.883390" lon="4.884290">
						<ele>321</ele>
						<time>2025-12-07T15:00:25Z</time>
					</trkpt>
					<trkpt lat="49.883450" lon="4.884480">
						<ele>321</ele>
						<time>2025-12-07T15:00:32Z</time>
					</trkpt>
					<trkpt lat="49.883650" lon="4.884920">
						<ele>320</ele>
						<time>2025-12-07T15:00:49Z</time>
					</trkpt>
					<trkpt lat="49.883720" lon="4.885060">
						<ele>320</ele>
						<time>2025-12-07T15:00:55Z</time>
					</trkpt>
					<trkpt lat="49.883800" lon="4.885270">
						<ele>320</ele>
						<time>2025-12-07T15:01:03Z</time>
					</trkpt>
					<trkpt lat="49.883870" lon="4.885400">
						<ele>319</ele>
						<time>2025-12-07T15:01:09Z</time>
					</trkpt>
					<trkpt lat="49.883960" lon="4.885550">
						<ele>320</ele>
						<time>2025-12-07T15:01:15Z</time>
					</trkpt>
					<trkpt lat="49.884030" lon="4.885700">
						<ele>320</ele>
						<time>2025-12-07T15:01:21Z</time>
					</trkpt>
					<trkpt lat="49.884130" lon="4.885840">
						<ele>320</ele>
						<time>2025-12-07T15:01:28Z</time>
					</trkpt>
					<trkpt lat="49.884330" lon="4.886130">
						<ele>316</ele>
						<time>2025-12-07T15:01:42Z</time>
					</trkpt>
					<trkpt lat="49.884380" lon="4.886170">
						<ele>316</ele>
						<time>2025-12-07T15:01:44Z</time>
					</trkpt>
					<trkpt lat="49.884660" lon="4.886240">
						<ele>317</ele>
						<time>2025-12-07T15:01:59Z</time>
					</trkpt>
					<trkpt lat="49.884900" lon="4.886310">
						<ele>318</ele>
						<time>2025-12-07T15:02:11Z</time>
					</trkpt>
					<trkpt lat="49.885120" lon="4.886410">
						<ele>319</ele>
						<time>2025-12-07T15:02:22Z</time>
					</trkpt>
					<trkpt lat="49.885520" lon="4.886670">
						<ele>322</ele>
						<time>2025-12-07T15:02:44Z</time>
					</trkpt>
					<trkpt lat="49.885640" lon="4.886770">
						<ele>322</ele>
						<time>2025-12-07T15:02:51Z</time>
					</trkpt>
					<trkpt lat="49.885720" lon="4.886850">
						<ele>321</ele>
						<time>2025-12-07T15:02:56Z</time>
					</trkpt>
					<trkpt lat="49.886040" lon="4.887260">
						<ele>316</ele>
						<time>2025-12-07T15:03:16Z</time>
					</trkpt>
					<trkpt lat="49.886220" lon="4.887590">
						<ele>310</ele>
						<time>2025-12-07T15:03:30Z</time>
					</trkpt>
					<trkpt lat="49.886420" lon="4.887870">
						<ele>305</ele>
						<time>2025-12-07T15:03:44Z</time>
					</trkpt>
					<trkpt lat="49.886540" lon="4.888010">
						<ele>303</ele>
						<time>2025-12-07T15:03:51Z</time>
					</trkpt>
					<trkpt lat="49.886640" lon="4.888050">
						<ele>304</ele>
						<time>2025-12-07T15:03:56Z</time>
					</trkpt>
					<trkpt lat="49.886770" lon="4.888070">
						<ele>305</ele>
						<time>2025-12-07T15:04:03Z</time>
					</trkpt>
					<trkpt lat="49.886930" lon="4.888130">
						<ele>306</ele>
						<time>2025-12-07T15:04:11Z</time>
					</trkpt>
					<trkpt lat="49.887100" lon="4.888270">
						<ele>305</ele>
						<time>2025-12-07T15:04:21Z</time>
					</trkpt>
					<trkpt lat="49.887220" lon="4.888300">
						<ele>306</ele>
						<time>2025-12-07T15:04:27Z</time>
					</trkpt>
					<trkpt lat="49.887350" lon="4.888390">
						<ele>306</ele>
						<time>2025-12-07T15:04:34Z</time>
					</trkpt>
					<trkpt lat="49.887440" lon="4.888490">
						<ele>306</ele>
						<time>2025-12-07T15:04:40Z</time>
					</trkpt>
					<trkpt lat="49.887420" lon="4.888590">
						<ele>303</ele>
						<time>2025-12-07T15:04:43Z</time>
					</trkpt>
					<trkpt lat="49.887370" lon="4.888690">
						<ele>300</ele>
						<time>2025-12-07T15:04:47Z</time>
					</trkpt>
					<trkpt lat="49.887260" lon="4.888750">
						<ele>297</ele>
						<time>2025-12-07T15:04:53Z</time>
					</trkpt>
					<trkpt lat="49.887050" lon="4.888920">
						<ele>291</ele>
						<time>2025-12-07T15:05:05Z</time>
					</trkpt>
					<trkpt lat="49.886830" lon="4.889190">
						<ele>283</ele>
						<time>2025-12-07T15:05:19Z</time>
					</trkpt>
					<trkpt lat="49.886740" lon="4.889200">
						<ele>282</ele>
						<time>2025-12-07T15:05:23Z</time>
					</trkpt>
					<trkpt lat="49.886640" lon="4.889150">
						<ele>280</ele>
						<time>2025-12-07T15:05:28Z</time>
					</trkpt>
					<trkpt lat="49.886410" lon="4.888970">
						<ele>277</ele>
						<time>2025-12-07T15:05:41Z</time>
					</trkpt>
					<trkpt lat="49.886250" lon="4.888970">
						<ele>272</ele>
						<time>2025-12-07T15:05:49Z</time>
					</trkpt>
					<trkpt lat="49.886210" lon="4.888990">
						<ele>270</ele>
						<time>2025-12-07T15:05:51Z</time>
					</trkpt>
					<trkpt lat="49.886210" lon="4.888990">
						<ele>270</ele>
						<time>2025-12-07T15:05:52Z</time>
					</trkpt>
					<trkpt lat="49.886190" lon="4.889050">
						<ele>268</ele>
						<time>2025-12-07T15:05:54Z</time>
					</trkpt>
					<trkpt lat="49.886140" lon="4.889070">
						<ele>266</ele>
						<time>2025-12-07T15:05:56Z</time>
					</trkpt>
					<trkpt lat="49.886040" lon="4.889010">
						<ele>265</ele>
						<time>2025-12-07T15:06:02Z</time>
					</trkpt>
					<trkpt lat="49.885940" lon="4.889040">
						<ele>261</ele>
						<time>2025-12-07T15:06:07Z</time>
					</trkpt>
					<trkpt lat="49.885840" lon="4.889100">
						<ele>256</ele>
						<time>2025-12-07T15:06:12Z</time>
					</trkpt>
					<trkpt lat="49.885580" lon="4.889180">
						<ele>245</ele>
						<time>2025-12-07T15:06:25Z</time>
					</trkpt>
					<trkpt lat="49.885480" lon="4.889220">
						<ele>241</ele>
						<time>2025-12-07T15:06:31Z</time>
					</trkpt>
					<trkpt lat="49.885440" lon="4.889290">
						<ele>238</ele>
						<time>2025-12-07T15:06:34Z</time>
					</trkpt>
					<trkpt lat="49.885370" lon="4.889360">
						<ele>234</ele>
						<time>2025-12-07T15:06:38Z</time>
					</trkpt>
					<trkpt lat="49.885300" lon="4.889510">
						<ele>229</ele>
						<time>2025-12-07T15:06:44Z</time>
					</trkpt>
					<trkpt lat="49.885230" lon="4.889700">
						<ele>223</ele>
						<time>2025-12-07T15:06:51Z</time>
					</trkpt>
					<trkpt lat="49.885180" lon="4.889770">
						<ele>219</ele>
						<time>2025-12-07T15:06:54Z</time>
					</trkpt>
					<trkpt lat="49.885130" lon="4.889930">
						<ele>213</ele>
						<time>2025-12-07T15:07:00Z</time>
					</trkpt>
					<trkpt lat="49.885110" lon="4.890320">
						<ele>206</ele>
						<time>2025-12-07T15:07:12Z</time>
					</trkpt>
					<trkpt lat="49.885110" lon="4.890480">
						<ele>204</ele>
						<time>2025-12-07T15:07:18Z</time>
					</trkpt>
					<trkpt lat="49.885090" lon="4.890660">
						<ele>200</ele>
						<time>2025-12-07T15:07:24Z</time>
					</trkpt>
					<trkpt lat="49.885030" lon="4.890770">
						<ele>196</ele>
						<time>2025-12-07T15:07:28Z</time>
					</trkpt>
					<trkpt lat="49.885010" lon="4.890870">
						<ele>193</ele>
						<time>2025-12-07T15:07:32Z</time>
					</trkpt>
					<trkpt lat="49.885020" lon="4.891110">
						<ele>193</ele>
						<time>2025-12-07T15:07:39Z</time>
					</trkpt>
					<trkpt lat="49.885010" lon="4.891210">
						<ele>192</ele>
						<time>2025-12-07T15:07:43Z</time>
					</trkpt>
					<trkpt lat="49.885010" lon="4.891420">
						<ele>191</ele>
						<time>2025-12-07T15:07:49Z</time>
					</trkpt>
					<trkpt lat="49.885030" lon="4.891620">
						<ele>192</ele>
						<time>2025-12-07T15:07:56Z</time>
					</trkpt>
					<trkpt lat="49.885010" lon="4.891750">
						<ele>191</ele>
						<time>2025-12-07T15:08:00Z</time>
					</trkpt>
					<trkpt lat="49.884970" lon="4.891970">
						<ele>190</ele>
						<time>2025-12-07T15:08:08Z</time>
					</trkpt>
					<trkpt lat="49.884970" lon="4.892200">
						<ele>190</ele>
						<time>2025-12-07T15:08:15Z</time>
					</trkpt>
					<trkpt lat="49.885010" lon="4.892980">
						<ele>193</ele>
						<time>2025-12-07T15:08:40Z</time>
					</trkpt>
					<trkpt lat="49.884980" lon="4.893130">
						<ele>193</ele>
						<time>2025-12-07T15:08:45Z</time>
					</trkpt>
					<trkpt lat="49.885020" lon="4.893420">
						<ele>195</ele>
						<time>2025-12-07T15:08:55Z</time>
					</trkpt>
					<trkpt lat="49.884960" lon="4.893910">
						<ele>196</ele>
						<time>2025-12-07T15:09:11Z</time>
					</trkpt>
					<trkpt lat="49.884620" lon="4.894970">
						<ele>200</ele>
						<time>2025-12-07T15:09:49Z</time>
					</trkpt>
					<trkpt lat="49.884360" lon="4.895740">
						<ele>200</ele>
						<time>2025-12-07T15:10:17Z</time>
					</trkpt>
					<trkpt lat="49.884340" lon="4.895900">
						<ele>201</ele>
						<time>2025-12-07T15:10:22Z</time>
					</trkpt>
					<trkpt lat="49.884280" lon="4.896080">
						<ele>201</ele>
						<time>2025-12-07T15:10:29Z</time>
					</trkpt>
					<trkpt lat="49.884300" lon="4.896230">
						<ele>203</ele>
						<time>2025-12-07T15:10:34Z</time>
					</trkpt>
					<trkpt lat="49.884270" lon="4.896400">
						<ele>204</ele>
						<time>2025-12-07T15:10:40Z</time>
					</trkpt>
					<trkpt lat="49.884280" lon="4.896640">
						<ele>207</ele>
						<time>2025-12-07T15:10:47Z</time>
					</trkpt>
					<trkpt lat="49.884200" lon="4.896700">
						<ele>206</ele>
						<time>2025-12-07T15:10:52Z</time>
					</trkpt>
					<trkpt lat="49.884090" lon="4.896740">
						<ele>205</ele>
						<time>2025-12-07T15:10:57Z</time>
					</trkpt>
					<trkpt lat="49.883930" lon="4.896840">
						<ele>205</ele>
						<time>2025-12-07T15:11:06Z</time>
					</trkpt>
					<trkpt lat="49.883770" lon="4.897010">
						<ele>208</ele>
						<time>2025-12-07T15:11:16Z</time>
					</trkpt>
					<trkpt lat="49.883620" lon="4.897100">
						<ele>208</ele>
						<time>2025-12-07T15:11:24Z</time>
					</trkpt>
					<trkpt lat="49.883540" lon="4.897170">
						<ele>209</ele>
						<time>2025-12-07T15:11:28Z</time>
					</trkpt>
					<trkpt lat="49.883420" lon="4.897350">
						<ele>212</ele>
						<time>2025-12-07T15:11:37Z</time>
					</trkpt>
					<trkpt lat="49.883340" lon="4.897400">
						<ele>212</ele>
						<time>2025-12-07T15:11:41Z</time>
					</trkpt>
					<trkpt lat="49.883230" lon="4.897430">
						<ele>211</ele>
						<time>2025-12-07T15:11:47Z</time>
					</trkpt>
					<trkpt lat="49.883120" lon="4.897500">
						<ele>210</ele>
						<time>2025-12-07T15:11:53Z</time>
					</trkpt>
					<trkpt lat="49.882920" lon="4.897540">
						<ele>207</ele>
						<time>2025-12-07T15:12:03Z</time>
					</trkpt>
					<trkpt lat="49.882690" lon="4.897830">
						<ele>211</ele>
						<time>2025-12-07T15:12:17Z</time>
					</trkpt>
					<trkpt lat="49.882840" lon="4.897880">
						<ele>217</ele>
						<time>2025-12-07T15:12:25Z</time>
					</trkpt>
					<trkpt lat="49.882880" lon="4.897910">
						<ele>219</ele>
						<time>2025-12-07T15:12:27Z</time>
					</trkpt>
					<trkpt lat="49.883030" lon="4.897930">
						<ele>223</ele>
						<time>2025-12-07T15:12:35Z</time>
					</trkpt>
					<trkpt lat="49.883020" lon="4.898020">
						<ele>226</ele>
						<time>2025-12-07T15:12:38Z</time>
					</trkpt>
					<trkpt lat="49.883170" lon="4.898100">
						<ele>233</ele>
						<time>2025-12-07T15:12:46Z</time>
					</trkpt>
					<trkpt lat="49.883220" lon="4.898170">
						<ele>237</ele>
						<time>2025-12-07T15:12:49Z</time>
					</trkpt>
					<trkpt lat="49.883250" lon="4.898190">
						<ele>239</ele>
						<time>2025-12-07T15:12:51Z</time>
					</trkpt>
					<trkpt lat="49.883400" lon="4.898270">
						<ele>246</ele>
						<time>2025-12-07T15:12:59Z</time>
					</trkpt>
					<trkpt lat="49.883440" lon="4.898320">
						<ele>249</ele>
						<time>2025-12-07T15:13:01Z</time>
					</trkpt>
					<trkpt lat="49.883400" lon="4.898440">
						<ele>253</ele>
						<time>2025-12-07T15:13:06Z</time>
					</trkpt>
					<trkpt lat="49.883320" lon="4.898590">
						<ele>256</ele>
						<time>2025-12-07T15:13:12Z</time>
					</trkpt>
					<trkpt lat="49.883290" lon="4.898720">
						<ele>260</ele>
						<time>2025-12-07T15:13:16Z</time>
					</trkpt>
					<trkpt lat="49.883300" lon="4.898770">
						<ele>262</ele>
						<time>2025-12-07T15:13:18Z</time>
					</trkpt>
					<trkpt lat="49.883490" lon="4.898800">
						<ele>268</ele>
						<time>2025-12-07T15:13:28Z</time>
					</trkpt>
					<trkpt lat="49.883530" lon="4.898830">
						<ele>270</ele>
						<time>2025-12-07T15:13:30Z</time>
					</trkpt>
					<trkpt lat="49.883550" lon="4.898880">
						<ele>273</ele>
						<time>2025-12-07T15:13:32Z</time>
					</trkpt>
					<trkpt lat="49.883550" lon="4.898980">
						<ele>276</ele>
						<time>2025-12-07T15:13:35Z</time>
					</trkpt>
					<trkpt lat="49.883490" lon="4.899200">
						<ele>283</ele>
						<time>2025-12-07T15:13:43Z</time>
					</trkpt>
					<trkpt lat="49.883360" lon="4.899550">
						<ele>292</ele>
						<time>2025-12-07T15:13:56Z</time>
					</trkpt>
					<trkpt lat="49.883310" lon="4.899820">
						<ele>301</ele>
						<time>2025-12-07T15:14:05Z</time>
					</trkpt>
					<trkpt lat="49.883210" lon="4.900150">
						<ele>309</ele>
						<time>2025-12-07T15:14:17Z</time>
					</trkpt>
					<trkpt lat="49.882750" lon="4.900440">
						<ele>309</ele>
						<time>2025-12-07T15:14:41Z</time>
					</trkpt>
					<trkpt lat="49.882410" lon="4.900560">
						<ele>308</ele>
						<time>2025-12-07T15:14:59Z</time>
					</trkpt>
					<trkpt lat="49.882340" lon="4.900560">
						<ele>306</ele>
						<time>2025-12-07T15:15:02Z</time>
					</trkpt>
					<trkpt lat="49.882180" lon="4.900570">
						<ele>304</ele>
						<time>2025-12-07T15:15:10Z</time>
					</trkpt>
					<trkpt lat="49.882050" lon="4.900640">
						<ele>304</ele>
						<time>2025-12-07T15:15:17Z</time>
					</trkpt>
					<trkpt lat="49.882010" lon="4.900910">
						<ele>311</ele>
						<time>2025-12-07T15:15:26Z</time>
					</trkpt>
					<trkpt lat="49.881950" lon="4.901050">
						<ele>312</ele>
						<time>2025-12-07T15:15:32Z</time>
					</trkpt>
					<trkpt lat="49.881930" lon="4.901230">
						<ele>313</ele>
						<time>2025-12-07T15:15:37Z</time>
					</trkpt>
					<trkpt lat="49.881900" lon="4.901320">
						<ele>314</ele>
						<time>2025-12-07T15:15:41Z</time>
					</trkpt>
					<trkpt lat="49.881840" lon="4.901410">
						<ele>314</ele>
						<time>2025-12-07T15:15:45Z</time>
					</trkpt>
					<trkpt lat="49.881670" lon="4.901590">
						<ele>314</ele>
						<time>2025-12-07T15:15:55Z</time>
					</trkpt>
					<trkpt lat="49.881410" lon="4.901740">
						<ele>310</ele>
						<time>2025-12-07T15:16:09Z</time>
					</trkpt>
					<trkpt lat="49.880990" lon="4.901980">
						<ele>302</ele>
						<time>2025-12-07T15:16:31Z</time>
					</trkpt>
					<trkpt lat="49.880970" lon="4.901990">
						<ele>301</ele>
						<time>2025-12-07T15:16:33Z</time>
					</trkpt>
					<trkpt lat="49.880650" lon="4.901750">
						<ele>294</ele>
						<time>2025-12-07T15:16:50Z</time>
					</trkpt>
					<trkpt lat="49.880270" lon="4.901680">
						<ele>286</ele>
						<time>2025-12-07T15:17:09Z</time>
					</trkpt>
					<trkpt lat="49.879850" lon="4.900950">
						<ele>270</ele>
						<time>2025-12-07T15:17:41Z</time>
					</trkpt>
					<trkpt lat="49.879610" lon="4.900860">
						<ele>274</ele>
						<time>2025-12-07T15:17:53Z</time>
					</trkpt>
					<trkpt lat="49.879250" lon="4.900920">
						<ele>282</ele>
						<time>2025-12-07T15:18:12Z</time>
					</trkpt>
					<trkpt lat="49.879140" lon="4.900780">
						<ele>283</ele>
						<time>2025-12-07T15:18:19Z</time>
					</trkpt>
					<trkpt lat="49.879080" lon="4.900570">
						<ele>280</ele>
						<time>2025-12-07T15:18:26Z</time>
					</trkpt>
					<trkpt lat="49.879050" lon="4.900380">
						<ele>277</ele>
						<time>2025-12-07T15:18:32Z</time>
					</trkpt>
					<trkpt lat="49.879030" lon="4.900270">
						<ele>276</ele>
						<time>2025-12-07T15:18:36Z</time>
					</trkpt>
					<trkpt lat="49.878900" lon="4.899990">
						<ele>273</ele>
						<time>2025-12-07T15:18:47Z</time>
					</trkpt>
					<trkpt lat="49.878700" lon="4.899720">
						<ele>272</ele>
						<time>2025-12-07T15:19:00Z</time>
					</trkpt>
					<trkpt lat="49.878250" lon="4.898890">
						<ele>269</ele>
						<time>2025-12-07T15:19:35Z</time>
					</trkpt>
					<trkpt lat="49.878180" lon="4.898680">
						<ele>267</ele>
						<time>2025-12-07T15:19:43Z</time>
					</trkpt>
					<trkpt lat="49.878090" lon="4.898300">
						<ele>262</ele>
						<time>2025-12-07T15:19:56Z</time>
					</trkpt>
					<trkpt lat="49.877760" lon="4.897200">
						<ele>249</ele>
						<time>2025-12-07T15:20:35Z</time>
					</trkpt>
					<trkpt lat="49.877480" lon="4.895970">
						<ele>235</ele>
						<time>2025-12-07T15:21:17Z</time>
					</trkpt>
					<trkpt lat="49.877380" lon="4.895440">
						<ele>228</ele>
						<time>2025-12-07T15:21:35Z</time>
					</trkpt>
					<trkpt lat="49.877250" lon="4.894880">
						<ele>221</ele>
						<time>2025-12-07T15:21:54Z</time>
					</trkpt>
					<trkpt lat="49.877150" lon="4.894470">
						<ele>216</ele>
						<time>2025-12-07T15:22:08Z</time>
					</trkpt>
					<trkpt lat="49.877120" lon="4.894060">
						<ele>210</ele>
						<time>2025-12-07T15:22:22Z</time>
					</trkpt>
					<trkpt lat="49.877090" lon="4.893240">
						<ele>201</ele>
						<time>2025-12-07T15:22:48Z</time>
					</trkpt>
					<trkpt lat="49.876900" lon="4.892780">
						<ele>197</ele>
						<time>2025-12-07T15:23:06Z</time>
					</trkpt>
					<trkpt lat="49.876780" lon="4.892590">
						<ele>195</ele>
						<time>2025-12-07T15:23:14Z</time>
					</trkpt>
					<trkpt lat="49.876680" lon="4.892310">
						<ele>192</ele>
						<time>2025-12-07T15:23:25Z</time>
					</trkpt>
					<trkpt lat="49.876680" lon="4.892140">
						<ele>191</ele>
						<time>2025-12-07T15:23:30Z</time>
					</trkpt>
					<trkpt lat="49.876720" lon="4.892020">
						<ele>190</ele>
						<time>2025-12-07T15:23:35Z</time>
					</trkpt>
					<trkpt lat="49.877110" lon="4.891260">
						<ele>188</ele>
						<time>2025-12-07T15:24:06Z</time>
					</trkpt>
					<trkpt lat="49.877100" lon="4.891020">
						<ele>186</ele>
						<time>2025-12-07T15:24:14Z</time>
					</trkpt>
					<trkpt lat="49.877000" lon="4.890840">
						<ele>184</ele>
						<time>2025-12-07T15:24:21Z</time>
					</trkpt>
					<trkpt lat="49.876880" lon="4.890830">
						<ele>184</ele>
						<time>2025-12-07T15:24:27Z</time>
					</trkpt>
					<trkpt lat="49.876730" lon="4.890930">
						<ele>183</ele>
						<time>2025-12-07T15:24:36Z</time>
					</trkpt>
					<trkpt lat="49.876640" lon="4.890970">
						<ele>183</ele>
						<time>2025-12-07T15:24:40Z</time>
					</trkpt>
					<trkpt lat="49.876540" lon="4.891070">
						<ele>182</ele>
						<time>2025-12-07T15:24:46Z</time>
					</trkpt>
					<trkpt lat="49.876400" lon="4.891380">
						<ele>183</ele>
						<time>2025-12-07T15:24:58Z</time>
					</trkpt>
					<trkpt lat="49.876330" lon="4.891560">
						<ele>183</ele>
						<time>2025-12-07T15:25:05Z</time>
					</trkpt>
					<trkpt lat="49.876180" lon="4.892020">
						<ele>183</ele>
						<time>2025-12-07T15:25:22Z</time>
					</trkpt>
					<trkpt lat="49.876150" lon="4.892270">
						<ele>184</ele>
						<time>2025-12-07T15:25:30Z</time>
					</trkpt>
					<trkpt lat="49.876160" lon="4.893150">
						<ele>188</ele>
						<time>2025-12-07T15:25:58Z</time>
					</trkpt>
					<trkpt lat="49.876100" lon="4.893540">
						<ele>190</ele>
						<time>2025-12-07T15:26:11Z</time>
					</trkpt>
					<trkpt lat="49.876000" lon="4.893910">
						<ele>190</ele>
						<time>2025-12-07T15:26:24Z</time>
					</trkpt>
					<trkpt lat="49.875830" lon="4.894240">
						<ele>187</ele>
						<time>2025-12-07T15:26:38Z</time>
					</trkpt>
					<trkpt lat="49.875770" lon="4.894540">
						<ele>191</ele>
						<time>2025-12-07T15:26:48Z</time>
					</trkpt>
					<trkpt lat="49.875640" lon="4.894760">
						<ele>192</ele>
						<time>2025-12-07T15:26:58Z</time>
					</trkpt>
					<trkpt lat="49.875510" lon="4.895080">
						<ele>194</ele>
						<time>2025-12-07T15:27:10Z</time>
					</trkpt>
					<trkpt lat="49.875260" lon="4.895530">
						<ele>195</ele>
						<time>2025-12-07T15:27:29Z</time>
					</trkpt>
					<trkpt lat="49.875080" lon="4.895730">
						<ele>193</ele>
						<time>2025-12-07T15:27:40Z</time>
					</trkpt>
					<trkpt lat="49.874830" lon="4.895870">
						<ele>190</ele>
						<time>2025-12-07T15:27:53Z</time>
					</trkpt>
					<trkpt lat="49.874650" lon="4.895940">
						<ele>188</ele>
						<time>2025-12-07T15:28:03Z</time>
					</trkpt>
					<trkpt lat="49.874570" lon="4.896140">
						<ele>190</ele>
						<time>2025-12-07T15:28:10Z</time>
					</trkpt>
					<trkpt lat="49.874510" lon="4.896190">
						<ele>190</ele>
						<time>2025-12-07T15:28:14Z</time>
					</trkpt>
					<trkpt lat="49.874340" lon="4.896150">
						<ele>185</ele>
						<time>2025-12-07T15:28:22Z</time>
					</trkpt>
					<trkpt lat="49.874270" lon="4.896210">
						<ele>185</ele>
						<time>2025-12-07T15:28:26Z</time>
					</trkpt>
					<trkpt lat="49.874240" lon="4.896280">
						<ele>185</ele>
						<time>2025-12-07T15:28:29Z</time>
					</trkpt>
					<trkpt lat="49.874160" lon="4.896280">
						<ele>183</ele>
						<time>2025-12-07T15:28:33Z</time>
					</trkpt>
					<trkpt lat="49.874110" lon="4.896250">
						<ele>183</ele>
						<time>2025-12-07T15:28:36Z</time>
					</trkpt>
					<trkpt lat="49.873790" lon="4.896160">
						<ele>180</ele>
						<time>2025-12-07T15:28:52Z</time>
					</trkpt>
					<trkpt lat="49.873620" lon="4.896090">
						<ele>179</ele>
						<time>2025-12-07T15:29:01Z</time>
					</trkpt>
					<trkpt lat="49.873360" lon="4.895920">
						<ele>178</ele>
						<time>2025-12-07T15:29:15Z</time>
					</trkpt>
					<trkpt lat="49.873290" lon="4.895810">
						<ele>178</ele>
						<time>2025-12-07T15:29:20Z</time>
					</trkpt>
					<trkpt lat="49.873220" lon="4.895630">
						<ele>178</ele>
						<time>2025-12-07T15:29:27Z</time>
					</trkpt>
					<trkpt lat="49.873090" lon="4.895590">
						<ele>178</ele>
						<time>2025-12-07T15:29:33Z</time>
					</trkpt>
					<trkpt lat="49.872840" lon="4.895450">
						<ele>178</ele>
						<time>2025-12-07T15:29:47Z</time>
					</trkpt>
					<trkpt lat="49.872770" lon="4.895310">
						<ele>178</ele>
						<time>2025-12-07T15:29:52Z</time>
					</trkpt>
					<trkpt lat="49.872690" lon="4.895190">
						<ele>178</ele>
						<time>2025-12-07T15:29:58Z</time>
					</trkpt>
					<trkpt lat="49.872620" lon="4.895100">
						<ele>178</ele>
						<time>2025-12-07T15:30:02Z</time>
					</trkpt>
					<trkpt lat="49.872590" lon="4.894960">
						<ele>178</ele>
						<time>2025-12-07T15:30:07Z</time>
					</trkpt>
					<trkpt lat="49.872570" lon="4.894880">
						<ele>179</ele>
						<time>2025-12-07T15:30:10Z</time>
					</trkpt>
					<trkpt lat="49.872290" lon="4.894570">
						<ele>180</ele>
						<time>2025-12-07T15:30:27Z</time>
					</trkpt>
					<trkpt lat="49.872080" lon="4.894360">
						<ele>179</ele>
						<time>2025-12-07T15:30:40Z</time>
					</trkpt>
					<trkpt lat="49.871940" lon="4.894200">
						<ele>178</ele>
						<time>2025-12-07T15:30:48Z</time>
					</trkpt>
					<trkpt lat="49.871810" lon="4.894030">
						<ele>179</ele>
						<time>2025-12-07T15:30:57Z</time>
					</trkpt>
					<trkpt lat="49.871600" lon="4.893680">
						<ele>181</ele>
						<time>2025-12-07T15:31:12Z</time>
					</trkpt>
					<trkpt lat="49.871370" lon="4.893420">
						<ele>182</ele>
						<time>2025-12-07T15:31:26Z</time>
					</trkpt>
					<trkpt lat="49.871300" lon="4.893370">
						<ele>182</ele>
						<time>2025-12-07T15:31:30Z</time>
					</trkpt>
					<trkpt lat="49.871280" lon="4.893390">
						<ele>181</ele>
						<time>2025-12-07T15:31:32Z</time>
					</trkpt>
					<trkpt lat="49.871200" lon="4.893620">
						<ele>179</ele>
						<time>2025-12-07T15:31:40Z</time>
					</trkpt>
					</trkseg>
				</trk>
			</gpx>